<?xml version="1.0" encoding="UTF-8"?>
<gpx xmlns="http://www.topografix.com/GPX/1/1" xmlns:dkl="http://www.gpsware.de/DKL/1/1" xmlns:rtx="http://www.bike-gps.de/RTX/1/1" version="1.1" creator="DKL Digital Map Viewer" xmlns:xsi="http://www.w3.org/2001/XMLSchema-instance" xsi:schemaLocation="http://www.topografix.com/GPX/1/1 http://www.topografix.com/GPX/1/1/gpx.xsd">
 <metadata>
 <name>KOMPASS Digital Map Track</name>
 <desc> </desc>
 <time>2010-09-05T16:20:32Z</time>
 <bounds minlat="47.421349" minlon="13.035489" maxlat="47.818256" maxlon="13.224155"/>
 </metadata>
 <trk>
 <name>2010_Sb_Bo_linkesUfer</name>
 <cmt>Sb - Bo (linkes Ufer)</cmt>
 <extensions>
 <dkl:dkl>
 <dkl:format_version>1.1</dkl:format_version>
 <dkl:format>
 <dkl:color>FF0000</dkl:color>
 </dkl:format>
 </dkl:dkl>
 </extensions>
 <trkseg>
 <trkpt lat="47.818256" lon="13.046456">
 <ele>400.53</ele>
 <time>2009-09-23T11:20:37Z</time>
 </trkpt>
 <trkpt lat="47.818256" lon="13.046458">
 <ele>400.05</ele>
 <time>2009-09-23T11:20:38Z</time>
 </trkpt>
 <trkpt lat="47.818256" lon="13.046457">
 <ele>331.31</ele>
 <time>2009-09-23T11:20:39Z</time>
 </trkpt>
 <trkpt lat="47.818245" lon="13.046466">
 <ele>331.79</ele>
 <time>2009-09-23T11:20:44Z</time>
 </trkpt>
 <trkpt lat="47.818180" lon="13.046382">
 <ele>332.27</ele>
 <time>2009-09-23T11:20:48Z</time>
 </trkpt>
 <trkpt lat="47.818005" lon="13.046017">
 <ele>332.27</ele>
 <time>2009-09-23T11:20:55Z</time>
 </trkpt>
 <trkpt lat="47.817772" lon="13.045620">
 <ele>332.75</ele>
 <time>2009-09-23T11:21:02Z</time>
 </trkpt>
 <trkpt lat="47.817444" lon="13.045314">
 <ele>332.75</ele>
 <time>2009-09-23T11:21:09Z</time>
 </trkpt>
 <trkpt lat="47.817162" lon="13.045129">
 <ele>332.27</ele>
 <time>2009-09-23T11:21:15Z</time>
 </trkpt>
 <trkpt lat="47.817036" lon="13.045051">
 <ele>331.79</ele>
 <time>2009-09-23T11:21:20Z</time>
 </trkpt>
 <trkpt lat="47.816898" lon="13.044978">
 <ele>332.75</ele>
 <time>2009-09-23T11:21:26Z</time>
 </trkpt>
 <trkpt lat="47.816792" lon="13.044890">
 <ele>332.75</ele>
 <time>2009-09-23T11:21:31Z</time>
 </trkpt>
 <trkpt lat="47.816750" lon="13.044881">
 <ele>332.75</ele>
 <time>2009-09-23T11:21:32Z</time>
 </trkpt>
 <trkpt lat="47.816475" lon="13.044740">
 <ele>332.75</ele>
 <time>2009-09-23T11:21:38Z</time>
 </trkpt>
 <trkpt lat="47.816101" lon="13.044530">
 <ele>333.23</ele>
 <time>2009-09-23T11:21:46Z</time>
 </trkpt>
 <trkpt lat="47.815678" lon="13.044198">
 <ele>333.71</ele>
 <time>2009-09-23T11:21:55Z</time>
 </trkpt>
 <trkpt lat="47.815338" lon="13.044041">
 <ele>332.75</ele>
 <time>2009-09-23T11:22:01Z</time>
 </trkpt>
 <trkpt lat="47.815277" lon="13.044016">
 <ele>332.75</ele>
 <time>2009-09-23T11:22:02Z</time>
 </trkpt>
 <trkpt lat="47.814999" lon="13.043906">
 <ele>333.23</ele>
 <time>2009-09-23T11:22:08Z</time>
 </trkpt>
 <trkpt lat="47.814884" lon="13.043909">
 <ele>333.71</ele>
 <time>2009-09-23T11:22:12Z</time>
 </trkpt>
 <trkpt lat="47.814865" lon="13.043914">
 <ele>334.68</ele>
 <time>2009-09-23T11:22:17Z</time>
 </trkpt>
 <trkpt lat="47.814899" lon="13.043917">
 <ele>334.68</ele>
 <time>2009-09-23T11:22:24Z</time>
 </trkpt>
 <trkpt lat="47.814781" lon="13.043865">
 <ele>335.16</ele>
 <time>2009-09-23T11:22:30Z</time>
 </trkpt>
 <trkpt lat="47.814617" lon="13.043797">
 <ele>335.16</ele>
 <time>2009-09-23T11:22:35Z</time>
 </trkpt>
 <trkpt lat="47.814480" lon="13.043749">
 <ele>336.12</ele>
 <time>2009-09-23T11:22:40Z</time>
 </trkpt>
 <trkpt lat="47.814384" lon="13.043744">
 <ele>337.08</ele>
 <time>2009-09-23T11:22:46Z</time>
 </trkpt>
 <trkpt lat="47.814381" lon="13.043791">
 <ele>337.56</ele>
 <time>2009-09-23T11:22:56Z</time>
 </trkpt>
 <trkpt lat="47.814373" lon="13.043828">
 <ele>338.52</ele>
 <time>2009-09-23T11:23:02Z</time>
 </trkpt>
 <trkpt lat="47.814274" lon="13.043955">
 <ele>339.00</ele>
 <time>2009-09-23T11:23:07Z</time>
 </trkpt>
 <trkpt lat="47.814251" lon="13.043991">
 <ele>339.48</ele>
 <time>2009-09-23T11:23:08Z</time>
 </trkpt>
 <trkpt lat="47.814201" lon="13.044078">
 <ele>339.00</ele>
 <time>2009-09-23T11:23:13Z</time>
 </trkpt>
 <trkpt lat="47.814251" lon="13.044008">
 <ele>339.00</ele>
 <time>2009-09-23T11:23:18Z</time>
 </trkpt>
 <trkpt lat="47.814274" lon="13.043907">
 <ele>339.48</ele>
 <time>2009-09-23T11:23:24Z</time>
 </trkpt>
 <trkpt lat="47.814369" lon="13.043658">
 <ele>339.00</ele>
 <time>2009-09-23T11:23:31Z</time>
 </trkpt>
 <trkpt lat="47.814331" lon="13.043303">
 <ele>339.48</ele>
 <time>2009-09-23T11:23:36Z</time>
 </trkpt>
 <trkpt lat="47.814453" lon="13.042751">
 <ele>339.96</ele>
 <time>2009-09-23T11:23:42Z</time>
 </trkpt>
 <trkpt lat="47.814468" lon="13.042470">
 <ele>339.96</ele>
 <time>2009-09-23T11:23:45Z</time>
 </trkpt>
 <trkpt lat="47.814487" lon="13.042253">
 <ele>339.96</ele>
 <time>2009-09-23T11:23:48Z</time>
 </trkpt>
 <trkpt lat="47.814472" lon="13.041888">
 <ele>339.96</ele>
 <time>2009-09-23T11:23:52Z</time>
 </trkpt>
 <trkpt lat="47.814442" lon="13.041773">
 <ele>339.96</ele>
 <time>2009-09-23T11:23:53Z</time>
 </trkpt>
 <trkpt lat="47.814346" lon="13.040994">
 <ele>338.52</ele>
 <time>2009-09-23T11:24:01Z</time>
 </trkpt>
 <trkpt lat="47.814339" lon="13.040277">
 <ele>338.52</ele>
 <time>2009-09-23T11:24:09Z</time>
 </trkpt>
 <trkpt lat="47.814331" lon="13.039642">
 <ele>338.52</ele>
 <time>2009-09-23T11:24:17Z</time>
 </trkpt>
 <trkpt lat="47.814320" lon="13.039127">
 <ele>338.52</ele>
 <time>2009-09-23T11:24:24Z</time>
 </trkpt>
 <trkpt lat="47.814320" lon="13.039063">
 <ele>338.52</ele>
 <time>2009-09-23T11:24:25Z</time>
 </trkpt>
 <trkpt lat="47.814323" lon="13.038574">
 <ele>339.48</ele>
 <time>2009-09-23T11:24:32Z</time>
 </trkpt>
 <trkpt lat="47.814327" lon="13.038410">
 <ele>339.48</ele>
 <time>2009-09-23T11:24:36Z</time>
 </trkpt>
 <trkpt lat="47.814327" lon="13.038181">
 <ele>339.48</ele>
 <time>2009-09-23T11:24:40Z</time>
 </trkpt>
 <trkpt lat="47.814323" lon="13.037788">
 <ele>339.48</ele>
 <time>2009-09-23T11:24:46Z</time>
 </trkpt>
 <trkpt lat="47.814301" lon="13.037481">
 <ele>339.48</ele>
 <time>2009-09-23T11:24:52Z</time>
 </trkpt>
 <trkpt lat="47.814404" lon="13.037390">
 <ele>339.48</ele>
 <time>2009-09-23T11:24:56Z</time>
 </trkpt>
 <trkpt lat="47.814644" lon="13.037355">
 <ele>339.96</ele>
 <time>2009-09-23T11:25:02Z</time>
 </trkpt>
 <trkpt lat="47.814674" lon="13.037354">
 <ele>339.96</ele>
 <time>2009-09-23T11:25:03Z</time>
 </trkpt>
 <trkpt lat="47.814690" lon="13.037298">
 <ele>340.44</ele>
 <time>2009-09-23T11:25:07Z</time>
 </trkpt>
 <trkpt lat="47.814648" lon="13.037292">
 <ele>340.44</ele>
 <time>2009-09-23T11:25:09Z</time>
 </trkpt>
 <trkpt lat="47.814438" lon="13.037334">
 <ele>342.37</ele>
 <time>2009-09-23T11:25:16Z</time>
 </trkpt>
 <trkpt lat="47.814362" lon="13.037351">
 <ele>342.85</ele>
 <time>2009-09-23T11:25:19Z</time>
 </trkpt>
 <trkpt lat="47.814331" lon="13.037253">
 <ele>343.33</ele>
 <time>2009-09-23T11:25:24Z</time>
 </trkpt>
 <trkpt lat="47.814331" lon="13.037216">
 <ele>343.81</ele>
 <time>2009-09-23T11:25:25Z</time>
 </trkpt>
 <trkpt lat="47.814327" lon="13.036775">
 <ele>345.73</ele>
 <time>2009-09-23T11:25:34Z</time>
 </trkpt>
 <trkpt lat="47.814316" lon="13.036209">
 <ele>345.73</ele>
 <time>2009-09-23T11:25:44Z</time>
 </trkpt>
 <trkpt lat="47.814308" lon="13.035985">
 <ele>345.73</ele>
 <time>2009-09-23T11:25:48Z</time>
 </trkpt>
 <trkpt lat="47.814373" lon="13.035923">
 <ele>344.29</ele>
 <time>2009-09-23T11:25:52Z</time>
 </trkpt>
 <trkpt lat="47.814404" lon="13.035913">
 <ele>343.81</ele>
 <time>2009-09-23T11:25:53Z</time>
 </trkpt>
 <trkpt lat="47.814598" lon="13.035874">
 <ele>342.37</ele>
 <time>2009-09-23T11:25:59Z</time>
 </trkpt>
 <trkpt lat="47.814598" lon="13.035787">
 <ele>341.89</ele>
 <time>2009-09-23T11:26:03Z</time>
 </trkpt>
 <trkpt lat="47.814548" lon="13.035774">
 <ele>341.89</ele>
 <time>2009-09-23T11:26:05Z</time>
 </trkpt>
 <trkpt lat="47.814278" lon="13.035857">
 <ele>342.85</ele>
 <time>2009-09-23T11:26:12Z</time>
 </trkpt>
 <trkpt lat="47.814045" lon="13.035943">
 <ele>343.81</ele>
 <time>2009-09-23T11:26:18Z</time>
 </trkpt>
 <trkpt lat="47.813702" lon="13.036008">
 <ele>343.81</ele>
 <time>2009-09-23T11:26:26Z</time>
 </trkpt>
 <trkpt lat="47.813324" lon="13.036050">
 <ele>344.29</ele>
 <time>2009-09-23T11:26:34Z</time>
 </trkpt>
 <trkpt lat="47.812889" lon="13.036071">
 <ele>345.25</ele>
 <time>2009-09-23T11:26:43Z</time>
 </trkpt>
 <trkpt lat="47.812378" lon="13.036050">
 <ele>345.25</ele>
 <time>2009-09-23T11:26:53Z</time>
 </trkpt>
 <trkpt lat="47.811943" lon="13.036038">
 <ele>345.73</ele>
 <time>2009-09-23T11:27:02Z</time>
 </trkpt>
 <trkpt lat="47.811516" lon="13.036074">
 <ele>345.73</ele>
 <time>2009-09-23T11:27:11Z</time>
 </trkpt>
 <trkpt lat="47.811241" lon="13.036078">
 <ele>343.81</ele>
 <time>2009-09-23T11:27:15Z</time>
 </trkpt>
 <trkpt lat="47.811104" lon="13.036065">
 <ele>343.81</ele>
 <time>2009-09-23T11:27:17Z</time>
 </trkpt>
 <trkpt lat="47.810825" lon="13.036255">
 <ele>343.81</ele>
 <time>2009-09-23T11:27:20Z</time>
 </trkpt>
 <trkpt lat="47.810692" lon="13.036197">
 <ele>344.29</ele>
 <time>2009-09-23T11:27:22Z</time>
 </trkpt>
 <trkpt lat="47.810562" lon="13.036104">
 <ele>345.25</ele>
 <time>2009-09-23T11:27:25Z</time>
 </trkpt>
 <trkpt lat="47.810398" lon="13.035990">
 <ele>347.65</ele>
 <time>2009-09-23T11:27:31Z</time>
 </trkpt>
 <trkpt lat="47.810223" lon="13.035901">
 <ele>347.65</ele>
 <time>2009-09-23T11:27:36Z</time>
 </trkpt>
 <trkpt lat="47.810104" lon="13.035851">
 <ele>348.62</ele>
 <time>2009-09-23T11:27:39Z</time>
 </trkpt>
 <trkpt lat="47.809700" lon="13.035673">
 <ele>347.65</ele>
 <time>2009-09-23T11:27:48Z</time>
 </trkpt>
 <trkpt lat="47.809307" lon="13.035570">
 <ele>348.13</ele>
 <time>2009-09-23T11:27:56Z</time>
 </trkpt>
 <trkpt lat="47.808952" lon="13.035500">
 <ele>348.62</ele>
 <time>2009-09-23T11:28:04Z</time>
 </trkpt>
 <trkpt lat="47.808823" lon="13.035489">
 <ele>348.62</ele>
 <time>2009-09-23T11:28:07Z</time>
 </trkpt>
 <trkpt lat="47.808613" lon="13.035559">
 <ele>349.10</ele>
 <time>2009-09-23T11:28:12Z</time>
 </trkpt>
 <trkpt lat="47.808487" lon="13.035637">
 <ele>349.10</ele>
 <time>2009-09-23T11:28:15Z</time>
 </trkpt>
 <trkpt lat="47.808228" lon="13.035594">
 <ele>349.10</ele>
 <time>2009-09-23T11:28:21Z</time>
 </trkpt>
 <trkpt lat="47.808140" lon="13.035572">
 <ele>349.58</ele>
 <time>2009-09-23T11:28:23Z</time>
 </trkpt>
 <trkpt lat="47.808006" lon="13.035590">
 <ele>349.58</ele>
 <time>2009-09-23T11:28:26Z</time>
 </trkpt>
 <trkpt lat="47.807743" lon="13.035683">
 <ele>349.58</ele>
 <time>2009-09-23T11:28:32Z</time>
 </trkpt>
 <trkpt lat="47.807350" lon="13.035832">
 <ele>350.06</ele>
 <time>2009-09-23T11:28:40Z</time>
 </trkpt>
 <trkpt lat="47.806915" lon="13.036012">
 <ele>351.02</ele>
 <time>2009-09-23T11:28:49Z</time>
 </trkpt>
 <trkpt lat="47.806625" lon="13.036180">
 <ele>351.50</ele>
 <time>2009-09-23T11:28:56Z</time>
 </trkpt>
 <trkpt lat="47.806328" lon="13.036353">
 <ele>351.50</ele>
 <time>2009-09-23T11:29:03Z</time>
 </trkpt>
 <trkpt lat="47.805946" lon="13.036545">
 <ele>351.02</ele>
 <time>2009-09-23T11:29:11Z</time>
 </trkpt>
 <trkpt lat="47.805618" lon="13.036722">
 <ele>351.50</ele>
 <time>2009-09-23T11:29:18Z</time>
 </trkpt>
 <trkpt lat="47.805359" lon="13.036880">
 <ele>351.50</ele>
 <time>2009-09-23T11:29:24Z</time>
 </trkpt>
 <trkpt lat="47.805046" lon="13.037060">
 <ele>352.46</ele>
 <time>2009-09-23T11:29:31Z</time>
 </trkpt>
 <trkpt lat="47.804871" lon="13.037179">
 <ele>352.94</ele>
 <time>2009-09-23T11:29:36Z</time>
 </trkpt>
 <trkpt lat="47.804779" lon="13.037230">
 <ele>352.94</ele>
 <time>2009-09-23T11:29:38Z</time>
 </trkpt>
 <trkpt lat="47.804497" lon="13.037368">
 <ele>352.94</ele>
 <time>2009-09-23T11:29:44Z</time>
 </trkpt>
 <trkpt lat="47.804451" lon="13.037394">
 <ele>353.42</ele>
 <time>2009-09-23T11:29:45Z</time>
 </trkpt>
 <trkpt lat="47.804081" lon="13.037650">
 <ele>353.90</ele>
 <time>2009-09-23T11:29:53Z</time>
 </trkpt>
 <trkpt lat="47.803822" lon="13.037866">
 <ele>354.38</ele>
 <time>2009-09-23T11:29:59Z</time>
 </trkpt>
 <trkpt lat="47.803780" lon="13.037905">
 <ele>353.90</ele>
 <time>2009-09-23T11:30:00Z</time>
 </trkpt>
 <trkpt lat="47.803505" lon="13.038133">
 <ele>354.38</ele>
 <time>2009-09-23T11:30:06Z</time>
 </trkpt>
 <trkpt lat="47.803226" lon="13.038381">
 <ele>354.86</ele>
 <time>2009-09-23T11:30:13Z</time>
 </trkpt>
 <trkpt lat="47.802963" lon="13.038658">
 <ele>355.34</ele>
 <time>2009-09-23T11:30:20Z</time>
 </trkpt>
 <trkpt lat="47.802887" lon="13.038794">
 <ele>354.86</ele>
 <time>2009-09-23T11:30:24Z</time>
 </trkpt>
 <trkpt lat="47.802742" lon="13.038925">
 <ele>355.34</ele>
 <time>2009-09-23T11:30:29Z</time>
 </trkpt>
 <trkpt lat="47.802620" lon="13.039012">
 <ele>355.34</ele>
 <time>2009-09-23T11:30:33Z</time>
 </trkpt>
 <trkpt lat="47.802563" lon="13.039098">
 <ele>355.83</ele>
 <time>2009-09-23T11:30:35Z</time>
 </trkpt>
 <trkpt lat="47.802330" lon="13.039403">
 <ele>356.31</ele>
 <time>2009-09-23T11:30:42Z</time>
 </trkpt>
 <trkpt lat="47.802147" lon="13.039689">
 <ele>356.31</ele>
 <time>2009-09-23T11:30:48Z</time>
 </trkpt>
 <trkpt lat="47.802116" lon="13.039742">
 <ele>355.83</ele>
 <time>2009-09-23T11:30:49Z</time>
 </trkpt>
 <trkpt lat="47.801826" lon="13.040265">
 <ele>356.79</ele>
 <time>2009-09-23T11:30:58Z</time>
 </trkpt>
 <trkpt lat="47.801678" lon="13.040585">
 <ele>356.79</ele>
 <time>2009-09-23T11:31:04Z</time>
 </trkpt>
 <trkpt lat="47.801674" lon="13.040775">
 <ele>356.31</ele>
 <time>2009-09-23T11:31:08Z</time>
 </trkpt>
 <trkpt lat="47.801670" lon="13.040883">
 <ele>356.79</ele>
 <time>2009-09-23T11:31:10Z</time>
 </trkpt>
 <trkpt lat="47.801514" lon="13.041318">
 <ele>356.79</ele>
 <time>2009-09-23T11:31:17Z</time>
 </trkpt>
 <trkpt lat="47.801388" lon="13.041692">
 <ele>356.31</ele>
 <time>2009-09-23T11:31:22Z</time>
 </trkpt>
 <trkpt lat="47.801289" lon="13.042060">
 <ele>356.31</ele>
 <time>2009-09-23T11:31:26Z</time>
 </trkpt>
 <trkpt lat="47.801102" lon="13.042482">
 <ele>357.27</ele>
 <time>2009-09-23T11:31:32Z</time>
 </trkpt>
 <trkpt lat="47.801018" lon="13.042687">
 <ele>357.75</ele>
 <time>2009-09-23T11:31:36Z</time>
 </trkpt>
 <trkpt lat="47.800873" lon="13.043115">
 <ele>358.23</ele>
 <time>2009-09-23T11:31:43Z</time>
 </trkpt>
 <trkpt lat="47.800812" lon="13.043478">
 <ele>357.75</ele>
 <time>2009-09-23T11:31:48Z</time>
 </trkpt>
 <trkpt lat="47.800648" lon="13.044246">
 <ele>358.23</ele>
 <time>2009-09-23T11:31:58Z</time>
 </trkpt>
 <trkpt lat="47.800613" lon="13.044581">
 <ele>358.71</ele>
 <time>2009-09-23T11:32:03Z</time>
 </trkpt>
 <trkpt lat="47.800617" lon="13.044659">
 <ele>358.71</ele>
 <time>2009-09-23T11:32:04Z</time>
 </trkpt>
 <trkpt lat="47.800491" lon="13.045246">
 <ele>360.15</ele>
 <time>2009-09-23T11:32:11Z</time>
 </trkpt>
 <trkpt lat="47.800392" lon="13.045499">
 <ele>360.63</ele>
 <time>2009-09-23T11:32:15Z</time>
 </trkpt>
 <trkpt lat="47.800243" lon="13.046111">
 <ele>360.15</ele>
 <time>2009-09-23T11:32:23Z</time>
 </trkpt>
 <trkpt lat="47.800030" lon="13.046902">
 <ele>361.11</ele>
 <time>2009-09-23T11:32:33Z</time>
 </trkpt>
 <trkpt lat="47.799801" lon="13.047564">
 <ele>361.59</ele>
 <time>2009-09-23T11:32:42Z</time>
 </trkpt>
 <trkpt lat="47.799572" lon="13.048271">
 <ele>362.55</ele>
 <time>2009-09-23T11:32:52Z</time>
 </trkpt>
 <trkpt lat="47.799431" lon="13.048761">
 <ele>361.59</ele>
 <time>2009-09-23T11:32:58Z</time>
 </trkpt>
 <trkpt lat="47.799290" lon="13.049167">
 <ele>362.55</ele>
 <time>2009-09-23T11:33:03Z</time>
 </trkpt>
 <trkpt lat="47.799114" lon="13.049643">
 <ele>363.52</ele>
 <time>2009-09-23T11:33:10Z</time>
 </trkpt>
 <trkpt lat="47.798893" lon="13.050322">
 <ele>363.52</ele>
 <time>2009-09-23T11:33:19Z</time>
 </trkpt>
 <trkpt lat="47.798622" lon="13.051097">
 <ele>364.00</ele>
 <time>2009-09-23T11:33:29Z</time>
 </trkpt>
 <trkpt lat="47.798325" lon="13.051908">
 <ele>363.52</ele>
 <time>2009-09-23T11:33:40Z</time>
 </trkpt>
 <trkpt lat="47.798069" lon="13.052536">
 <ele>364.96</ele>
 <time>2009-09-23T11:33:49Z</time>
 </trkpt>
 <trkpt lat="47.797836" lon="13.053114">
 <ele>365.44</ele>
 <time>2009-09-23T11:33:58Z</time>
 </trkpt>
 <trkpt lat="47.797813" lon="13.053187">
 <ele>364.96</ele>
 <time>2009-09-23T11:33:59Z</time>
 </trkpt>
 <trkpt lat="47.797787" lon="13.053337">
 <ele>364.00</ele>
 <time>2009-09-23T11:34:01Z</time>
 </trkpt>
 <trkpt lat="47.797691" lon="13.053629">
 <ele>363.52</ele>
 <time>2009-09-23T11:34:05Z</time>
 </trkpt>
 <trkpt lat="47.797619" lon="13.053741">
 <ele>364.48</ele>
 <time>2009-09-23T11:34:07Z</time>
 </trkpt>
 <trkpt lat="47.797405" lon="13.054155">
 <ele>366.40</ele>
 <time>2009-09-23T11:34:15Z</time>
 </trkpt>
 <trkpt lat="47.797375" lon="13.054207">
 <ele>366.40</ele>
 <time>2009-09-23T11:34:17Z</time>
 </trkpt>
 <trkpt lat="47.797264" lon="13.054430">
 <ele>365.92</ele>
 <time>2009-09-23T11:34:22Z</time>
 </trkpt>
 <trkpt lat="47.797073" lon="13.054838">
 <ele>365.92</ele>
 <time>2009-09-23T11:34:29Z</time>
 </trkpt>
 <trkpt lat="47.796864" lon="13.055282">
 <ele>366.40</ele>
 <time>2009-09-23T11:34:36Z</time>
 </trkpt>
 <trkpt lat="47.796749" lon="13.055517">
 <ele>366.40</ele>
 <time>2009-09-23T11:34:40Z</time>
 </trkpt>
 <trkpt lat="47.796684" lon="13.055633">
 <ele>366.88</ele>
 <time>2009-09-23T11:34:42Z</time>
 </trkpt>
 <trkpt lat="47.796516" lon="13.055988">
 <ele>366.88</ele>
 <time>2009-09-23T11:34:48Z</time>
 </trkpt>
 <trkpt lat="47.796398" lon="13.056223">
 <ele>366.88</ele>
 <time>2009-09-23T11:34:53Z</time>
 </trkpt>
 <trkpt lat="47.796318" lon="13.056428">
 <ele>366.88</ele>
 <time>2009-09-23T11:34:58Z</time>
 </trkpt>
 <trkpt lat="47.796120" lon="13.056835">
 <ele>367.84</ele>
 <time>2009-09-23T11:35:05Z</time>
 </trkpt>
 <trkpt lat="47.796097" lon="13.056896">
 <ele>367.36</ele>
 <time>2009-09-23T11:35:06Z</time>
 </trkpt>
 <trkpt lat="47.795975" lon="13.057123">
 <ele>367.84</ele>
 <time>2009-09-23T11:35:10Z</time>
 </trkpt>
 <trkpt lat="47.795895" lon="13.057374">
 <ele>367.36</ele>
 <time>2009-09-23T11:35:14Z</time>
 </trkpt>
 <trkpt lat="47.795856" lon="13.057508">
 <ele>367.84</ele>
 <time>2009-09-23T11:35:16Z</time>
 </trkpt>
 <trkpt lat="47.795788" lon="13.057631">
 <ele>367.84</ele>
 <time>2009-09-23T11:35:18Z</time>
 </trkpt>
 <trkpt lat="47.795670" lon="13.057820">
 <ele>367.84</ele>
 <time>2009-09-23T11:35:21Z</time>
 </trkpt>
 <trkpt lat="47.795517" lon="13.058055">
 <ele>367.84</ele>
 <time>2009-09-23T11:35:25Z</time>
 </trkpt>
 <trkpt lat="47.795456" lon="13.058174">
 <ele>367.84</ele>
 <time>2009-09-23T11:35:27Z</time>
 </trkpt>
 <trkpt lat="47.795334" lon="13.058355">
 <ele>367.84</ele>
 <time>2009-09-23T11:35:30Z</time>
 </trkpt>
 <trkpt lat="47.795078" lon="13.058817">
 <ele>368.80</ele>
 <time>2009-09-23T11:35:38Z</time>
 </trkpt>
 <trkpt lat="47.794777" lon="13.059329">
 <ele>368.80</ele>
 <time>2009-09-23T11:35:47Z</time>
 </trkpt>
 <trkpt lat="47.794521" lon="13.059754">
 <ele>369.28</ele>
 <time>2009-09-23T11:35:55Z</time>
 </trkpt>
 <trkpt lat="47.794281" lon="13.060160">
 <ele>369.76</ele>
 <time>2009-09-23T11:36:02Z</time>
 </trkpt>
 <trkpt lat="47.794083" lon="13.060494">
 <ele>370.24</ele>
 <time>2009-09-23T11:36:08Z</time>
 </trkpt>
 <trkpt lat="47.793854" lon="13.060903">
 <ele>370.24</ele>
 <time>2009-09-23T11:36:15Z</time>
 </trkpt>
 <trkpt lat="47.793549" lon="13.061431">
 <ele>370.73</ele>
 <time>2009-09-23T11:36:24Z</time>
 </trkpt>
 <trkpt lat="47.793480" lon="13.061549">
 <ele>371.21</ele>
 <time>2009-09-23T11:36:26Z</time>
 </trkpt>
 <trkpt lat="47.793365" lon="13.061860">
 <ele>371.21</ele>
 <time>2009-09-23T11:36:31Z</time>
 </trkpt>
 <trkpt lat="47.793194" lon="13.062172">
 <ele>371.21</ele>
 <time>2009-09-23T11:36:36Z</time>
 </trkpt>
 <trkpt lat="47.792938" lon="13.062574">
 <ele>371.69</ele>
 <time>2009-09-23T11:36:43Z</time>
 </trkpt>
 <trkpt lat="47.792683" lon="13.063013">
 <ele>372.17</ele>
 <time>2009-09-23T11:36:50Z</time>
 </trkpt>
 <trkpt lat="47.792500" lon="13.063361">
 <ele>372.17</ele>
 <time>2009-09-23T11:36:55Z</time>
 </trkpt>
 <trkpt lat="47.792393" lon="13.063568">
 <ele>371.69</ele>
 <time>2009-09-23T11:36:58Z</time>
 </trkpt>
 <trkpt lat="47.792198" lon="13.063875">
 <ele>372.17</ele>
 <time>2009-09-23T11:37:03Z</time>
 </trkpt>
 <trkpt lat="47.791958" lon="13.064321">
 <ele>372.65</ele>
 <time>2009-09-23T11:37:10Z</time>
 </trkpt>
 <trkpt lat="47.791714" lon="13.064756">
 <ele>373.13</ele>
 <time>2009-09-23T11:37:17Z</time>
 </trkpt>
 <trkpt lat="47.791603" lon="13.064939">
 <ele>373.13</ele>
 <time>2009-09-23T11:37:20Z</time>
 </trkpt>
 <trkpt lat="47.791489" lon="13.065192">
 <ele>373.13</ele>
 <time>2009-09-23T11:37:24Z</time>
 </trkpt>
 <trkpt lat="47.791416" lon="13.065314">
 <ele>373.13</ele>
 <time>2009-09-23T11:37:26Z</time>
 </trkpt>
 <trkpt lat="47.791176" lon="13.065754">
 <ele>373.61</ele>
 <time>2009-09-23T11:37:33Z</time>
 </trkpt>
 <trkpt lat="47.791080" lon="13.065949">
 <ele>373.61</ele>
 <time>2009-09-23T11:37:36Z</time>
 </trkpt>
 <trkpt lat="47.790833" lon="13.066404">
 <ele>374.09</ele>
 <time>2009-09-23T11:37:43Z</time>
 </trkpt>
 <trkpt lat="47.790573" lon="13.066836">
 <ele>374.09</ele>
 <time>2009-09-23T11:37:50Z</time>
 </trkpt>
 <trkpt lat="47.790169" lon="13.067495">
 <ele>375.05</ele>
 <time>2009-09-23T11:38:01Z</time>
 </trkpt>
 <trkpt lat="47.789860" lon="13.067914">
 <ele>375.05</ele>
 <time>2009-09-23T11:38:09Z</time>
 </trkpt>
 <trkpt lat="47.789612" lon="13.068234">
 <ele>375.05</ele>
 <time>2009-09-23T11:38:16Z</time>
 </trkpt>
 <trkpt lat="47.789223" lon="13.068750">
 <ele>375.05</ele>
 <time>2009-09-23T11:38:26Z</time>
 </trkpt>
 <trkpt lat="47.789127" lon="13.068982">
 <ele>375.05</ele>
 <time>2009-09-23T11:38:30Z</time>
 </trkpt>
 <trkpt lat="47.789036" lon="13.069272">
 <ele>375.05</ele>
 <time>2009-09-23T11:38:34Z</time>
 </trkpt>
 <trkpt lat="47.788994" lon="13.069336">
 <ele>375.05</ele>
 <time>2009-09-23T11:38:35Z</time>
 </trkpt>
 <trkpt lat="47.788540" lon="13.069920">
 <ele>374.57</ele>
 <time>2009-09-23T11:38:45Z</time>
 </trkpt>
 <trkpt lat="47.788185" lon="13.070368">
 <ele>374.09</ele>
 <time>2009-09-23T11:38:53Z</time>
 </trkpt>
 <trkpt lat="47.787842" lon="13.070790">
 <ele>374.57</ele>
 <time>2009-09-23T11:39:01Z</time>
 </trkpt>
 <trkpt lat="47.787380" lon="13.071339">
 <ele>374.57</ele>
 <time>2009-09-23T11:39:12Z</time>
 </trkpt>
 <trkpt lat="47.786873" lon="13.071956">
 <ele>375.53</ele>
 <time>2009-09-23T11:39:24Z</time>
 </trkpt>
 <trkpt lat="47.786572" lon="13.072327">
 <ele>376.01</ele>
 <time>2009-09-23T11:39:31Z</time>
 </trkpt>
 <trkpt lat="47.786110" lon="13.072893">
 <ele>376.49</ele>
 <time>2009-09-23T11:39:42Z</time>
 </trkpt>
 <trkpt lat="47.785786" lon="13.073300">
 <ele>376.97</ele>
 <time>2009-09-23T11:39:50Z</time>
 </trkpt>
 <trkpt lat="47.785408" lon="13.073749">
 <ele>377.45</ele>
 <time>2009-09-23T11:39:59Z</time>
 </trkpt>
 <trkpt lat="47.785179" lon="13.074009">
 <ele>377.45</ele>
 <time>2009-09-23T11:40:05Z</time>
 </trkpt>
 <trkpt lat="47.785023" lon="13.074174">
 <ele>377.45</ele>
 <time>2009-09-23T11:40:09Z</time>
 </trkpt>
 <trkpt lat="47.784641" lon="13.074510">
 <ele>377.45</ele>
 <time>2009-09-23T11:40:17Z</time>
 </trkpt>
 <trkpt lat="47.784328" lon="13.074741">
 <ele>377.94</ele>
 <time>2009-09-23T11:40:23Z</time>
 </trkpt>
 <trkpt lat="47.783985" lon="13.074957">
 <ele>378.42</ele>
 <time>2009-09-23T11:40:30Z</time>
 </trkpt>
 <trkpt lat="47.783890" lon="13.075017">
 <ele>378.42</ele>
 <time>2009-09-23T11:40:32Z</time>
 </trkpt>
 <trkpt lat="47.783535" lon="13.075186">
 <ele>378.42</ele>
 <time>2009-09-23T11:40:39Z</time>
 </trkpt>
 <trkpt lat="47.783291" lon="13.075304">
 <ele>378.42</ele>
 <time>2009-09-23T11:40:44Z</time>
 </trkpt>
 <trkpt lat="47.782928" lon="13.075430">
 <ele>378.90</ele>
 <time>2009-09-23T11:40:51Z</time>
 </trkpt>
 <trkpt lat="47.782768" lon="13.075457">
 <ele>378.90</ele>
 <time>2009-09-23T11:40:54Z</time>
 </trkpt>
 <trkpt lat="47.782547" lon="13.075510">
 <ele>378.42</ele>
 <time>2009-09-23T11:40:58Z</time>
 </trkpt>
 <trkpt lat="47.782150" lon="13.075537">
 <ele>379.38</ele>
 <time>2009-09-23T11:41:05Z</time>
 </trkpt>
 <trkpt lat="47.781693" lon="13.075568">
 <ele>377.94</ele>
 <time>2009-09-23T11:41:13Z</time>
 </trkpt>
 <trkpt lat="47.781296" lon="13.075515">
 <ele>379.38</ele>
 <time>2009-09-23T11:41:20Z</time>
 </trkpt>
 <trkpt lat="47.780972" lon="13.075492">
 <ele>379.86</ele>
 <time>2009-09-23T11:41:26Z</time>
 </trkpt>
 <trkpt lat="47.780918" lon="13.075489">
 <ele>379.38</ele>
 <time>2009-09-23T11:41:27Z</time>
 </trkpt>
 <trkpt lat="47.780762" lon="13.075457">
 <ele>379.38</ele>
 <time>2009-09-23T11:41:30Z</time>
 </trkpt>
 <trkpt lat="47.780670" lon="13.075453">
 <ele>379.86</ele>
 <time>2009-09-23T11:41:32Z</time>
 </trkpt>
 <trkpt lat="47.780354" lon="13.075412">
 <ele>379.38</ele>
 <time>2009-09-23T11:41:38Z</time>
 </trkpt>
 <trkpt lat="47.780018" lon="13.075382">
 <ele>379.86</ele>
 <time>2009-09-23T11:41:44Z</time>
 </trkpt>
 <trkpt lat="47.779671" lon="13.075342">
 <ele>380.82</ele>
 <time>2009-09-23T11:41:50Z</time>
 </trkpt>
 <trkpt lat="47.779404" lon="13.075312">
 <ele>380.82</ele>
 <time>2009-09-23T11:41:55Z</time>
 </trkpt>
 <trkpt lat="47.779003" lon="13.075294">
 <ele>380.82</ele>
 <time>2009-09-23T11:42:02Z</time>
 </trkpt>
 <trkpt lat="47.778725" lon="13.075245">
 <ele>381.30</ele>
 <time>2009-09-23T11:42:07Z</time>
 </trkpt>
 <trkpt lat="47.778416" lon="13.075192">
 <ele>381.30</ele>
 <time>2009-09-23T11:42:13Z</time>
 </trkpt>
 <trkpt lat="47.778156" lon="13.075147">
 <ele>381.30</ele>
 <time>2009-09-23T11:42:18Z</time>
 </trkpt>
 <trkpt lat="47.777878" lon="13.075106">
 <ele>380.82</ele>
 <time>2009-09-23T11:42:23Z</time>
 </trkpt>
 <trkpt lat="47.777546" lon="13.075067">
 <ele>381.78</ele>
 <time>2009-09-23T11:42:29Z</time>
 </trkpt>
 <trkpt lat="47.777172" lon="13.075003">
 <ele>382.26</ele>
 <time>2009-09-23T11:42:36Z</time>
 </trkpt>
 <trkpt lat="47.776901" lon="13.074976">
 <ele>381.78</ele>
 <time>2009-09-23T11:42:41Z</time>
 </trkpt>
 <trkpt lat="47.776546" lon="13.074945">
 <ele>382.26</ele>
 <time>2009-09-23T11:42:47Z</time>
 </trkpt>
 <trkpt lat="47.776138" lon="13.074906">
 <ele>382.26</ele>
 <time>2009-09-23T11:42:54Z</time>
 </trkpt>
 <trkpt lat="47.775848" lon="13.074878">
 <ele>382.74</ele>
 <time>2009-09-23T11:42:59Z</time>
 </trkpt>
 <trkpt lat="47.775291" lon="13.074808">
 <ele>383.70</ele>
 <time>2009-09-23T11:43:09Z</time>
 </trkpt>
 <trkpt lat="47.774803" lon="13.074744">
 <ele>383.70</ele>
 <time>2009-09-23T11:43:18Z</time>
 </trkpt>
 <trkpt lat="47.774475" lon="13.074704">
 <ele>384.18</ele>
 <time>2009-09-23T11:43:24Z</time>
 </trkpt>
 <trkpt lat="47.774082" lon="13.074673">
 <ele>384.18</ele>
 <time>2009-09-23T11:43:31Z</time>
 </trkpt>
 <trkpt lat="47.773880" lon="13.074631">
 <ele>384.18</ele>
 <time>2009-09-23T11:43:35Z</time>
 </trkpt>
 <trkpt lat="47.773384" lon="13.074558">
 <ele>384.66</ele>
 <time>2009-09-23T11:43:44Z</time>
 </trkpt>
 <trkpt lat="47.773045" lon="13.074544">
 <ele>384.18</ele>
 <time>2009-09-23T11:43:50Z</time>
 </trkpt>
 <trkpt lat="47.772552" lon="13.074479">
 <ele>385.15</ele>
 <time>2009-09-23T11:43:59Z</time>
 </trkpt>
 <trkpt lat="47.772118" lon="13.074430">
 <ele>384.66</ele>
 <time>2009-09-23T11:44:07Z</time>
 </trkpt>
 <trkpt lat="47.771564" lon="13.074380">
 <ele>385.63</ele>
 <time>2009-09-23T11:44:17Z</time>
 </trkpt>
 <trkpt lat="47.771305" lon="13.074346">
 <ele>385.15</ele>
 <time>2009-09-23T11:44:22Z</time>
 </trkpt>
 <trkpt lat="47.771160" lon="13.074322">
 <ele>385.15</ele>
 <time>2009-09-23T11:44:25Z</time>
 </trkpt>
 <trkpt lat="47.771019" lon="13.074244">
 <ele>384.66</ele>
 <time>2009-09-23T11:44:28Z</time>
 </trkpt>
 <trkpt lat="47.770828" lon="13.074224">
 <ele>385.63</ele>
 <time>2009-09-23T11:44:32Z</time>
 </trkpt>
 <trkpt lat="47.770782" lon="13.074237">
 <ele>385.15</ele>
 <time>2009-09-23T11:44:33Z</time>
 </trkpt>
 <trkpt lat="47.770691" lon="13.074250">
 <ele>385.63</ele>
 <time>2009-09-23T11:44:35Z</time>
 </trkpt>
 <trkpt lat="47.770424" lon="13.074218">
 <ele>386.59</ele>
 <time>2009-09-23T11:44:41Z</time>
 </trkpt>
 <trkpt lat="47.770287" lon="13.074192">
 <ele>386.59</ele>
 <time>2009-09-23T11:44:44Z</time>
 </trkpt>
 <trkpt lat="47.769833" lon="13.074143">
 <ele>387.55</ele>
 <time>2009-09-23T11:44:53Z</time>
 </trkpt>
 <trkpt lat="47.769733" lon="13.074139">
 <ele>387.07</ele>
 <time>2009-09-23T11:44:55Z</time>
 </trkpt>
 <trkpt lat="47.769325" lon="13.074106">
 <ele>387.07</ele>
 <time>2009-09-23T11:45:03Z</time>
 </trkpt>
 <trkpt lat="47.768913" lon="13.074074">
 <ele>387.55</ele>
 <time>2009-09-23T11:45:11Z</time>
 </trkpt>
 <trkpt lat="47.768864" lon="13.074067">
 <ele>388.03</ele>
 <time>2009-09-23T11:45:12Z</time>
 </trkpt>
 <trkpt lat="47.768623" lon="13.074032">
 <ele>388.03</ele>
 <time>2009-09-23T11:45:17Z</time>
 </trkpt>
 <trkpt lat="47.768402" lon="13.074069">
 <ele>388.03</ele>
 <time>2009-09-23T11:45:22Z</time>
 </trkpt>
 <trkpt lat="47.768188" lon="13.074084">
 <ele>387.55</ele>
 <time>2009-09-23T11:45:27Z</time>
 </trkpt>
 <trkpt lat="47.768105" lon="13.074107">
 <ele>388.03</ele>
 <time>2009-09-23T11:45:29Z</time>
 </trkpt>
 <trkpt lat="47.767712" lon="13.074117">
 <ele>388.03</ele>
 <time>2009-09-23T11:45:37Z</time>
 </trkpt>
 <trkpt lat="47.767513" lon="13.074113">
 <ele>388.51</ele>
 <time>2009-09-23T11:45:41Z</time>
 </trkpt>
 <trkpt lat="47.767307" lon="13.074122">
 <ele>388.51</ele>
 <time>2009-09-23T11:45:45Z</time>
 </trkpt>
 <trkpt lat="47.767208" lon="13.074135">
 <ele>388.51</ele>
 <time>2009-09-23T11:45:47Z</time>
 </trkpt>
 <trkpt lat="47.767071" lon="13.074065">
 <ele>388.99</ele>
 <time>2009-09-23T11:45:51Z</time>
 </trkpt>
 <trkpt lat="47.767017" lon="13.073923">
 <ele>389.47</ele>
 <time>2009-09-23T11:45:55Z</time>
 </trkpt>
 <trkpt lat="47.766998" lon="13.073912">
 <ele>388.99</ele>
 <time>2009-09-23T11:45:56Z</time>
 </trkpt>
 <trkpt lat="47.766895" lon="13.073904">
 <ele>388.99</ele>
 <time>2009-09-23T11:46:01Z</time>
 </trkpt>
 <trkpt lat="47.766804" lon="13.074100">
 <ele>388.99</ele>
 <time>2009-09-23T11:46:07Z</time>
 </trkpt>
 <trkpt lat="47.766670" lon="13.074265">
 <ele>389.47</ele>
 <time>2009-09-23T11:46:12Z</time>
 </trkpt>
 <trkpt lat="47.766426" lon="13.074322">
 <ele>389.47</ele>
 <time>2009-09-23T11:46:18Z</time>
 </trkpt>
 <trkpt lat="47.766159" lon="13.074413">
 <ele>389.95</ele>
 <time>2009-09-23T11:46:24Z</time>
 </trkpt>
 <trkpt lat="47.765781" lon="13.074527">
 <ele>390.43</ele>
 <time>2009-09-23T11:46:32Z</time>
 </trkpt>
 <trkpt lat="47.765430" lon="13.074637">
 <ele>390.91</ele>
 <time>2009-09-23T11:46:39Z</time>
 </trkpt>
 <trkpt lat="47.765087" lon="13.074734">
 <ele>390.91</ele>
 <time>2009-09-23T11:46:46Z</time>
 </trkpt>
 <trkpt lat="47.764648" lon="13.074862">
 <ele>391.39</ele>
 <time>2009-09-23T11:46:55Z</time>
 </trkpt>
 <trkpt lat="47.764259" lon="13.074986">
 <ele>391.39</ele>
 <time>2009-09-23T11:47:03Z</time>
 </trkpt>
 <trkpt lat="47.763855" lon="13.075090">
 <ele>392.36</ele>
 <time>2009-09-23T11:47:11Z</time>
 </trkpt>
 <trkpt lat="47.763466" lon="13.075207">
 <ele>391.87</ele>
 <time>2009-09-23T11:47:19Z</time>
 </trkpt>
 <trkpt lat="47.763214" lon="13.075301">
 <ele>391.87</ele>
 <time>2009-09-23T11:47:24Z</time>
 </trkpt>
 <trkpt lat="47.762901" lon="13.075386">
 <ele>391.39</ele>
 <time>2009-09-23T11:47:30Z</time>
 </trkpt>
 <trkpt lat="47.762447" lon="13.075515">
 <ele>391.87</ele>
 <time>2009-09-23T11:47:39Z</time>
 </trkpt>
 <trkpt lat="47.762104" lon="13.075607">
 <ele>392.36</ele>
 <time>2009-09-23T11:47:46Z</time>
 </trkpt>
 <trkpt lat="47.761616" lon="13.075741">
 <ele>392.36</ele>
 <time>2009-09-23T11:47:56Z</time>
 </trkpt>
 <trkpt lat="47.761127" lon="13.075929">
 <ele>392.36</ele>
 <time>2009-09-23T11:48:06Z</time>
 </trkpt>
 <trkpt lat="47.760643" lon="13.076143">
 <ele>392.84</ele>
 <time>2009-09-23T11:48:16Z</time>
 </trkpt>
 <trkpt lat="47.760208" lon="13.076344">
 <ele>392.84</ele>
 <time>2009-09-23T11:48:25Z</time>
 </trkpt>
 <trkpt lat="47.759758" lon="13.076549">
 <ele>393.32</ele>
 <time>2009-09-23T11:48:34Z</time>
 </trkpt>
 <trkpt lat="47.759312" lon="13.076741">
 <ele>392.84</ele>
 <time>2009-09-23T11:48:43Z</time>
 </trkpt>
 <trkpt lat="47.758778" lon="13.076981">
 <ele>393.80</ele>
 <time>2009-09-23T11:48:54Z</time>
 </trkpt>
 <trkpt lat="47.758354" lon="13.077169">
 <ele>394.76</ele>
 <time>2009-09-23T11:49:03Z</time>
 </trkpt>
 <trkpt lat="47.757957" lon="13.077371">
 <ele>394.28</ele>
 <time>2009-09-23T11:49:11Z</time>
 </trkpt>
 <trkpt lat="47.757618" lon="13.077524">
 <ele>394.28</ele>
 <time>2009-09-23T11:49:18Z</time>
 </trkpt>
 <trkpt lat="47.757145" lon="13.077733">
 <ele>395.24</ele>
 <time>2009-09-23T11:49:28Z</time>
 </trkpt>
 <trkpt lat="47.756763" lon="13.077909">
 <ele>395.24</ele>
 <time>2009-09-23T11:49:36Z</time>
 </trkpt>
 <trkpt lat="47.756378" lon="13.078078">
 <ele>395.72</ele>
 <time>2009-09-23T11:49:44Z</time>
 </trkpt>
 <trkpt lat="47.755947" lon="13.078257">
 <ele>396.20</ele>
 <time>2009-09-23T11:49:53Z</time>
 </trkpt>
 <trkpt lat="47.755531" lon="13.078383">
 <ele>396.68</ele>
 <time>2009-09-23T11:50:01Z</time>
 </trkpt>
 <trkpt lat="47.755104" lon="13.078458">
 <ele>397.16</ele>
 <time>2009-09-23T11:50:10Z</time>
 </trkpt>
 <trkpt lat="47.754715" lon="13.078542">
 <ele>397.16</ele>
 <time>2009-09-23T11:50:18Z</time>
 </trkpt>
 <trkpt lat="47.754223" lon="13.078650">
 <ele>397.16</ele>
 <time>2009-09-23T11:50:28Z</time>
 </trkpt>
 <trkpt lat="47.753830" lon="13.078742">
 <ele>397.64</ele>
 <time>2009-09-23T11:50:36Z</time>
 </trkpt>
 <trkpt lat="47.753460" lon="13.078863">
 <ele>397.16</ele>
 <time>2009-09-23T11:50:43Z</time>
 </trkpt>
 <trkpt lat="47.753040" lon="13.078948">
 <ele>397.16</ele>
 <time>2009-09-23T11:50:51Z</time>
 </trkpt>
 <trkpt lat="47.752647" lon="13.079033">
 <ele>398.12</ele>
 <time>2009-09-23T11:50:59Z</time>
 </trkpt>
 <trkpt lat="47.752110" lon="13.079130">
 <ele>398.12</ele>
 <time>2009-09-23T11:51:10Z</time>
 </trkpt>
 <trkpt lat="47.751617" lon="13.079231">
 <ele>398.12</ele>
 <time>2009-09-23T11:51:20Z</time>
 </trkpt>
 <trkpt lat="47.751228" lon="13.079315">
 <ele>398.60</ele>
 <time>2009-09-23T11:51:28Z</time>
 </trkpt>
 <trkpt lat="47.750767" lon="13.079409">
 <ele>398.60</ele>
 <time>2009-09-23T11:51:37Z</time>
 </trkpt>
 <trkpt lat="47.750286" lon="13.079488">
 <ele>397.64</ele>
 <time>2009-09-23T11:51:46Z</time>
 </trkpt>
 <trkpt lat="47.749935" lon="13.079547">
 <ele>398.12</ele>
 <time>2009-09-23T11:51:53Z</time>
 </trkpt>
 <trkpt lat="47.749416" lon="13.079621">
 <ele>399.08</ele>
 <time>2009-09-23T11:52:03Z</time>
 </trkpt>
 <trkpt lat="47.749012" lon="13.079677">
 <ele>399.57</ele>
 <time>2009-09-23T11:52:11Z</time>
 </trkpt>
 <trkpt lat="47.748566" lon="13.079738">
 <ele>399.08</ele>
 <time>2009-09-23T11:52:20Z</time>
 </trkpt>
 <trkpt lat="47.748165" lon="13.079798">
 <ele>399.57</ele>
 <time>2009-09-23T11:52:28Z</time>
 </trkpt>
 <trkpt lat="47.747814" lon="13.079857">
 <ele>399.57</ele>
 <time>2009-09-23T11:52:35Z</time>
 </trkpt>
 <trkpt lat="47.747406" lon="13.079907">
 <ele>400.05</ele>
 <time>2009-09-23T11:52:43Z</time>
 </trkpt>
 <trkpt lat="47.747063" lon="13.079957">
 <ele>400.05</ele>
 <time>2009-09-23T11:52:50Z</time>
 </trkpt>
 <trkpt lat="47.746616" lon="13.080038">
 <ele>400.53</ele>
 <time>2009-09-23T11:52:59Z</time>
 </trkpt>
 <trkpt lat="47.746273" lon="13.080099">
 <ele>400.53</ele>
 <time>2009-09-23T11:53:06Z</time>
 </trkpt>
 <trkpt lat="47.745712" lon="13.080198">
 <ele>400.53</ele>
 <time>2009-09-23T11:53:17Z</time>
 </trkpt>
 <trkpt lat="47.745316" lon="13.080253">
 <ele>401.01</ele>
 <time>2009-09-23T11:53:25Z</time>
 </trkpt>
 <trkpt lat="47.745045" lon="13.080296">
 <ele>401.97</ele>
 <time>2009-09-23T11:53:31Z</time>
 </trkpt>
 <trkpt lat="47.744644" lon="13.080342">
 <ele>402.45</ele>
 <time>2009-09-23T11:53:39Z</time>
 </trkpt>
 <trkpt lat="47.744240" lon="13.080401">
 <ele>401.97</ele>
 <time>2009-09-23T11:53:47Z</time>
 </trkpt>
 <trkpt lat="47.743778" lon="13.080462">
 <ele>402.45</ele>
 <time>2009-09-23T11:53:56Z</time>
 </trkpt>
 <trkpt lat="47.743469" lon="13.080506">
 <ele>402.45</ele>
 <time>2009-09-23T11:54:02Z</time>
 </trkpt>
 <trkpt lat="47.743156" lon="13.080562">
 <ele>402.93</ele>
 <time>2009-09-23T11:54:08Z</time>
 </trkpt>
 <trkpt lat="47.742691" lon="13.080647">
 <ele>402.93</ele>
 <time>2009-09-23T11:54:17Z</time>
 </trkpt>
 <trkpt lat="47.742172" lon="13.080739">
 <ele>402.93</ele>
 <time>2009-09-23T11:54:27Z</time>
 </trkpt>
 <trkpt lat="47.741772" lon="13.080804">
 <ele>402.93</ele>
 <time>2009-09-23T11:54:35Z</time>
 </trkpt>
 <trkpt lat="47.741261" lon="13.080873">
 <ele>403.41</ele>
 <time>2009-09-23T11:54:45Z</time>
 </trkpt>
 <trkpt lat="47.740849" lon="13.080936">
 <ele>403.89</ele>
 <time>2009-09-23T11:54:53Z</time>
 </trkpt>
 <trkpt lat="47.740551" lon="13.080985">
 <ele>404.37</ele>
 <time>2009-09-23T11:54:59Z</time>
 </trkpt>
 <trkpt lat="47.740032" lon="13.081053">
 <ele>403.41</ele>
 <time>2009-09-23T11:55:09Z</time>
 </trkpt>
 <trkpt lat="47.739521" lon="13.081107">
 <ele>403.89</ele>
 <time>2009-09-23T11:55:19Z</time>
 </trkpt>
 <trkpt lat="47.739113" lon="13.081148">
 <ele>404.37</ele>
 <time>2009-09-23T11:55:27Z</time>
 </trkpt>
 <trkpt lat="47.738586" lon="13.081222">
 <ele>404.37</ele>
 <time>2009-09-23T11:55:37Z</time>
 </trkpt>
 <trkpt lat="47.738106" lon="13.081300">
 <ele>404.37</ele>
 <time>2009-09-23T11:55:46Z</time>
 </trkpt>
 <trkpt lat="47.737621" lon="13.081381">
 <ele>404.37</ele>
 <time>2009-09-23T11:55:55Z</time>
 </trkpt>
 <trkpt lat="47.737164" lon="13.081447">
 <ele>404.37</ele>
 <time>2009-09-23T11:56:04Z</time>
 </trkpt>
 <trkpt lat="47.736763" lon="13.081498">
 <ele>404.85</ele>
 <time>2009-09-23T11:56:12Z</time>
 </trkpt>
 <trkpt lat="47.736412" lon="13.081542">
 <ele>404.85</ele>
 <time>2009-09-23T11:56:19Z</time>
 </trkpt>
 <trkpt lat="47.736217" lon="13.081584">
 <ele>404.85</ele>
 <time>2009-09-23T11:56:23Z</time>
 </trkpt>
 <trkpt lat="47.735767" lon="13.081623">
 <ele>404.85</ele>
 <time>2009-09-23T11:56:32Z</time>
 </trkpt>
 <trkpt lat="47.735264" lon="13.081690">
 <ele>405.81</ele>
 <time>2009-09-23T11:56:42Z</time>
 </trkpt>
 <trkpt lat="47.734875" lon="13.081748">
 <ele>406.29</ele>
 <time>2009-09-23T11:56:50Z</time>
 </trkpt>
 <trkpt lat="47.734322" lon="13.081802">
 <ele>406.77</ele>
 <time>2009-09-23T11:57:01Z</time>
 </trkpt>
 <trkpt lat="47.733868" lon="13.081832">
 <ele>407.26</ele>
 <time>2009-09-23T11:57:10Z</time>
 </trkpt>
 <trkpt lat="47.733624" lon="13.081829">
 <ele>407.26</ele>
 <time>2009-09-23T11:57:15Z</time>
 </trkpt>
 <trkpt lat="47.733532" lon="13.081806">
 <ele>407.26</ele>
 <time>2009-09-23T11:57:17Z</time>
 </trkpt>
 <trkpt lat="47.733120" lon="13.081646">
 <ele>409.18</ele>
 <time>2009-09-23T11:57:26Z</time>
 </trkpt>
 <trkpt lat="47.732986" lon="13.081675">
 <ele>410.62</ele>
 <time>2009-09-23T11:57:30Z</time>
 </trkpt>
 <trkpt lat="47.732746" lon="13.081841">
 <ele>411.58</ele>
 <time>2009-09-23T11:57:38Z</time>
 </trkpt>
 <trkpt lat="47.732674" lon="13.081873">
 <ele>411.10</ele>
 <time>2009-09-23T11:57:40Z</time>
 </trkpt>
 <trkpt lat="47.732304" lon="13.081904">
 <ele>410.62</ele>
 <time>2009-09-23T11:57:48Z</time>
 </trkpt>
 <trkpt lat="47.732201" lon="13.081892">
 <ele>410.62</ele>
 <time>2009-09-23T11:57:50Z</time>
 </trkpt>
 <trkpt lat="47.731960" lon="13.081932">
 <ele>410.14</ele>
 <time>2009-09-23T11:57:55Z</time>
 </trkpt>
 <trkpt lat="47.731789" lon="13.081866">
 <ele>410.14</ele>
 <time>2009-09-23T11:58:00Z</time>
 </trkpt>
 <trkpt lat="47.731720" lon="13.081830">
 <ele>410.14</ele>
 <time>2009-09-23T11:58:02Z</time>
 </trkpt>
 <trkpt lat="47.731560" lon="13.081469">
 <ele>410.62</ele>
 <time>2009-09-23T11:58:08Z</time>
 </trkpt>
 <trkpt lat="47.731468" lon="13.081243">
 <ele>410.62</ele>
 <time>2009-09-23T11:58:12Z</time>
 </trkpt>
 <trkpt lat="47.731380" lon="13.081199">
 <ele>411.58</ele>
 <time>2009-09-23T11:58:16Z</time>
 </trkpt>
 <trkpt lat="47.731167" lon="13.081380">
 <ele>413.02</ele>
 <time>2009-09-23T11:58:26Z</time>
 </trkpt>
 <trkpt lat="47.731045" lon="13.081478">
 <ele>411.10</ele>
 <time>2009-09-23T11:58:34Z</time>
 </trkpt>
 <trkpt lat="47.730999" lon="13.081538">
 <ele>411.10</ele>
 <time>2009-09-23T11:58:38Z</time>
 </trkpt>
 <trkpt lat="47.731045" lon="13.081719">
 <ele>411.58</ele>
 <time>2009-09-23T11:58:43Z</time>
 </trkpt>
 <trkpt lat="47.731106" lon="13.081991">
 <ele>412.06</ele>
 <time>2009-09-23T11:58:49Z</time>
 </trkpt>
 <trkpt lat="47.731045" lon="13.082149">
 <ele>412.54</ele>
 <time>2009-09-23T11:58:53Z</time>
 </trkpt>
 <trkpt lat="47.730900" lon="13.082202">
 <ele>412.06</ele>
 <time>2009-09-23T11:58:57Z</time>
 </trkpt>
 <trkpt lat="47.730606" lon="13.082217">
 <ele>412.54</ele>
 <time>2009-09-23T11:59:04Z</time>
 </trkpt>
 <trkpt lat="47.730194" lon="13.082226">
 <ele>412.06</ele>
 <time>2009-09-23T11:59:13Z</time>
 </trkpt>
 <trkpt lat="47.729759" lon="13.082241">
 <ele>411.58</ele>
 <time>2009-09-23T11:59:22Z</time>
 </trkpt>
 <trkpt lat="47.729218" lon="13.082253">
 <ele>411.58</ele>
 <time>2009-09-23T11:59:33Z</time>
 </trkpt>
 <trkpt lat="47.728622" lon="13.082267">
 <ele>412.54</ele>
 <time>2009-09-23T11:59:45Z</time>
 </trkpt>
 <trkpt lat="47.728062" lon="13.082279">
 <ele>412.06</ele>
 <time>2009-09-23T11:59:56Z</time>
 </trkpt>
 <trkpt lat="47.727650" lon="13.082287">
 <ele>412.54</ele>
 <time>2009-09-23T12:00:04Z</time>
 </trkpt>
 <trkpt lat="47.726952" lon="13.082310">
 <ele>412.54</ele>
 <time>2009-09-23T12:00:17Z</time>
 </trkpt>
 <trkpt lat="47.726543" lon="13.082313">
 <ele>412.54</ele>
 <time>2009-09-23T12:00:25Z</time>
 </trkpt>
 <trkpt lat="47.726315" lon="13.082284">
 <ele>412.54</ele>
 <time>2009-09-23T12:00:30Z</time>
 </trkpt>
 <trkpt lat="47.726181" lon="13.082321">
 <ele>412.54</ele>
 <time>2009-09-23T12:00:33Z</time>
 </trkpt>
 <trkpt lat="47.725822" lon="13.082329">
 <ele>413.02</ele>
 <time>2009-09-23T12:00:40Z</time>
 </trkpt>
 <trkpt lat="47.725300" lon="13.082342">
 <ele>413.02</ele>
 <time>2009-09-23T12:00:50Z</time>
 </trkpt>
 <trkpt lat="47.725159" lon="13.082304">
 <ele>413.50</ele>
 <time>2009-09-23T12:00:53Z</time>
 </trkpt>
 <trkpt lat="47.724922" lon="13.082347">
 <ele>413.50</ele>
 <time>2009-09-23T12:00:58Z</time>
 </trkpt>
 <trkpt lat="47.724812" lon="13.082356">
 <ele>413.02</ele>
 <time>2009-09-23T12:01:00Z</time>
 </trkpt>
 <trkpt lat="47.724247" lon="13.082368">
 <ele>413.02</ele>
 <time>2009-09-23T12:01:10Z</time>
 </trkpt>
 <trkpt lat="47.723763" lon="13.082389">
 <ele>413.50</ele>
 <time>2009-09-23T12:01:19Z</time>
 </trkpt>
 <trkpt lat="47.723324" lon="13.082407">
 <ele>413.02</ele>
 <time>2009-09-23T12:01:27Z</time>
 </trkpt>
 <trkpt lat="47.722782" lon="13.082409">
 <ele>413.50</ele>
 <time>2009-09-23T12:01:37Z</time>
 </trkpt>
 <trkpt lat="47.722195" lon="13.082407">
 <ele>413.98</ele>
 <time>2009-09-23T12:01:48Z</time>
 </trkpt>
 <trkpt lat="47.721821" lon="13.082417">
 <ele>413.02</ele>
 <time>2009-09-23T12:01:55Z</time>
 </trkpt>
 <trkpt lat="47.721451" lon="13.082417">
 <ele>413.98</ele>
 <time>2009-09-23T12:02:02Z</time>
 </trkpt>
 <trkpt lat="47.721027" lon="13.082384">
 <ele>414.47</ele>
 <time>2009-09-23T12:02:10Z</time>
 </trkpt>
 <trkpt lat="47.720612" lon="13.082335">
 <ele>415.43</ele>
 <time>2009-09-23T12:02:18Z</time>
 </trkpt>
 <trkpt lat="47.720360" lon="13.082305">
 <ele>414.95</ele>
 <time>2009-09-23T12:02:23Z</time>
 </trkpt>
 <trkpt lat="47.719925" lon="13.082248">
 <ele>415.43</ele>
 <time>2009-09-23T12:02:31Z</time>
 </trkpt>
 <trkpt lat="47.719555" lon="13.082190">
 <ele>414.95</ele>
 <time>2009-09-23T12:02:38Z</time>
 </trkpt>
 <trkpt lat="47.719177" lon="13.082142">
 <ele>414.95</ele>
 <time>2009-09-23T12:02:45Z</time>
 </trkpt>
 <trkpt lat="47.718746" lon="13.082087">
 <ele>415.43</ele>
 <time>2009-09-23T12:02:53Z</time>
 </trkpt>
 <trkpt lat="47.718399" lon="13.082040">
 <ele>415.43</ele>
 <time>2009-09-23T12:03:00Z</time>
 </trkpt>
 <trkpt lat="47.718029" lon="13.081971">
 <ele>415.91</ele>
 <time>2009-09-23T12:03:07Z</time>
 </trkpt>
 <trkpt lat="47.717705" lon="13.081887">
 <ele>415.91</ele>
 <time>2009-09-23T12:03:13Z</time>
 </trkpt>
 <trkpt lat="47.717369" lon="13.081758">
 <ele>415.91</ele>
 <time>2009-09-23T12:03:19Z</time>
 </trkpt>
 <trkpt lat="47.716892" lon="13.081508">
 <ele>416.87</ele>
 <time>2009-09-23T12:03:28Z</time>
 </trkpt>
 <trkpt lat="47.716599" lon="13.081353">
 <ele>415.91</ele>
 <time>2009-09-23T12:03:34Z</time>
 </trkpt>
 <trkpt lat="47.716305" lon="13.081206">
 <ele>416.87</ele>
 <time>2009-09-23T12:03:40Z</time>
 </trkpt>
 <trkpt lat="47.716251" lon="13.081178">
 <ele>416.87</ele>
 <time>2009-09-23T12:03:41Z</time>
 </trkpt>
 <trkpt lat="47.715950" lon="13.081021">
 <ele>416.87</ele>
 <time>2009-09-23T12:03:47Z</time>
 </trkpt>
 <trkpt lat="47.715641" lon="13.080858">
 <ele>416.39</ele>
 <time>2009-09-23T12:03:53Z</time>
 </trkpt>
 <trkpt lat="47.715332" lon="13.080687">
 <ele>416.87</ele>
 <time>2009-09-23T12:03:59Z</time>
 </trkpt>
 <trkpt lat="47.715023" lon="13.080525">
 <ele>417.35</ele>
 <time>2009-09-23T12:04:05Z</time>
 </trkpt>
 <trkpt lat="47.714680" lon="13.080344">
 <ele>417.35</ele>
 <time>2009-09-23T12:04:12Z</time>
 </trkpt>
 <trkpt lat="47.714336" lon="13.080183">
 <ele>417.83</ele>
 <time>2009-09-23T12:04:19Z</time>
 </trkpt>
 <trkpt lat="47.714054" lon="13.080041">
 <ele>417.83</ele>
 <time>2009-09-23T12:04:25Z</time>
 </trkpt>
 <trkpt lat="47.713757" lon="13.079885">
 <ele>418.31</ele>
 <time>2009-09-23T12:04:32Z</time>
 </trkpt>
 <trkpt lat="47.713459" lon="13.079732">
 <ele>418.79</ele>
 <time>2009-09-23T12:04:38Z</time>
 </trkpt>
 <trkpt lat="47.713024" lon="13.079515">
 <ele>419.27</ele>
 <time>2009-09-23T12:04:46Z</time>
 </trkpt>
 <trkpt lat="47.712658" lon="13.079331">
 <ele>419.27</ele>
 <time>2009-09-23T12:04:53Z</time>
 </trkpt>
 <trkpt lat="47.712112" lon="13.079043">
 <ele>419.27</ele>
 <time>2009-09-23T12:05:04Z</time>
 </trkpt>
 <trkpt lat="47.711651" lon="13.078825">
 <ele>419.27</ele>
 <time>2009-09-23T12:05:13Z</time>
 </trkpt>
 <trkpt lat="47.711601" lon="13.078804">
 <ele>419.27</ele>
 <time>2009-09-23T12:05:14Z</time>
 </trkpt>
 <trkpt lat="47.711254" lon="13.078673">
 <ele>419.27</ele>
 <time>2009-09-23T12:05:21Z</time>
 </trkpt>
 <trkpt lat="47.710835" lon="13.078541">
 <ele>419.27</ele>
 <time>2009-09-23T12:05:30Z</time>
 </trkpt>
 <trkpt lat="47.710739" lon="13.078514">
 <ele>419.27</ele>
 <time>2009-09-23T12:05:32Z</time>
 </trkpt>
 <trkpt lat="47.710560" lon="13.078462">
 <ele>419.27</ele>
 <time>2009-09-23T12:05:36Z</time>
 </trkpt>
 <trkpt lat="47.710369" lon="13.078401">
 <ele>419.75</ele>
 <time>2009-09-23T12:05:40Z</time>
 </trkpt>
 <trkpt lat="47.710041" lon="13.078296">
 <ele>420.23</ele>
 <time>2009-09-23T12:05:47Z</time>
 </trkpt>
 <trkpt lat="47.709614" lon="13.078151">
 <ele>420.71</ele>
 <time>2009-09-23T12:05:56Z</time>
 </trkpt>
 <trkpt lat="47.709221" lon="13.077993">
 <ele>420.71</ele>
 <time>2009-09-23T12:06:04Z</time>
 </trkpt>
 <trkpt lat="47.708740" lon="13.077812">
 <ele>420.23</ele>
 <time>2009-09-23T12:06:13Z</time>
 </trkpt>
 <trkpt lat="47.708351" lon="13.077664">
 <ele>420.23</ele>
 <time>2009-09-23T12:06:20Z</time>
 </trkpt>
 <trkpt lat="47.707867" lon="13.077488">
 <ele>419.75</ele>
 <time>2009-09-23T12:06:29Z</time>
 </trkpt>
 <trkpt lat="47.707409" lon="13.077309">
 <ele>420.23</ele>
 <time>2009-09-23T12:06:38Z</time>
 </trkpt>
 <trkpt lat="47.707268" lon="13.077257">
 <ele>420.71</ele>
 <time>2009-09-23T12:06:41Z</time>
 </trkpt>
 <trkpt lat="47.707069" lon="13.077102">
 <ele>420.23</ele>
 <time>2009-09-23T12:06:46Z</time>
 </trkpt>
 <trkpt lat="47.706886" lon="13.077020">
 <ele>420.71</ele>
 <time>2009-09-23T12:06:51Z</time>
 </trkpt>
 <trkpt lat="47.706524" lon="13.076922">
 <ele>420.71</ele>
 <time>2009-09-23T12:06:59Z</time>
 </trkpt>
 <trkpt lat="47.706055" lon="13.076778">
 <ele>420.71</ele>
 <time>2009-09-23T12:07:09Z</time>
 </trkpt>
 <trkpt lat="47.705673" lon="13.076663">
 <ele>421.68</ele>
 <time>2009-09-23T12:07:17Z</time>
 </trkpt>
 <trkpt lat="47.705200" lon="13.076515">
 <ele>421.68</ele>
 <time>2009-09-23T12:07:27Z</time>
 </trkpt>
 <trkpt lat="47.704655" lon="13.076364">
 <ele>421.19</ele>
 <time>2009-09-23T12:07:38Z</time>
 </trkpt>
 <trkpt lat="47.704281" lon="13.076304">
 <ele>421.19</ele>
 <time>2009-09-23T12:07:45Z</time>
 </trkpt>
 <trkpt lat="47.703587" lon="13.076193">
 <ele>422.64</ele>
 <time>2009-09-23T12:07:58Z</time>
 </trkpt>
 <trkpt lat="47.703175" lon="13.076104">
 <ele>422.16</ele>
 <time>2009-09-23T12:08:06Z</time>
 </trkpt>
 <trkpt lat="47.702721" lon="13.076140">
 <ele>422.16</ele>
 <time>2009-09-23T12:08:14Z</time>
 </trkpt>
 <trkpt lat="47.702324" lon="13.076206">
 <ele>422.64</ele>
 <time>2009-09-23T12:08:21Z</time>
 </trkpt>
 <trkpt lat="47.701992" lon="13.076283">
 <ele>421.68</ele>
 <time>2009-09-23T12:08:27Z</time>
 </trkpt>
 <trkpt lat="47.701477" lon="13.076497">
 <ele>420.23</ele>
 <time>2009-09-23T12:08:36Z</time>
 </trkpt>
 <trkpt lat="47.701115" lon="13.076702">
 <ele>420.71</ele>
 <time>2009-09-23T12:08:43Z</time>
 </trkpt>
 <trkpt lat="47.700756" lon="13.076927">
 <ele>420.71</ele>
 <time>2009-09-23T12:08:50Z</time>
 </trkpt>
 <trkpt lat="47.700348" lon="13.077229">
 <ele>421.19</ele>
 <time>2009-09-23T12:08:58Z</time>
 </trkpt>
 <trkpt lat="47.699966" lon="13.077521">
 <ele>421.19</ele>
 <time>2009-09-23T12:09:06Z</time>
 </trkpt>
 <trkpt lat="47.699642" lon="13.077796">
 <ele>421.19</ele>
 <time>2009-09-23T12:09:13Z</time>
 </trkpt>
 <trkpt lat="47.699284" lon="13.078091">
 <ele>421.68</ele>
 <time>2009-09-23T12:09:21Z</time>
 </trkpt>
 <trkpt lat="47.698971" lon="13.078340">
 <ele>422.64</ele>
 <time>2009-09-23T12:09:28Z</time>
 </trkpt>
 <trkpt lat="47.698544" lon="13.078684">
 <ele>422.16</ele>
 <time>2009-09-23T12:09:38Z</time>
 </trkpt>
 <trkpt lat="47.698181" lon="13.078993">
 <ele>422.64</ele>
 <time>2009-09-23T12:09:47Z</time>
 </trkpt>
 <trkpt lat="47.697895" lon="13.079238">
 <ele>423.60</ele>
 <time>2009-09-23T12:09:54Z</time>
 </trkpt>
 <trkpt lat="47.697575" lon="13.079516">
 <ele>423.60</ele>
 <time>2009-09-23T12:10:03Z</time>
 </trkpt>
 <trkpt lat="47.697327" lon="13.079728">
 <ele>423.60</ele>
 <time>2009-09-23T12:10:10Z</time>
 </trkpt>
 <trkpt lat="47.697079" lon="13.079948">
 <ele>424.08</ele>
 <time>2009-09-23T12:10:17Z</time>
 </trkpt>
 <trkpt lat="47.696854" lon="13.080153">
 <ele>424.08</ele>
 <time>2009-09-23T12:10:22Z</time>
 </trkpt>
 <trkpt lat="47.696495" lon="13.080461">
 <ele>423.60</ele>
 <time>2009-09-23T12:10:29Z</time>
 </trkpt>
 <trkpt lat="47.696083" lon="13.080808">
 <ele>424.08</ele>
 <time>2009-09-23T12:10:37Z</time>
 </trkpt>
 <trkpt lat="47.695683" lon="13.081101">
 <ele>424.56</ele>
 <time>2009-09-23T12:10:45Z</time>
 </trkpt>
 <trkpt lat="47.695339" lon="13.081316">
 <ele>424.56</ele>
 <time>2009-09-23T12:10:52Z</time>
 </trkpt>
 <trkpt lat="47.694855" lon="13.081579">
 <ele>425.04</ele>
 <time>2009-09-23T12:11:02Z</time>
 </trkpt>
 <trkpt lat="47.694454" lon="13.081779">
 <ele>425.52</ele>
 <time>2009-09-23T12:11:10Z</time>
 </trkpt>
 <trkpt lat="47.694065" lon="13.081961">
 <ele>425.52</ele>
 <time>2009-09-23T12:11:18Z</time>
 </trkpt>
 <trkpt lat="47.693542" lon="13.082190">
 <ele>426.96</ele>
 <time>2009-09-23T12:11:29Z</time>
 </trkpt>
 <trkpt lat="47.693314" lon="13.082267">
 <ele>426.96</ele>
 <time>2009-09-23T12:11:34Z</time>
 </trkpt>
 <trkpt lat="47.693138" lon="13.082266">
 <ele>426.96</ele>
 <time>2009-09-23T12:11:38Z</time>
 </trkpt>
 <trkpt lat="47.692822" lon="13.082388">
 <ele>426.96</ele>
 <time>2009-09-23T12:11:45Z</time>
 </trkpt>
 <trkpt lat="47.692501" lon="13.082521">
 <ele>426.48</ele>
 <time>2009-09-23T12:11:51Z</time>
 </trkpt>
 <trkpt lat="47.692139" lon="13.082682">
 <ele>426.48</ele>
 <time>2009-09-23T12:11:58Z</time>
 </trkpt>
 <trkpt lat="47.692089" lon="13.082710">
 <ele>426.48</ele>
 <time>2009-09-23T12:11:59Z</time>
 </trkpt>
 <trkpt lat="47.691593" lon="13.082982">
 <ele>426.48</ele>
 <time>2009-09-23T12:12:09Z</time>
 </trkpt>
 <trkpt lat="47.691151" lon="13.083277">
 <ele>426.48</ele>
 <time>2009-09-23T12:12:18Z</time>
 </trkpt>
 <trkpt lat="47.690712" lon="13.083563">
 <ele>426.96</ele>
 <time>2009-09-23T12:12:27Z</time>
 </trkpt>
 <trkpt lat="47.690353" lon="13.083818">
 <ele>427.44</ele>
 <time>2009-09-23T12:12:35Z</time>
 </trkpt>
 <trkpt lat="47.690002" lon="13.084068">
 <ele>427.92</ele>
 <time>2009-09-23T12:12:43Z</time>
 </trkpt>
 <trkpt lat="47.689705" lon="13.084269">
 <ele>427.92</ele>
 <time>2009-09-23T12:12:50Z</time>
 </trkpt>
 <trkpt lat="47.689445" lon="13.084470">
 <ele>427.92</ele>
 <time>2009-09-23T12:12:56Z</time>
 </trkpt>
 <trkpt lat="47.688992" lon="13.084919">
 <ele>428.40</ele>
 <time>2009-09-23T12:13:07Z</time>
 </trkpt>
 <trkpt lat="47.688660" lon="13.085258">
 <ele>427.92</ele>
 <time>2009-09-23T12:13:15Z</time>
 </trkpt>
 <trkpt lat="47.688305" lon="13.085643">
 <ele>428.40</ele>
 <time>2009-09-23T12:13:24Z</time>
 </trkpt>
 <trkpt lat="47.688007" lon="13.085962">
 <ele>429.85</ele>
 <time>2009-09-23T12:13:32Z</time>
 </trkpt>
 <trkpt lat="47.687756" lon="13.086206">
 <ele>429.85</ele>
 <time>2009-09-23T12:13:39Z</time>
 </trkpt>
 <trkpt lat="47.687538" lon="13.086439">
 <ele>431.29</ele>
 <time>2009-09-23T12:13:45Z</time>
 </trkpt>
 <trkpt lat="47.687222" lon="13.086831">
 <ele>430.81</ele>
 <time>2009-09-23T12:13:54Z</time>
 </trkpt>
 <trkpt lat="47.686920" lon="13.087176">
 <ele>430.81</ele>
 <time>2009-09-23T12:14:02Z</time>
 </trkpt>
 <trkpt lat="47.686718" lon="13.087350">
 <ele>430.81</ele>
 <time>2009-09-23T12:14:07Z</time>
 </trkpt>
 <trkpt lat="47.686481" lon="13.087634">
 <ele>430.33</ele>
 <time>2009-09-23T12:14:13Z</time>
 </trkpt>
 <trkpt lat="47.686207" lon="13.088015">
 <ele>429.37</ele>
 <time>2009-09-23T12:14:19Z</time>
 </trkpt>
 <trkpt lat="47.685863" lon="13.088463">
 <ele>428.40</ele>
 <time>2009-09-23T12:14:26Z</time>
 </trkpt>
 <trkpt lat="47.685501" lon="13.088936">
 <ele>428.89</ele>
 <time>2009-09-23T12:14:35Z</time>
 </trkpt>
 <trkpt lat="47.685188" lon="13.089334">
 <ele>428.89</ele>
 <time>2009-09-23T12:14:43Z</time>
 </trkpt>
 <trkpt lat="47.684967" lon="13.089573">
 <ele>431.29</ele>
 <time>2009-09-23T12:14:49Z</time>
 </trkpt>
 <trkpt lat="47.684826" lon="13.089799">
 <ele>430.33</ele>
 <time>2009-09-23T12:14:54Z</time>
 </trkpt>
 <trkpt lat="47.684788" lon="13.089866">
 <ele>430.33</ele>
 <time>2009-09-23T12:14:55Z</time>
 </trkpt>
 <trkpt lat="47.684704" lon="13.090008">
 <ele>429.37</ele>
 <time>2009-09-23T12:14:57Z</time>
 </trkpt>
 <trkpt lat="47.684620" lon="13.090118">
 <ele>429.37</ele>
 <time>2009-09-23T12:14:59Z</time>
 </trkpt>
 <trkpt lat="47.684460" lon="13.090342">
 <ele>429.37</ele>
 <time>2009-09-23T12:15:03Z</time>
 </trkpt>
 <trkpt lat="47.684322" lon="13.090611">
 <ele>429.85</ele>
 <time>2009-09-23T12:15:08Z</time>
 </trkpt>
 <trkpt lat="47.684193" lon="13.090666">
 <ele>429.85</ele>
 <time>2009-09-23T12:15:12Z</time>
 </trkpt>
 <trkpt lat="47.683983" lon="13.090667">
 <ele>430.33</ele>
 <time>2009-09-23T12:15:18Z</time>
 </trkpt>
 <trkpt lat="47.683922" lon="13.090724">
 <ele>430.81</ele>
 <time>2009-09-23T12:15:20Z</time>
 </trkpt>
 <trkpt lat="47.683842" lon="13.091105">
 <ele>430.81</ele>
 <time>2009-09-23T12:15:26Z</time>
 </trkpt>
 <trkpt lat="47.683830" lon="13.091254">
 <ele>431.29</ele>
 <time>2009-09-23T12:15:28Z</time>
 </trkpt>
 <trkpt lat="47.683773" lon="13.091458">
 <ele>430.81</ele>
 <time>2009-09-23T12:15:31Z</time>
 </trkpt>
 <trkpt lat="47.683643" lon="13.091818">
 <ele>430.81</ele>
 <time>2009-09-23T12:15:36Z</time>
 </trkpt>
 <trkpt lat="47.683483" lon="13.092160">
 <ele>431.29</ele>
 <time>2009-09-23T12:15:41Z</time>
 </trkpt>
 <trkpt lat="47.683430" lon="13.092318">
 <ele>431.29</ele>
 <time>2009-09-23T12:15:43Z</time>
 </trkpt>
 <trkpt lat="47.683357" lon="13.092592">
 <ele>431.29</ele>
 <time>2009-09-23T12:15:47Z</time>
 </trkpt>
 <trkpt lat="47.683285" lon="13.092950">
 <ele>431.29</ele>
 <time>2009-09-23T12:15:52Z</time>
 </trkpt>
 <trkpt lat="47.683231" lon="13.093271">
 <ele>431.77</ele>
 <time>2009-09-23T12:15:58Z</time>
 </trkpt>
 <trkpt lat="47.683208" lon="13.093374">
 <ele>431.77</ele>
 <time>2009-09-23T12:16:00Z</time>
 </trkpt>
 <trkpt lat="47.683071" lon="13.093545">
 <ele>431.29</ele>
 <time>2009-09-23T12:16:04Z</time>
 </trkpt>
 <trkpt lat="47.683044" lon="13.093792">
 <ele>431.77</ele>
 <time>2009-09-23T12:16:08Z</time>
 </trkpt>
 <trkpt lat="47.683060" lon="13.093864">
 <ele>431.29</ele>
 <time>2009-09-23T12:16:09Z</time>
 </trkpt>
 <trkpt lat="47.683102" lon="13.094012">
 <ele>431.77</ele>
 <time>2009-09-23T12:16:11Z</time>
 </trkpt>
 <trkpt lat="47.683125" lon="13.094289">
 <ele>432.25</ele>
 <time>2009-09-23T12:16:15Z</time>
 </trkpt>
 <trkpt lat="47.683067" lon="13.094582">
 <ele>432.25</ele>
 <time>2009-09-23T12:16:20Z</time>
 </trkpt>
 <trkpt lat="47.682949" lon="13.094954">
 <ele>432.25</ele>
 <time>2009-09-23T12:16:26Z</time>
 </trkpt>
 <trkpt lat="47.682892" lon="13.095283">
 <ele>432.73</ele>
 <time>2009-09-23T12:16:31Z</time>
 </trkpt>
 <trkpt lat="47.682884" lon="13.095670">
 <ele>433.21</ele>
 <time>2009-09-23T12:16:37Z</time>
 </trkpt>
 <trkpt lat="47.682770" lon="13.095952">
 <ele>433.21</ele>
 <time>2009-09-23T12:16:43Z</time>
 </trkpt>
 <trkpt lat="47.682724" lon="13.096097">
 <ele>433.69</ele>
 <time>2009-09-23T12:16:46Z</time>
 </trkpt>
 <trkpt lat="47.682552" lon="13.096307">
 <ele>432.73</ele>
 <time>2009-09-23T12:16:51Z</time>
 </trkpt>
 <trkpt lat="47.682308" lon="13.096487">
 <ele>432.73</ele>
 <time>2009-09-23T12:16:56Z</time>
 </trkpt>
 <trkpt lat="47.681942" lon="13.096674">
 <ele>433.21</ele>
 <time>2009-09-23T12:17:03Z</time>
 </trkpt>
 <trkpt lat="47.681564" lon="13.096808">
 <ele>433.21</ele>
 <time>2009-09-23T12:17:11Z</time>
 </trkpt>
 <trkpt lat="47.681427" lon="13.096882">
 <ele>433.21</ele>
 <time>2009-09-23T12:17:14Z</time>
 </trkpt>
 <trkpt lat="47.681210" lon="13.097113">
 <ele>433.69</ele>
 <time>2009-09-23T12:17:20Z</time>
 </trkpt>
 <trkpt lat="47.681046" lon="13.097159">
 <ele>433.69</ele>
 <time>2009-09-23T12:17:24Z</time>
 </trkpt>
 <trkpt lat="47.680908" lon="13.097128">
 <ele>433.21</ele>
 <time>2009-09-23T12:17:27Z</time>
 </trkpt>
 <trkpt lat="47.680553" lon="13.097263">
 <ele>433.69</ele>
 <time>2009-09-23T12:17:35Z</time>
 </trkpt>
 <trkpt lat="47.680511" lon="13.097285">
 <ele>433.69</ele>
 <time>2009-09-23T12:17:36Z</time>
 </trkpt>
 <trkpt lat="47.680130" lon="13.097434">
 <ele>433.69</ele>
 <time>2009-09-23T12:17:44Z</time>
 </trkpt>
 <trkpt lat="47.679745" lon="13.097581">
 <ele>433.69</ele>
 <time>2009-09-23T12:17:52Z</time>
 </trkpt>
 <trkpt lat="47.679203" lon="13.097810">
 <ele>433.69</ele>
 <time>2009-09-23T12:18:03Z</time>
 </trkpt>
 <trkpt lat="47.678772" lon="13.097991">
 <ele>434.65</ele>
 <time>2009-09-23T12:18:12Z</time>
 </trkpt>
 <trkpt lat="47.678280" lon="13.098181">
 <ele>434.17</ele>
 <time>2009-09-23T12:18:22Z</time>
 </trkpt>
 <trkpt lat="47.678089" lon="13.098262">
 <ele>434.17</ele>
 <time>2009-09-23T12:18:26Z</time>
 </trkpt>
 <trkpt lat="47.677814" lon="13.098381">
 <ele>434.17</ele>
 <time>2009-09-23T12:18:32Z</time>
 </trkpt>
 <trkpt lat="47.677715" lon="13.098409">
 <ele>434.17</ele>
 <time>2009-09-23T12:18:34Z</time>
 </trkpt>
 <trkpt lat="47.677250" lon="13.098607">
 <ele>434.17</ele>
 <time>2009-09-23T12:18:44Z</time>
 </trkpt>
 <trkpt lat="47.677067" lon="13.098625">
 <ele>434.17</ele>
 <time>2009-09-23T12:18:49Z</time>
 </trkpt>
 <trkpt lat="47.677029" lon="13.098599">
 <ele>434.65</ele>
 <time>2009-09-23T12:18:51Z</time>
 </trkpt>
 <trkpt lat="47.677013" lon="13.098579">
 <ele>433.69</ele>
 <time>2009-09-23T12:18:52Z</time>
 </trkpt>
 <trkpt lat="47.676998" lon="13.098448">
 <ele>434.17</ele>
 <time>2009-09-23T12:18:58Z</time>
 </trkpt>
 <trkpt lat="47.676994" lon="13.098433">
 <ele>434.17</ele>
 <time>2009-09-23T12:19:02Z</time>
 </trkpt>
 <trkpt lat="47.676872" lon="13.098372">
 <ele>435.61</ele>
 <time>2009-09-23T12:19:08Z</time>
 </trkpt>
 <trkpt lat="47.676773" lon="13.098456">
 <ele>435.61</ele>
 <time>2009-09-23T12:19:11Z</time>
 </trkpt>
 <trkpt lat="47.676647" lon="13.098627">
 <ele>435.13</ele>
 <time>2009-09-23T12:19:15Z</time>
 </trkpt>
 <trkpt lat="47.676579" lon="13.098707">
 <ele>435.13</ele>
 <time>2009-09-23T12:19:17Z</time>
 </trkpt>
 <trkpt lat="47.676300" lon="13.099006">
 <ele>434.65</ele>
 <time>2009-09-23T12:19:25Z</time>
 </trkpt>
 <trkpt lat="47.676018" lon="13.099236">
 <ele>434.17</ele>
 <time>2009-09-23T12:19:32Z</time>
 </trkpt>
 <trkpt lat="47.675678" lon="13.099509">
 <ele>435.13</ele>
 <time>2009-09-23T12:19:40Z</time>
 </trkpt>
 <trkpt lat="47.675266" lon="13.099878">
 <ele>435.13</ele>
 <time>2009-09-23T12:19:50Z</time>
 </trkpt>
 <trkpt lat="47.674866" lon="13.100319">
 <ele>435.61</ele>
 <time>2009-09-23T12:20:00Z</time>
 </trkpt>
 <trkpt lat="47.674713" lon="13.100504">
 <ele>435.61</ele>
 <time>2009-09-23T12:20:04Z</time>
 </trkpt>
 <trkpt lat="47.674492" lon="13.100600">
 <ele>435.61</ele>
 <time>2009-09-23T12:20:09Z</time>
 </trkpt>
 <trkpt lat="47.674446" lon="13.100598">
 <ele>435.13</ele>
 <time>2009-09-23T12:20:10Z</time>
 </trkpt>
 <trkpt lat="47.674110" lon="13.100595">
 <ele>438.02</ele>
 <time>2009-09-23T12:20:18Z</time>
 </trkpt>
 <trkpt lat="47.673950" lon="13.100640">
 <ele>438.50</ele>
 <time>2009-09-23T12:20:22Z</time>
 </trkpt>
 <trkpt lat="47.673592" lon="13.100923">
 <ele>438.02</ele>
 <time>2009-09-23T12:20:31Z</time>
 </trkpt>
 <trkpt lat="47.673248" lon="13.101304">
 <ele>438.50</ele>
 <time>2009-09-23T12:20:40Z</time>
 </trkpt>
 <trkpt lat="47.672886" lon="13.101650">
 <ele>439.46</ele>
 <time>2009-09-23T12:20:49Z</time>
 </trkpt>
 <trkpt lat="47.672527" lon="13.102004">
 <ele>439.94</ele>
 <time>2009-09-23T12:20:58Z</time>
 </trkpt>
 <trkpt lat="47.672256" lon="13.102295">
 <ele>440.42</ele>
 <time>2009-09-23T12:21:05Z</time>
 </trkpt>
 <trkpt lat="47.671944" lon="13.102616">
 <ele>439.94</ele>
 <time>2009-09-23T12:21:12Z</time>
 </trkpt>
 <trkpt lat="47.671627" lon="13.102978">
 <ele>439.46</ele>
 <time>2009-09-23T12:21:20Z</time>
 </trkpt>
 <trkpt lat="47.671261" lon="13.103445">
 <ele>438.98</ele>
 <time>2009-09-23T12:21:29Z</time>
 </trkpt>
 <trkpt lat="47.670959" lon="13.103834">
 <ele>438.50</ele>
 <time>2009-09-23T12:21:36Z</time>
 </trkpt>
 <trkpt lat="47.670715" lon="13.104332">
 <ele>438.02</ele>
 <time>2009-09-23T12:21:44Z</time>
 </trkpt>
 <trkpt lat="47.670422" lon="13.105068">
 <ele>438.02</ele>
 <time>2009-09-23T12:21:55Z</time>
 </trkpt>
 <trkpt lat="47.670265" lon="13.105527">
 <ele>438.50</ele>
 <time>2009-09-23T12:22:02Z</time>
 </trkpt>
 <trkpt lat="47.670135" lon="13.105916">
 <ele>438.50</ele>
 <time>2009-09-23T12:22:08Z</time>
 </trkpt>
 <trkpt lat="47.669838" lon="13.106428">
 <ele>439.46</ele>
 <time>2009-09-23T12:22:17Z</time>
 </trkpt>
 <trkpt lat="47.669483" lon="13.106793">
 <ele>439.46</ele>
 <time>2009-09-23T12:22:25Z</time>
 </trkpt>
 <trkpt lat="47.669117" lon="13.107210">
 <ele>439.94</ele>
 <time>2009-09-23T12:22:34Z</time>
 </trkpt>
 <trkpt lat="47.668877" lon="13.107396">
 <ele>439.46</ele>
 <time>2009-09-23T12:22:39Z</time>
 </trkpt>
 <trkpt lat="47.668678" lon="13.107634">
 <ele>439.46</ele>
 <time>2009-09-23T12:22:44Z</time>
 </trkpt>
 <trkpt lat="47.668400" lon="13.107879">
 <ele>439.46</ele>
 <time>2009-09-23T12:22:50Z</time>
 </trkpt>
 <trkpt lat="47.668129" lon="13.108100">
 <ele>438.98</ele>
 <time>2009-09-23T12:22:56Z</time>
 </trkpt>
 <trkpt lat="47.667828" lon="13.108399">
 <ele>439.94</ele>
 <time>2009-09-23T12:23:03Z</time>
 </trkpt>
 <trkpt lat="47.667564" lon="13.108632">
 <ele>440.90</ele>
 <time>2009-09-23T12:23:10Z</time>
 </trkpt>
 <trkpt lat="47.667484" lon="13.108681">
 <ele>440.90</ele>
 <time>2009-09-23T12:23:12Z</time>
 </trkpt>
 <trkpt lat="47.667332" lon="13.108891">
 <ele>441.38</ele>
 <time>2009-09-23T12:23:17Z</time>
 </trkpt>
 <trkpt lat="47.667267" lon="13.109049">
 <ele>441.38</ele>
 <time>2009-09-23T12:23:20Z</time>
 </trkpt>
 <trkpt lat="47.667122" lon="13.109245">
 <ele>441.86</ele>
 <time>2009-09-23T12:23:25Z</time>
 </trkpt>
 <trkpt lat="47.667091" lon="13.109265">
 <ele>442.34</ele>
 <time>2009-09-23T12:23:26Z</time>
 </trkpt>
 <trkpt lat="47.666805" lon="13.109403">
 <ele>443.79</ele>
 <time>2009-09-23T12:23:35Z</time>
 </trkpt>
 <trkpt lat="47.666534" lon="13.109611">
 <ele>444.27</ele>
 <time>2009-09-23T12:23:44Z</time>
 </trkpt>
 <trkpt lat="47.666328" lon="13.109823">
 <ele>444.75</ele>
 <time>2009-09-23T12:23:51Z</time>
 </trkpt>
 <trkpt lat="47.666077" lon="13.110058">
 <ele>445.23</ele>
 <time>2009-09-23T12:24:00Z</time>
 </trkpt>
 <trkpt lat="47.665833" lon="13.110149">
 <ele>446.67</ele>
 <time>2009-09-23T12:24:08Z</time>
 </trkpt>
 <trkpt lat="47.665619" lon="13.110348">
 <ele>447.63</ele>
 <time>2009-09-23T12:24:16Z</time>
 </trkpt>
 <trkpt lat="47.665573" lon="13.110398">
 <ele>448.59</ele>
 <time>2009-09-23T12:24:18Z</time>
 </trkpt>
 <trkpt lat="47.665367" lon="13.110644">
 <ele>450.03</ele>
 <time>2009-09-23T12:24:27Z</time>
 </trkpt>
 <trkpt lat="47.665207" lon="13.110837">
 <ele>451.00</ele>
 <time>2009-09-23T12:24:35Z</time>
 </trkpt>
 <trkpt lat="47.665062" lon="13.111051">
 <ele>451.96</ele>
 <time>2009-09-23T12:24:43Z</time>
 </trkpt>
 <trkpt lat="47.664967" lon="13.111319">
 <ele>452.92</ele>
 <time>2009-09-23T12:24:51Z</time>
 </trkpt>
 <trkpt lat="47.664902" lon="13.111574">
 <ele>453.88</ele>
 <time>2009-09-23T12:24:58Z</time>
 </trkpt>
 <trkpt lat="47.664845" lon="13.111833">
 <ele>454.36</ele>
 <time>2009-09-23T12:25:05Z</time>
 </trkpt>
 <trkpt lat="47.664742" lon="13.112151">
 <ele>455.80</ele>
 <time>2009-09-23T12:25:13Z</time>
 </trkpt>
 <trkpt lat="47.664600" lon="13.112391">
 <ele>456.28</ele>
 <time>2009-09-23T12:25:20Z</time>
 </trkpt>
 <trkpt lat="47.664398" lon="13.112704">
 <ele>456.76</ele>
 <time>2009-09-23T12:25:28Z</time>
 </trkpt>
 <trkpt lat="47.664242" lon="13.113014">
 <ele>457.24</ele>
 <time>2009-09-23T12:25:35Z</time>
 </trkpt>
 <trkpt lat="47.664200" lon="13.113117">
 <ele>457.24</ele>
 <time>2009-09-23T12:25:37Z</time>
 </trkpt>
 <trkpt lat="47.664101" lon="13.113552">
 <ele>457.72</ele>
 <time>2009-09-23T12:25:45Z</time>
 </trkpt>
 <trkpt lat="47.663994" lon="13.113985">
 <ele>457.72</ele>
 <time>2009-09-23T12:25:52Z</time>
 </trkpt>
 <trkpt lat="47.663815" lon="13.114478">
 <ele>458.21</ele>
 <time>2009-09-23T12:25:59Z</time>
 </trkpt>
 <trkpt lat="47.663651" lon="13.114786">
 <ele>458.21</ele>
 <time>2009-09-23T12:26:05Z</time>
 </trkpt>
 <trkpt lat="47.663471" lon="13.114941">
 <ele>458.21</ele>
 <time>2009-09-23T12:26:11Z</time>
 </trkpt>
 <trkpt lat="47.663239" lon="13.115064">
 <ele>457.72</ele>
 <time>2009-09-23T12:26:19Z</time>
 </trkpt>
 <trkpt lat="47.663055" lon="13.115088">
 <ele>459.17</ele>
 <time>2009-09-23T12:26:26Z</time>
 </trkpt>
 <trkpt lat="47.662880" lon="13.115111">
 <ele>460.61</ele>
 <time>2009-09-23T12:26:35Z</time>
 </trkpt>
 <trkpt lat="47.662739" lon="13.115129">
 <ele>463.49</ele>
 <time>2009-09-23T12:26:42Z</time>
 </trkpt>
 <trkpt lat="47.662636" lon="13.115144">
 <ele>464.93</ele>
 <time>2009-09-23T12:26:47Z</time>
 </trkpt>
 <trkpt lat="47.662437" lon="13.115186">
 <ele>466.38</ele>
 <time>2009-09-23T12:26:57Z</time>
 </trkpt>
 <trkpt lat="47.662354" lon="13.115203">
 <ele>467.82</ele>
 <time>2009-09-23T12:27:01Z</time>
 </trkpt>
 <trkpt lat="47.662159" lon="13.115223">
 <ele>468.78</ele>
 <time>2009-09-23T12:27:10Z</time>
 </trkpt>
 <trkpt lat="47.661953" lon="13.115262">
 <ele>469.74</ele>
 <time>2009-09-23T12:27:20Z</time>
 </trkpt>
 <trkpt lat="47.661804" lon="13.115280">
 <ele>471.18</ele>
 <time>2009-09-23T12:27:27Z</time>
 </trkpt>
 <trkpt lat="47.661636" lon="13.115238">
 <ele>472.63</ele>
 <time>2009-09-23T12:27:35Z</time>
 </trkpt>
 <trkpt lat="47.661449" lon="13.115188">
 <ele>473.59</ele>
 <time>2009-09-23T12:27:44Z</time>
 </trkpt>
 <trkpt lat="47.661213" lon="13.115151">
 <ele>475.03</ele>
 <time>2009-09-23T12:27:55Z</time>
 </trkpt>
 <trkpt lat="47.660980" lon="13.115097">
 <ele>476.95</ele>
 <time>2009-09-23T12:28:06Z</time>
 </trkpt>
 <trkpt lat="47.660767" lon="13.115046">
 <ele>478.39</ele>
 <time>2009-09-23T12:28:16Z</time>
 </trkpt>
 <trkpt lat="47.660580" lon="13.115002">
 <ele>479.84</ele>
 <time>2009-09-23T12:28:25Z</time>
 </trkpt>
 <trkpt lat="47.660400" lon="13.114985">
 <ele>479.35</ele>
 <time>2009-09-23T12:28:32Z</time>
 </trkpt>
 <trkpt lat="47.660213" lon="13.114992">
 <ele>479.84</ele>
 <time>2009-09-23T12:28:37Z</time>
 </trkpt>
 <trkpt lat="47.659824" lon="13.115028">
 <ele>478.87</ele>
 <time>2009-09-23T12:28:45Z</time>
 </trkpt>
 <trkpt lat="47.659477" lon="13.114972">
 <ele>478.87</ele>
 <time>2009-09-23T12:28:52Z</time>
 </trkpt>
 <trkpt lat="47.659187" lon="13.114898">
 <ele>478.87</ele>
 <time>2009-09-23T12:28:58Z</time>
 </trkpt>
 <trkpt lat="47.659096" lon="13.114874">
 <ele>479.35</ele>
 <time>2009-09-23T12:29:00Z</time>
 </trkpt>
 <trkpt lat="47.658951" lon="13.114851">
 <ele>478.87</ele>
 <time>2009-09-23T12:29:03Z</time>
 </trkpt>
 <trkpt lat="47.658852" lon="13.114856">
 <ele>478.87</ele>
 <time>2009-09-23T12:29:05Z</time>
 </trkpt>
 <trkpt lat="47.658653" lon="13.114961">
 <ele>479.35</ele>
 <time>2009-09-23T12:29:09Z</time>
 </trkpt>
 <trkpt lat="47.658340" lon="13.115258">
 <ele>479.35</ele>
 <time>2009-09-23T12:29:16Z</time>
 </trkpt>
 <trkpt lat="47.658203" lon="13.115378">
 <ele>479.35</ele>
 <time>2009-09-23T12:29:19Z</time>
 </trkpt>
 <trkpt lat="47.657974" lon="13.115521">
 <ele>477.91</ele>
 <time>2009-09-23T12:29:24Z</time>
 </trkpt>
 <trkpt lat="47.657688" lon="13.115673">
 <ele>476.47</ele>
 <time>2009-09-23T12:29:29Z</time>
 </trkpt>
 <trkpt lat="47.657619" lon="13.115705">
 <ele>476.47</ele>
 <time>2009-09-23T12:29:30Z</time>
 </trkpt>
 <trkpt lat="47.657246" lon="13.115779">
 <ele>474.55</ele>
 <time>2009-09-23T12:29:35Z</time>
 </trkpt>
 <trkpt lat="47.657093" lon="13.115839">
 <ele>473.59</ele>
 <time>2009-09-23T12:29:37Z</time>
 </trkpt>
 <trkpt lat="47.656933" lon="13.115945">
 <ele>472.14</ele>
 <time>2009-09-23T12:29:39Z</time>
 </trkpt>
 <trkpt lat="47.656628" lon="13.116375">
 <ele>470.70</ele>
 <time>2009-09-23T12:29:43Z</time>
 </trkpt>
 <trkpt lat="47.656269" lon="13.116877">
 <ele>467.34</ele>
 <time>2009-09-23T12:29:48Z</time>
 </trkpt>
 <trkpt lat="47.656029" lon="13.117398">
 <ele>465.42</ele>
 <time>2009-09-23T12:29:53Z</time>
 </trkpt>
 <trkpt lat="47.655907" lon="13.117764">
 <ele>463.01</ele>
 <time>2009-09-23T12:29:56Z</time>
 </trkpt>
 <trkpt lat="47.655853" lon="13.117993">
 <ele>462.05</ele>
 <time>2009-09-23T12:29:58Z</time>
 </trkpt>
 <trkpt lat="47.655704" lon="13.118324">
 <ele>460.61</ele>
 <time>2009-09-23T12:30:02Z</time>
 </trkpt>
 <trkpt lat="47.655582" lon="13.118453">
 <ele>458.69</ele>
 <time>2009-09-23T12:30:04Z</time>
 </trkpt>
 <trkpt lat="47.655445" lon="13.118567">
 <ele>458.21</ele>
 <time>2009-09-23T12:30:06Z</time>
 </trkpt>
 <trkpt lat="47.655140" lon="13.118750">
 <ele>456.76</ele>
 <time>2009-09-23T12:30:10Z</time>
 </trkpt>
 <trkpt lat="47.654602" lon="13.118970">
 <ele>456.76</ele>
 <time>2009-09-23T12:30:17Z</time>
 </trkpt>
 <trkpt lat="47.654251" lon="13.119158">
 <ele>457.72</ele>
 <time>2009-09-23T12:30:23Z</time>
 </trkpt>
 <trkpt lat="47.653938" lon="13.119340">
 <ele>459.17</ele>
 <time>2009-09-23T12:30:29Z</time>
 </trkpt>
 <trkpt lat="47.653675" lon="13.119487">
 <ele>457.72</ele>
 <time>2009-09-23T12:30:35Z</time>
 </trkpt>
 <trkpt lat="47.653591" lon="13.119561">
 <ele>457.72</ele>
 <time>2009-09-23T12:30:38Z</time>
 </trkpt>
 <trkpt lat="47.653336" lon="13.119806">
 <ele>457.24</ele>
 <time>2009-09-23T12:30:44Z</time>
 </trkpt>
 <trkpt lat="47.653030" lon="13.120134">
 <ele>457.24</ele>
 <time>2009-09-23T12:30:50Z</time>
 </trkpt>
 <trkpt lat="47.652679" lon="13.120275">
 <ele>455.32</ele>
 <time>2009-09-23T12:30:55Z</time>
 </trkpt>
 <trkpt lat="47.652428" lon="13.120296">
 <ele>454.84</ele>
 <time>2009-09-23T12:30:58Z</time>
 </trkpt>
 <trkpt lat="47.652088" lon="13.120464">
 <ele>455.32</ele>
 <time>2009-09-23T12:31:03Z</time>
 </trkpt>
 <trkpt lat="47.651680" lon="13.120784">
 <ele>456.28</ele>
 <time>2009-09-23T12:31:11Z</time>
 </trkpt>
 <trkpt lat="47.651302" lon="13.120973">
 <ele>456.76</ele>
 <time>2009-09-23T12:31:18Z</time>
 </trkpt>
 <trkpt lat="47.650944" lon="13.121027">
 <ele>455.80</ele>
 <time>2009-09-23T12:31:24Z</time>
 </trkpt>
 <trkpt lat="47.650517" lon="13.121033">
 <ele>457.24</ele>
 <time>2009-09-23T12:31:31Z</time>
 </trkpt>
 <trkpt lat="47.650467" lon="13.121018">
 <ele>458.21</ele>
 <time>2009-09-23T12:31:32Z</time>
 </trkpt>
 <trkpt lat="47.650215" lon="13.121074">
 <ele>456.76</ele>
 <time>2009-09-23T12:31:37Z</time>
 </trkpt>
 <trkpt lat="47.649986" lon="13.121090">
 <ele>456.76</ele>
 <time>2009-09-23T12:31:41Z</time>
 </trkpt>
 <trkpt lat="47.649612" lon="13.120922">
 <ele>458.21</ele>
 <time>2009-09-23T12:31:48Z</time>
 </trkpt>
 <trkpt lat="47.649467" lon="13.120824">
 <ele>458.21</ele>
 <time>2009-09-23T12:31:51Z</time>
 </trkpt>
 <trkpt lat="47.649246" lon="13.120801">
 <ele>457.72</ele>
 <time>2009-09-23T12:31:55Z</time>
 </trkpt>
 <trkpt lat="47.648853" lon="13.120827">
 <ele>455.80</ele>
 <time>2009-09-23T12:32:01Z</time>
 </trkpt>
 <trkpt lat="47.648438" lon="13.120842">
 <ele>454.36</ele>
 <time>2009-09-23T12:32:06Z</time>
 </trkpt>
 <trkpt lat="47.647991" lon="13.120938">
 <ele>454.36</ele>
 <time>2009-09-23T12:32:12Z</time>
 </trkpt>
 <trkpt lat="47.647724" lon="13.120972">
 <ele>454.36</ele>
 <time>2009-09-23T12:32:16Z</time>
 </trkpt>
 <trkpt lat="47.647366" lon="13.121085">
 <ele>453.88</ele>
 <time>2009-09-23T12:32:22Z</time>
 </trkpt>
 <trkpt lat="47.647045" lon="13.121032">
 <ele>452.44</ele>
 <time>2009-09-23T12:32:27Z</time>
 </trkpt>
 <trkpt lat="47.646816" lon="13.121111">
 <ele>451.96</ele>
 <time>2009-09-23T12:32:31Z</time>
 </trkpt>
 <trkpt lat="47.646774" lon="13.121175">
 <ele>451.96</ele>
 <time>2009-09-23T12:32:32Z</time>
 </trkpt>
 <trkpt lat="47.646469" lon="13.121456">
 <ele>451.48</ele>
 <time>2009-09-23T12:32:38Z</time>
 </trkpt>
 <trkpt lat="47.646168" lon="13.121739">
 <ele>451.96</ele>
 <time>2009-09-23T12:32:44Z</time>
 </trkpt>
 <trkpt lat="47.645905" lon="13.122178">
 <ele>452.44</ele>
 <time>2009-09-23T12:32:51Z</time>
 </trkpt>
 <trkpt lat="47.645576" lon="13.122621">
 <ele>452.44</ele>
 <time>2009-09-23T12:32:59Z</time>
 </trkpt>
 <trkpt lat="47.645226" lon="13.122814">
 <ele>452.92</ele>
 <time>2009-09-23T12:33:06Z</time>
 </trkpt>
 <trkpt lat="47.645031" lon="13.122846">
 <ele>453.88</ele>
 <time>2009-09-23T12:33:11Z</time>
 </trkpt>
 <trkpt lat="47.644768" lon="13.122821">
 <ele>457.24</ele>
 <time>2009-09-23T12:33:19Z</time>
 </trkpt>
 <trkpt lat="47.644600" lon="13.122719">
 <ele>458.21</ele>
 <time>2009-09-23T12:33:24Z</time>
 </trkpt>
 <trkpt lat="47.644432" lon="13.122718">
 <ele>458.21</ele>
 <time>2009-09-23T12:33:29Z</time>
 </trkpt>
 <trkpt lat="47.644386" lon="13.122733">
 <ele>457.72</ele>
 <time>2009-09-23T12:33:30Z</time>
 </trkpt>
 <trkpt lat="47.644176" lon="13.122673">
 <ele>457.24</ele>
 <time>2009-09-23T12:33:34Z</time>
 </trkpt>
 <trkpt lat="47.643818" lon="13.122554">
 <ele>455.32</ele>
 <time>2009-09-23T12:33:40Z</time>
 </trkpt>
 <trkpt lat="47.643677" lon="13.122568">
 <ele>454.36</ele>
 <time>2009-09-23T12:33:42Z</time>
 </trkpt>
 <trkpt lat="47.643372" lon="13.122423">
 <ele>451.96</ele>
 <time>2009-09-23T12:33:46Z</time>
 </trkpt>
 <trkpt lat="47.643219" lon="13.122361">
 <ele>452.44</ele>
 <time>2009-09-23T12:33:48Z</time>
 </trkpt>
 <trkpt lat="47.642757" lon="13.122305">
 <ele>452.44</ele>
 <time>2009-09-23T12:33:55Z</time>
 </trkpt>
 <trkpt lat="47.642368" lon="13.122458">
 <ele>452.92</ele>
 <time>2009-09-23T12:34:01Z</time>
 </trkpt>
 <trkpt lat="47.642105" lon="13.122634">
 <ele>452.92</ele>
 <time>2009-09-23T12:34:06Z</time>
 </trkpt>
 <trkpt lat="47.641743" lon="13.122815">
 <ele>452.92</ele>
 <time>2009-09-23T12:34:12Z</time>
 </trkpt>
 <trkpt lat="47.641678" lon="13.122835">
 <ele>452.92</ele>
 <time>2009-09-23T12:34:13Z</time>
 </trkpt>
 <trkpt lat="47.641502" lon="13.123020">
 <ele>452.44</ele>
 <time>2009-09-23T12:34:17Z</time>
 </trkpt>
 <trkpt lat="47.641472" lon="13.123085">
 <ele>452.92</ele>
 <time>2009-09-23T12:34:18Z</time>
 </trkpt>
 <trkpt lat="47.641411" lon="13.123223">
 <ele>452.92</ele>
 <time>2009-09-23T12:34:20Z</time>
 </trkpt>
 <trkpt lat="47.641239" lon="13.123469">
 <ele>452.44</ele>
 <time>2009-09-23T12:34:24Z</time>
 </trkpt>
 <trkpt lat="47.641060" lon="13.123848">
 <ele>452.44</ele>
 <time>2009-09-23T12:34:29Z</time>
 </trkpt>
 <trkpt lat="47.640881" lon="13.124537">
 <ele>451.48</ele>
 <time>2009-09-23T12:34:37Z</time>
 </trkpt>
 <trkpt lat="47.640625" lon="13.125111">
 <ele>451.48</ele>
 <time>2009-09-23T12:34:45Z</time>
 </trkpt>
 <trkpt lat="47.640308" lon="13.125798">
 <ele>451.96</ele>
 <time>2009-09-23T12:34:55Z</time>
 </trkpt>
 <trkpt lat="47.639973" lon="13.126459">
 <ele>451.96</ele>
 <time>2009-09-23T12:35:05Z</time>
 </trkpt>
 <trkpt lat="47.639648" lon="13.127029">
 <ele>452.44</ele>
 <time>2009-09-23T12:35:14Z</time>
 </trkpt>
 <trkpt lat="47.639374" lon="13.127535">
 <ele>452.44</ele>
 <time>2009-09-23T12:35:22Z</time>
 </trkpt>
 <trkpt lat="47.639065" lon="13.127844">
 <ele>452.92</ele>
 <time>2009-09-23T12:35:29Z</time>
 </trkpt>
 <trkpt lat="47.638847" lon="13.127891">
 <ele>455.32</ele>
 <time>2009-09-23T12:35:35Z</time>
 </trkpt>
 <trkpt lat="47.638710" lon="13.127815">
 <ele>455.80</ele>
 <time>2009-09-23T12:35:42Z</time>
 </trkpt>
 <trkpt lat="47.638611" lon="13.127718">
 <ele>456.76</ele>
 <time>2009-09-23T12:35:49Z</time>
 </trkpt>
 <trkpt lat="47.638481" lon="13.127595">
 <ele>458.21</ele>
 <time>2009-09-23T12:35:58Z</time>
 </trkpt>
 <trkpt lat="47.638351" lon="13.127431">
 <ele>459.65</ele>
 <time>2009-09-23T12:36:08Z</time>
 </trkpt>
 <trkpt lat="47.638264" lon="13.127209">
 <ele>462.05</ele>
 <time>2009-09-23T12:36:18Z</time>
 </trkpt>
 <trkpt lat="47.638168" lon="13.127146">
 <ele>463.01</ele>
 <time>2009-09-23T12:36:24Z</time>
 </trkpt>
 <trkpt lat="47.638096" lon="13.127196">
 <ele>463.49</ele>
 <time>2009-09-23T12:36:29Z</time>
 </trkpt>
 <trkpt lat="47.638008" lon="13.127321">
 <ele>463.97</ele>
 <time>2009-09-23T12:36:36Z</time>
 </trkpt>
 <trkpt lat="47.637936" lon="13.127503">
 <ele>465.90</ele>
 <time>2009-09-23T12:36:44Z</time>
 </trkpt>
 <trkpt lat="47.637852" lon="13.127584">
 <ele>467.82</ele>
 <time>2009-09-23T12:36:50Z</time>
 </trkpt>
 <trkpt lat="47.637707" lon="13.127640">
 <ele>469.74</ele>
 <time>2009-09-23T12:36:59Z</time>
 </trkpt>
 <trkpt lat="47.637566" lon="13.127683">
 <ele>472.14</ele>
 <time>2009-09-23T12:37:09Z</time>
 </trkpt>
 <trkpt lat="47.637402" lon="13.127748">
 <ele>472.63</ele>
 <time>2009-09-23T12:37:20Z</time>
 </trkpt>
 <trkpt lat="47.637226" lon="13.127848">
 <ele>473.59</ele>
 <time>2009-09-23T12:37:30Z</time>
 </trkpt>
 <trkpt lat="47.637039" lon="13.127958">
 <ele>474.55</ele>
 <time>2009-09-23T12:37:39Z</time>
 </trkpt>
 <trkpt lat="47.636765" lon="13.128111">
 <ele>475.99</ele>
 <time>2009-09-23T12:37:51Z</time>
 </trkpt>
 <trkpt lat="47.636497" lon="13.128267">
 <ele>476.47</ele>
 <time>2009-09-23T12:38:02Z</time>
 </trkpt>
 <trkpt lat="47.636307" lon="13.128365">
 <ele>477.43</ele>
 <time>2009-09-23T12:38:09Z</time>
 </trkpt>
 <trkpt lat="47.636063" lon="13.128446">
 <ele>478.39</ele>
 <time>2009-09-23T12:38:17Z</time>
 </trkpt>
 <trkpt lat="47.635727" lon="13.128584">
 <ele>479.35</ele>
 <time>2009-09-23T12:38:26Z</time>
 </trkpt>
 <trkpt lat="47.635441" lon="13.128662">
 <ele>480.32</ele>
 <time>2009-09-23T12:38:34Z</time>
 </trkpt>
 <trkpt lat="47.635139" lon="13.128695">
 <ele>479.84</ele>
 <time>2009-09-23T12:38:42Z</time>
 </trkpt>
 <trkpt lat="47.635056" lon="13.128708">
 <ele>480.32</ele>
 <time>2009-09-23T12:38:44Z</time>
 </trkpt>
 <trkpt lat="47.634651" lon="13.128819">
 <ele>480.32</ele>
 <time>2009-09-23T12:38:53Z</time>
 </trkpt>
 <trkpt lat="47.634220" lon="13.128983">
 <ele>478.87</ele>
 <time>2009-09-23T12:39:02Z</time>
 </trkpt>
 <trkpt lat="47.634113" lon="13.129057">
 <ele>477.43</ele>
 <time>2009-09-23T12:39:04Z</time>
 </trkpt>
 <trkpt lat="47.633892" lon="13.129350">
 <ele>475.51</ele>
 <time>2009-09-23T12:39:08Z</time>
 </trkpt>
 <trkpt lat="47.633842" lon="13.129457">
 <ele>474.07</ele>
 <time>2009-09-23T12:39:09Z</time>
 </trkpt>
 <trkpt lat="47.633736" lon="13.129691">
 <ele>472.63</ele>
 <time>2009-09-23T12:39:11Z</time>
 </trkpt>
 <trkpt lat="47.633675" lon="13.129811">
 <ele>471.66</ele>
 <time>2009-09-23T12:39:12Z</time>
 </trkpt>
 <trkpt lat="47.633438" lon="13.130079">
 <ele>470.22</ele>
 <time>2009-09-23T12:39:15Z</time>
 </trkpt>
 <trkpt lat="47.633343" lon="13.130125">
 <ele>469.74</ele>
 <time>2009-09-23T12:39:16Z</time>
 </trkpt>
 <trkpt lat="47.632858" lon="13.130309">
 <ele>470.70</ele>
 <time>2009-09-23T12:39:22Z</time>
 </trkpt>
 <trkpt lat="47.632236" lon="13.130530">
 <ele>470.70</ele>
 <time>2009-09-23T12:39:31Z</time>
 </trkpt>
 <trkpt lat="47.631531" lon="13.130795">
 <ele>469.26</ele>
 <time>2009-09-23T12:39:41Z</time>
 </trkpt>
 <trkpt lat="47.631184" lon="13.130920">
 <ele>468.78</ele>
 <time>2009-09-23T12:39:46Z</time>
 </trkpt>
 <trkpt lat="47.631020" lon="13.131154">
 <ele>468.78</ele>
 <time>2009-09-23T12:39:50Z</time>
 </trkpt>
 <trkpt lat="47.630993" lon="13.131410">
 <ele>469.26</ele>
 <time>2009-09-23T12:39:53Z</time>
 </trkpt>
 <trkpt lat="47.630978" lon="13.131882">
 <ele>468.30</ele>
 <time>2009-09-23T12:39:58Z</time>
 </trkpt>
 <trkpt lat="47.630882" lon="13.132240">
 <ele>467.34</ele>
 <time>2009-09-23T12:40:02Z</time>
 </trkpt>
 <trkpt lat="47.630806" lon="13.132421">
 <ele>465.90</ele>
 <time>2009-09-23T12:40:04Z</time>
 </trkpt>
 <trkpt lat="47.630756" lon="13.132862">
 <ele>463.49</ele>
 <time>2009-09-23T12:40:08Z</time>
 </trkpt>
 <trkpt lat="47.630791" lon="13.133078">
 <ele>462.05</ele>
 <time>2009-09-23T12:40:10Z</time>
 </trkpt>
 <trkpt lat="47.630829" lon="13.133370">
 <ele>459.65</ele>
 <time>2009-09-23T12:40:13Z</time>
 </trkpt>
 <trkpt lat="47.630745" lon="13.133745">
 <ele>457.24</ele>
 <time>2009-09-23T12:40:17Z</time>
 </trkpt>
 <trkpt lat="47.630630" lon="13.134265">
 <ele>457.72</ele>
 <time>2009-09-23T12:40:23Z</time>
 </trkpt>
 <trkpt lat="47.630524" lon="13.134517">
 <ele>457.72</ele>
 <time>2009-09-23T12:40:27Z</time>
 </trkpt>
 <trkpt lat="47.630444" lon="13.134603">
 <ele>457.72</ele>
 <time>2009-09-23T12:40:29Z</time>
 </trkpt>
 <trkpt lat="47.630123" lon="13.134836">
 <ele>457.72</ele>
 <time>2009-09-23T12:40:36Z</time>
 </trkpt>
 <trkpt lat="47.629795" lon="13.135191">
 <ele>458.21</ele>
 <time>2009-09-23T12:40:44Z</time>
 </trkpt>
 <trkpt lat="47.629448" lon="13.135561">
 <ele>458.21</ele>
 <time>2009-09-23T12:40:52Z</time>
 </trkpt>
 <trkpt lat="47.628983" lon="13.135991">
 <ele>458.21</ele>
 <time>2009-09-23T12:41:02Z</time>
 </trkpt>
 <trkpt lat="47.628460" lon="13.136405">
 <ele>458.21</ele>
 <time>2009-09-23T12:41:13Z</time>
 </trkpt>
 <trkpt lat="47.627907" lon="13.136845">
 <ele>458.21</ele>
 <time>2009-09-23T12:41:24Z</time>
 </trkpt>
 <trkpt lat="47.627449" lon="13.137202">
 <ele>458.69</ele>
 <time>2009-09-23T12:41:33Z</time>
 </trkpt>
 <trkpt lat="47.626873" lon="13.137538">
 <ele>458.21</ele>
 <time>2009-09-23T12:41:44Z</time>
 </trkpt>
 <trkpt lat="47.626438" lon="13.137671">
 <ele>458.69</ele>
 <time>2009-09-23T12:41:52Z</time>
 </trkpt>
 <trkpt lat="47.625942" lon="13.137804">
 <ele>458.69</ele>
 <time>2009-09-23T12:42:01Z</time>
 </trkpt>
 <trkpt lat="47.625561" lon="13.137878">
 <ele>458.21</ele>
 <time>2009-09-23T12:42:08Z</time>
 </trkpt>
 <trkpt lat="47.625229" lon="13.137942">
 <ele>459.17</ele>
 <time>2009-09-23T12:42:15Z</time>
 </trkpt>
 <trkpt lat="47.624928" lon="13.137942">
 <ele>458.69</ele>
 <time>2009-09-23T12:42:21Z</time>
 </trkpt>
 <trkpt lat="47.624409" lon="13.137827">
 <ele>459.65</ele>
 <time>2009-09-23T12:42:31Z</time>
 </trkpt>
 <trkpt lat="47.624084" lon="13.137846">
 <ele>459.17</ele>
 <time>2009-09-23T12:42:37Z</time>
 </trkpt>
 <trkpt lat="47.623631" lon="13.137997">
 <ele>459.65</ele>
 <time>2009-09-23T12:42:45Z</time>
 </trkpt>
 <trkpt lat="47.623150" lon="13.138203">
 <ele>459.17</ele>
 <time>2009-09-23T12:42:54Z</time>
 </trkpt>
 <trkpt lat="47.622623" lon="13.138523">
 <ele>458.69</ele>
 <time>2009-09-23T12:43:04Z</time>
 </trkpt>
 <trkpt lat="47.622066" lon="13.138883">
 <ele>458.21</ele>
 <time>2009-09-23T12:43:14Z</time>
 </trkpt>
 <trkpt lat="47.621952" lon="13.138931">
 <ele>458.21</ele>
 <time>2009-09-23T12:43:16Z</time>
 </trkpt>
 <trkpt lat="47.621494" lon="13.138952">
 <ele>458.21</ele>
 <time>2009-09-23T12:43:24Z</time>
 </trkpt>
 <trkpt lat="47.620892" lon="13.139008">
 <ele>458.21</ele>
 <time>2009-09-23T12:43:35Z</time>
 </trkpt>
 <trkpt lat="47.620449" lon="13.139084">
 <ele>457.72</ele>
 <time>2009-09-23T12:43:43Z</time>
 </trkpt>
 <trkpt lat="47.619827" lon="13.139205">
 <ele>457.72</ele>
 <time>2009-09-23T12:43:54Z</time>
 </trkpt>
 <trkpt lat="47.619377" lon="13.139285">
 <ele>458.21</ele>
 <time>2009-09-23T12:44:02Z</time>
 </trkpt>
 <trkpt lat="47.618778" lon="13.139425">
 <ele>457.72</ele>
 <time>2009-09-23T12:44:13Z</time>
 </trkpt>
 <trkpt lat="47.618431" lon="13.139690">
 <ele>457.72</ele>
 <time>2009-09-23T12:44:20Z</time>
 </trkpt>
 <trkpt lat="47.617947" lon="13.140089">
 <ele>457.72</ele>
 <time>2009-09-23T12:44:30Z</time>
 </trkpt>
 <trkpt lat="47.617367" lon="13.140560">
 <ele>458.21</ele>
 <time>2009-09-23T12:44:42Z</time>
 </trkpt>
 <trkpt lat="47.617123" lon="13.140855">
 <ele>458.21</ele>
 <time>2009-09-23T12:44:48Z</time>
 </trkpt>
 <trkpt lat="47.616955" lon="13.141225">
 <ele>459.17</ele>
 <time>2009-09-23T12:44:54Z</time>
 </trkpt>
 <trkpt lat="47.616806" lon="13.141566">
 <ele>458.21</ele>
 <time>2009-09-23T12:44:59Z</time>
 </trkpt>
 <trkpt lat="47.616592" lon="13.141829">
 <ele>458.69</ele>
 <time>2009-09-23T12:45:04Z</time>
 </trkpt>
 <trkpt lat="47.616451" lon="13.141912">
 <ele>458.69</ele>
 <time>2009-09-23T12:45:07Z</time>
 </trkpt>
 <trkpt lat="47.616013" lon="13.141964">
 <ele>459.17</ele>
 <time>2009-09-23T12:45:16Z</time>
 </trkpt>
 <trkpt lat="47.615868" lon="13.141995">
 <ele>459.17</ele>
 <time>2009-09-23T12:45:19Z</time>
 </trkpt>
 <trkpt lat="47.615543" lon="13.142169">
 <ele>459.17</ele>
 <time>2009-09-23T12:45:26Z</time>
 </trkpt>
 <trkpt lat="47.615154" lon="13.142518">
 <ele>460.61</ele>
 <time>2009-09-23T12:45:35Z</time>
 </trkpt>
 <trkpt lat="47.614796" lon="13.142901">
 <ele>461.09</ele>
 <time>2009-09-23T12:45:44Z</time>
 </trkpt>
 <trkpt lat="47.614563" lon="13.143127">
 <ele>461.09</ele>
 <time>2009-09-23T12:45:50Z</time>
 </trkpt>
 <trkpt lat="47.614479" lon="13.143180">
 <ele>461.09</ele>
 <time>2009-09-23T12:45:52Z</time>
 </trkpt>
 <trkpt lat="47.614048" lon="13.143317">
 <ele>462.05</ele>
 <time>2009-09-23T12:46:02Z</time>
 </trkpt>
 <trkpt lat="47.614006" lon="13.143333">
 <ele>461.09</ele>
 <time>2009-09-23T12:46:03Z</time>
 </trkpt>
 <trkpt lat="47.613750" lon="13.143290">
 <ele>461.57</ele>
 <time>2009-09-23T12:46:09Z</time>
 </trkpt>
 <trkpt lat="47.613445" lon="13.143037">
 <ele>462.53</ele>
 <time>2009-09-23T12:46:18Z</time>
 </trkpt>
 <trkpt lat="47.613220" lon="13.142876">
 <ele>463.97</ele>
 <time>2009-09-23T12:46:25Z</time>
 </trkpt>
 <trkpt lat="47.613026" lon="13.142858">
 <ele>464.45</ele>
 <time>2009-09-23T12:46:31Z</time>
 </trkpt>
 <trkpt lat="47.612881" lon="13.142692">
 <ele>464.93</ele>
 <time>2009-09-23T12:46:36Z</time>
 </trkpt>
 <trkpt lat="47.612705" lon="13.142478">
 <ele>464.93</ele>
 <time>2009-09-23T12:46:42Z</time>
 </trkpt>
 <trkpt lat="47.612556" lon="13.142354">
 <ele>465.42</ele>
 <time>2009-09-23T12:46:47Z</time>
 </trkpt>
 <trkpt lat="47.612381" lon="13.142186">
 <ele>466.38</ele>
 <time>2009-09-23T12:46:53Z</time>
 </trkpt>
 <trkpt lat="47.612225" lon="13.142025">
 <ele>467.34</ele>
 <time>2009-09-23T12:46:59Z</time>
 </trkpt>
 <trkpt lat="47.612030" lon="13.141840">
 <ele>468.30</ele>
 <time>2009-09-23T12:47:07Z</time>
 </trkpt>
 <trkpt lat="47.612041" lon="13.141849">
 <ele>468.30</ele>
 <time>2009-09-23T12:47:11Z</time>
 </trkpt>
 <trkpt lat="47.612038" lon="13.141656">
 <ele>469.26</ele>
 <time>2009-09-23T12:47:16Z</time>
 </trkpt>
 <trkpt lat="47.612022" lon="13.141637">
 <ele>469.26</ele>
 <time>2009-09-23T12:47:17Z</time>
 </trkpt>
 <trkpt lat="47.611774" lon="13.141455">
 <ele>470.70</ele>
 <time>2009-09-23T12:47:24Z</time>
 </trkpt>
 <trkpt lat="47.611633" lon="13.141299">
 <ele>471.66</ele>
 <time>2009-09-23T12:47:31Z</time>
 </trkpt>
 <trkpt lat="47.611496" lon="13.141114">
 <ele>472.14</ele>
 <time>2009-09-23T12:47:38Z</time>
 </trkpt>
 <trkpt lat="47.611488" lon="13.141095">
 <ele>472.63</ele>
 <time>2009-09-23T12:47:39Z</time>
 </trkpt>
 <trkpt lat="47.611370" lon="13.140935">
 <ele>474.55</ele>
 <time>2009-09-23T12:47:47Z</time>
 </trkpt>
 <trkpt lat="47.611294" lon="13.140826">
 <ele>475.03</ele>
 <time>2009-09-23T12:47:55Z</time>
 </trkpt>
 <trkpt lat="47.611187" lon="13.140742">
 <ele>476.47</ele>
 <time>2009-09-23T12:48:04Z</time>
 </trkpt>
 <trkpt lat="47.611126" lon="13.140685">
 <ele>477.43</ele>
 <time>2009-09-23T12:48:10Z</time>
 </trkpt>
 <trkpt lat="47.611012" lon="13.140613">
 <ele>478.87</ele>
 <time>2009-09-23T12:48:18Z</time>
 </trkpt>
 <trkpt lat="47.610874" lon="13.140548">
 <ele>480.80</ele>
 <time>2009-09-23T12:48:27Z</time>
 </trkpt>
 <trkpt lat="47.610802" lon="13.140525">
 <ele>481.28</ele>
 <time>2009-09-23T12:48:33Z</time>
 </trkpt>
 <trkpt lat="47.610668" lon="13.140505">
 <ele>482.72</ele>
 <time>2009-09-23T12:48:42Z</time>
 </trkpt>
 <trkpt lat="47.610508" lon="13.140525">
 <ele>484.64</ele>
 <time>2009-09-23T12:48:52Z</time>
 </trkpt>
 <trkpt lat="47.610344" lon="13.140584">
 <ele>485.12</ele>
 <time>2009-09-23T12:49:00Z</time>
 </trkpt>
 <trkpt lat="47.610123" lon="13.140693">
 <ele>484.64</ele>
 <time>2009-09-23T12:49:08Z</time>
 </trkpt>
 <trkpt lat="47.609947" lon="13.140790">
 <ele>486.08</ele>
 <time>2009-09-23T12:49:14Z</time>
 </trkpt>
 <trkpt lat="47.609646" lon="13.140966">
 <ele>485.12</ele>
 <time>2009-09-23T12:49:23Z</time>
 </trkpt>
 <trkpt lat="47.609314" lon="13.141183">
 <ele>484.64</ele>
 <time>2009-09-23T12:49:31Z</time>
 </trkpt>
 <trkpt lat="47.608994" lon="13.141394">
 <ele>484.16</ele>
 <time>2009-09-23T12:49:39Z</time>
 </trkpt>
 <trkpt lat="47.608749" lon="13.141579">
 <ele>483.68</ele>
 <time>2009-09-23T12:49:45Z</time>
 </trkpt>
 <trkpt lat="47.608383" lon="13.141897">
 <ele>483.20</ele>
 <time>2009-09-23T12:49:53Z</time>
 </trkpt>
 <trkpt lat="47.607998" lon="13.142268">
 <ele>482.24</ele>
 <time>2009-09-23T12:50:00Z</time>
 </trkpt>
 <trkpt lat="47.607452" lon="13.142795">
 <ele>480.80</ele>
 <time>2009-09-23T12:50:09Z</time>
 </trkpt>
 <trkpt lat="47.607006" lon="13.143157">
 <ele>480.32</ele>
 <time>2009-09-23T12:50:16Z</time>
 </trkpt>
 <trkpt lat="47.606743" lon="13.143207">
 <ele>481.28</ele>
 <time>2009-09-23T12:50:20Z</time>
 </trkpt>
 <trkpt lat="47.606194" lon="13.143108">
 <ele>481.76</ele>
 <time>2009-09-23T12:50:29Z</time>
 </trkpt>
 <trkpt lat="47.605927" lon="13.143041">
 <ele>482.24</ele>
 <time>2009-09-23T12:50:34Z</time>
 </trkpt>
 <trkpt lat="47.605598" lon="13.142921">
 <ele>483.20</ele>
 <time>2009-09-23T12:50:41Z</time>
 </trkpt>
 <trkpt lat="47.605263" lon="13.142755">
 <ele>484.16</ele>
 <time>2009-09-23T12:50:48Z</time>
 </trkpt>
 <trkpt lat="47.604774" lon="13.142491">
 <ele>484.16</ele>
 <time>2009-09-23T12:50:58Z</time>
 </trkpt>
 <trkpt lat="47.604404" lon="13.142434">
 <ele>484.16</ele>
 <time>2009-09-23T12:51:05Z</time>
 </trkpt>
 <trkpt lat="47.604053" lon="13.142361">
 <ele>484.16</ele>
 <time>2009-09-23T12:51:12Z</time>
 </trkpt>
 <trkpt lat="47.604008" lon="13.142335">
 <ele>484.64</ele>
 <time>2009-09-23T12:51:13Z</time>
 </trkpt>
 <trkpt lat="47.603806" lon="13.142341">
 <ele>483.20</ele>
 <time>2009-09-23T12:51:17Z</time>
 </trkpt>
 <trkpt lat="47.603634" lon="13.142471">
 <ele>481.76</ele>
 <time>2009-09-23T12:51:20Z</time>
 </trkpt>
 <trkpt lat="47.603504" lon="13.142589">
 <ele>479.84</ele>
 <time>2009-09-23T12:51:22Z</time>
 </trkpt>
 <trkpt lat="47.603203" lon="13.143055">
 <ele>476.95</ele>
 <time>2009-09-23T12:51:27Z</time>
 </trkpt>
 <trkpt lat="47.603096" lon="13.143254">
 <ele>475.99</ele>
 <time>2009-09-23T12:51:29Z</time>
 </trkpt>
 <trkpt lat="47.602856" lon="13.143514">
 <ele>475.99</ele>
 <time>2009-09-23T12:51:33Z</time>
 </trkpt>
 <trkpt lat="47.602615" lon="13.143668">
 <ele>476.47</ele>
 <time>2009-09-23T12:51:37Z</time>
 </trkpt>
 <trkpt lat="47.602448" lon="13.143883">
 <ele>476.47</ele>
 <time>2009-09-23T12:51:41Z</time>
 </trkpt>
 <trkpt lat="47.602367" lon="13.144076">
 <ele>476.47</ele>
 <time>2009-09-23T12:51:44Z</time>
 </trkpt>
 <trkpt lat="47.602184" lon="13.144350">
 <ele>476.47</ele>
 <time>2009-09-23T12:51:49Z</time>
 </trkpt>
 <trkpt lat="47.601944" lon="13.144564">
 <ele>475.51</ele>
 <time>2009-09-23T12:51:54Z</time>
 </trkpt>
 <trkpt lat="47.601791" lon="13.144842">
 <ele>475.03</ele>
 <time>2009-09-23T12:51:58Z</time>
 </trkpt>
 <trkpt lat="47.601635" lon="13.145488">
 <ele>474.07</ele>
 <time>2009-09-23T12:52:05Z</time>
 </trkpt>
 <trkpt lat="47.601593" lon="13.146074">
 <ele>473.11</ele>
 <time>2009-09-23T12:52:11Z</time>
 </trkpt>
 <trkpt lat="47.601665" lon="13.146542">
 <ele>473.11</ele>
 <time>2009-09-23T12:52:16Z</time>
 </trkpt>
 <trkpt lat="47.601906" lon="13.147414">
 <ele>472.63</ele>
 <time>2009-09-23T12:52:26Z</time>
 </trkpt>
 <trkpt lat="47.602123" lon="13.148126">
 <ele>471.66</ele>
 <time>2009-09-23T12:52:34Z</time>
 </trkpt>
 <trkpt lat="47.602123" lon="13.148499">
 <ele>469.74</ele>
 <time>2009-09-23T12:52:38Z</time>
 </trkpt>
 <trkpt lat="47.601971" lon="13.148634">
 <ele>469.74</ele>
 <time>2009-09-23T12:52:41Z</time>
 </trkpt>
 <trkpt lat="47.601849" lon="13.148622">
 <ele>469.74</ele>
 <time>2009-09-23T12:52:43Z</time>
 </trkpt>
 <trkpt lat="47.601444" lon="13.148569">
 <ele>469.26</ele>
 <time>2009-09-23T12:52:50Z</time>
 </trkpt>
 <trkpt lat="47.601219" lon="13.148654">
 <ele>469.74</ele>
 <time>2009-09-23T12:52:54Z</time>
 </trkpt>
 <trkpt lat="47.600754" lon="13.148944">
 <ele>467.82</ele>
 <time>2009-09-23T12:53:02Z</time>
 </trkpt>
 <trkpt lat="47.600307" lon="13.149249">
 <ele>466.86</ele>
 <time>2009-09-23T12:53:09Z</time>
 </trkpt>
 <trkpt lat="47.599785" lon="13.149633">
 <ele>464.93</ele>
 <time>2009-09-23T12:53:17Z</time>
 </trkpt>
 <trkpt lat="47.599270" lon="13.150074">
 <ele>463.97</ele>
 <time>2009-09-23T12:53:25Z</time>
 </trkpt>
 <trkpt lat="47.599083" lon="13.150180">
 <ele>463.01</ele>
 <time>2009-09-23T12:53:28Z</time>
 </trkpt>
 <trkpt lat="47.598904" lon="13.150435">
 <ele>463.01</ele>
 <time>2009-09-23T12:53:32Z</time>
 </trkpt>
 <trkpt lat="47.598896" lon="13.151008">
 <ele>463.97</ele>
 <time>2009-09-23T12:53:38Z</time>
 </trkpt>
 <trkpt lat="47.598900" lon="13.151460">
 <ele>463.97</ele>
 <time>2009-09-23T12:53:44Z</time>
 </trkpt>
 <trkpt lat="47.598682" lon="13.152114">
 <ele>463.97</ele>
 <time>2009-09-23T12:53:53Z</time>
 </trkpt>
 <trkpt lat="47.598400" lon="13.152975">
 <ele>464.45</ele>
 <time>2009-09-23T12:54:05Z</time>
 </trkpt>
 <trkpt lat="47.598160" lon="13.153469">
 <ele>464.93</ele>
 <time>2009-09-23T12:54:13Z</time>
 </trkpt>
 <trkpt lat="47.597862" lon="13.153890">
 <ele>463.97</ele>
 <time>2009-09-23T12:54:21Z</time>
 </trkpt>
 <trkpt lat="47.597561" lon="13.154350">
 <ele>463.49</ele>
 <time>2009-09-23T12:54:29Z</time>
 </trkpt>
 <trkpt lat="47.597389" lon="13.154904">
 <ele>463.49</ele>
 <time>2009-09-23T12:54:36Z</time>
 </trkpt>
 <trkpt lat="47.597328" lon="13.155054">
 <ele>463.49</ele>
 <time>2009-09-23T12:54:38Z</time>
 </trkpt>
 <trkpt lat="47.597069" lon="13.155522">
 <ele>463.97</ele>
 <time>2009-09-23T12:54:45Z</time>
 </trkpt>
 <trkpt lat="47.596977" lon="13.155639">
 <ele>464.45</ele>
 <time>2009-09-23T12:54:47Z</time>
 </trkpt>
 <trkpt lat="47.596798" lon="13.155927">
 <ele>464.45</ele>
 <time>2009-09-23T12:54:53Z</time>
 </trkpt>
 <trkpt lat="47.596764" lon="13.155966">
 <ele>463.97</ele>
 <time>2009-09-23T12:54:55Z</time>
 </trkpt>
 <trkpt lat="47.596786" lon="13.156146">
 <ele>463.49</ele>
 <time>2009-09-23T12:55:00Z</time>
 </trkpt>
 <trkpt lat="47.596737" lon="13.156346">
 <ele>463.97</ele>
 <time>2009-09-23T12:55:04Z</time>
 </trkpt>
 <trkpt lat="47.596653" lon="13.156727">
 <ele>464.45</ele>
 <time>2009-09-23T12:55:10Z</time>
 </trkpt>
 <trkpt lat="47.596577" lon="13.157067">
 <ele>463.97</ele>
 <time>2009-09-23T12:55:15Z</time>
 </trkpt>
 <trkpt lat="47.596470" lon="13.157548">
 <ele>463.97</ele>
 <time>2009-09-23T12:55:22Z</time>
 </trkpt>
 <trkpt lat="47.596329" lon="13.158082">
 <ele>464.45</ele>
 <time>2009-09-23T12:55:30Z</time>
 </trkpt>
 <trkpt lat="47.596226" lon="13.158321">
 <ele>463.97</ele>
 <time>2009-09-23T12:55:34Z</time>
 </trkpt>
 <trkpt lat="47.595970" lon="13.158828">
 <ele>464.93</ele>
 <time>2009-09-23T12:55:43Z</time>
 </trkpt>
 <trkpt lat="47.595833" lon="13.159113">
 <ele>464.45</ele>
 <time>2009-09-23T12:55:48Z</time>
 </trkpt>
 <trkpt lat="47.595791" lon="13.159245">
 <ele>464.45</ele>
 <time>2009-09-23T12:55:50Z</time>
 </trkpt>
 <trkpt lat="47.595776" lon="13.159699">
 <ele>463.97</ele>
 <time>2009-09-23T12:55:56Z</time>
 </trkpt>
 <trkpt lat="47.595825" lon="13.159918">
 <ele>464.93</ele>
 <time>2009-09-23T12:55:59Z</time>
 </trkpt>
 <trkpt lat="47.596054" lon="13.160387">
 <ele>465.42</ele>
 <time>2009-09-23T12:56:06Z</time>
 </trkpt>
 <trkpt lat="47.596119" lon="13.160503">
 <ele>464.45</ele>
 <time>2009-09-23T12:56:08Z</time>
 </trkpt>
 <trkpt lat="47.596340" lon="13.160845">
 <ele>464.93</ele>
 <time>2009-09-23T12:56:14Z</time>
 </trkpt>
 <trkpt lat="47.596676" lon="13.161285">
 <ele>464.45</ele>
 <time>2009-09-23T12:56:22Z</time>
 </trkpt>
 <trkpt lat="47.596752" lon="13.161562">
 <ele>463.97</ele>
 <time>2009-09-23T12:56:26Z</time>
 </trkpt>
 <trkpt lat="47.596748" lon="13.161637">
 <ele>464.45</ele>
 <time>2009-09-23T12:56:27Z</time>
 </trkpt>
 <trkpt lat="47.596710" lon="13.161842">
 <ele>464.45</ele>
 <time>2009-09-23T12:56:30Z</time>
 </trkpt>
 <trkpt lat="47.596512" lon="13.162177">
 <ele>464.45</ele>
 <time>2009-09-23T12:56:35Z</time>
 </trkpt>
 <trkpt lat="47.596489" lon="13.162258">
 <ele>464.93</ele>
 <time>2009-09-23T12:56:36Z</time>
 </trkpt>
 <trkpt lat="47.596375" lon="13.162829">
 <ele>464.45</ele>
 <time>2009-09-23T12:56:44Z</time>
 </trkpt>
 <trkpt lat="47.596355" lon="13.163150">
 <ele>464.45</ele>
 <time>2009-09-23T12:56:50Z</time>
 </trkpt>
 <trkpt lat="47.596375" lon="13.163343">
 <ele>464.93</ele>
 <time>2009-09-23T12:56:56Z</time>
 </trkpt>
 <trkpt lat="47.596416" lon="13.163607">
 <ele>465.90</ele>
 <time>2009-09-23T12:57:01Z</time>
 </trkpt>
 <trkpt lat="47.596439" lon="13.163950">
 <ele>466.38</ele>
 <time>2009-09-23T12:57:07Z</time>
 </trkpt>
 <trkpt lat="47.596485" lon="13.164547">
 <ele>465.90</ele>
 <time>2009-09-23T12:57:16Z</time>
 </trkpt>
 <trkpt lat="47.596539" lon="13.165074">
 <ele>464.45</ele>
 <time>2009-09-23T12:57:23Z</time>
 </trkpt>
 <trkpt lat="47.596573" lon="13.165290">
 <ele>463.97</ele>
 <time>2009-09-23T12:57:27Z</time>
 </trkpt>
 <trkpt lat="47.596581" lon="13.165359">
 <ele>463.97</ele>
 <time>2009-09-23T12:57:30Z</time>
 </trkpt>
 <trkpt lat="47.596478" lon="13.165442">
 <ele>463.49</ele>
 <time>2009-09-23T12:57:35Z</time>
 </trkpt>
 <trkpt lat="47.596176" lon="13.165420">
 <ele>463.49</ele>
 <time>2009-09-23T12:57:42Z</time>
 </trkpt>
 <trkpt lat="47.595852" lon="13.165346">
 <ele>463.49</ele>
 <time>2009-09-23T12:57:50Z</time>
 </trkpt>
 <trkpt lat="47.595520" lon="13.165247">
 <ele>463.49</ele>
 <time>2009-09-23T12:57:58Z</time>
 </trkpt>
 <trkpt lat="47.595284" lon="13.165192">
 <ele>463.97</ele>
 <time>2009-09-23T12:58:04Z</time>
 </trkpt>
 <trkpt lat="47.595222" lon="13.165178">
 <ele>463.97</ele>
 <time>2009-09-23T12:58:06Z</time>
 </trkpt>
 <trkpt lat="47.594975" lon="13.165109">
 <ele>465.42</ele>
 <time>2009-09-23T12:58:13Z</time>
 </trkpt>
 <trkpt lat="47.594654" lon="13.165089">
 <ele>464.93</ele>
 <time>2009-09-23T12:58:20Z</time>
 </trkpt>
 <trkpt lat="47.594276" lon="13.165092">
 <ele>464.45</ele>
 <time>2009-09-23T12:58:28Z</time>
 </trkpt>
 <trkpt lat="47.593845" lon="13.165087">
 <ele>464.45</ele>
 <time>2009-09-23T12:58:37Z</time>
 </trkpt>
 <trkpt lat="47.593426" lon="13.165011">
 <ele>464.45</ele>
 <time>2009-09-23T12:58:46Z</time>
 </trkpt>
 <trkpt lat="47.593033" lon="13.164855">
 <ele>464.45</ele>
 <time>2009-09-23T12:58:54Z</time>
 </trkpt>
 <trkpt lat="47.592697" lon="13.164707">
 <ele>464.45</ele>
 <time>2009-09-23T12:59:01Z</time>
 </trkpt>
 <trkpt lat="47.592564" lon="13.164683">
 <ele>464.45</ele>
 <time>2009-09-23T12:59:04Z</time>
 </trkpt>
 <trkpt lat="47.592468" lon="13.164851">
 <ele>464.45</ele>
 <time>2009-09-23T12:59:08Z</time>
 </trkpt>
 <trkpt lat="47.592430" lon="13.165209">
 <ele>463.97</ele>
 <time>2009-09-23T12:59:13Z</time>
 </trkpt>
 <trkpt lat="47.592350" lon="13.165949">
 <ele>464.45</ele>
 <time>2009-09-23T12:59:23Z</time>
 </trkpt>
 <trkpt lat="47.592297" lon="13.166452">
 <ele>465.42</ele>
 <time>2009-09-23T12:59:30Z</time>
 </trkpt>
 <trkpt lat="47.592247" lon="13.166779">
 <ele>465.42</ele>
 <time>2009-09-23T12:59:35Z</time>
 </trkpt>
 <trkpt lat="47.592209" lon="13.167059">
 <ele>464.45</ele>
 <time>2009-09-23T12:59:39Z</time>
 </trkpt>
 <trkpt lat="47.592144" lon="13.167461">
 <ele>465.42</ele>
 <time>2009-09-23T12:59:46Z</time>
 </trkpt>
 <trkpt lat="47.592159" lon="13.167890">
 <ele>465.42</ele>
 <time>2009-09-23T12:59:53Z</time>
 </trkpt>
 <trkpt lat="47.592167" lon="13.168398">
 <ele>464.93</ele>
 <time>2009-09-23T13:00:01Z</time>
 </trkpt>
 <trkpt lat="47.592072" lon="13.168545">
 <ele>464.93</ele>
 <time>2009-09-23T13:00:05Z</time>
 </trkpt>
 <trkpt lat="47.591988" lon="13.168518">
 <ele>465.42</ele>
 <time>2009-09-23T13:00:07Z</time>
 </trkpt>
 <trkpt lat="47.591702" lon="13.168386">
 <ele>464.93</ele>
 <time>2009-09-23T13:00:14Z</time>
 </trkpt>
 <trkpt lat="47.591545" lon="13.168327">
 <ele>464.93</ele>
 <time>2009-09-23T13:00:18Z</time>
 </trkpt>
 <trkpt lat="47.591438" lon="13.168328">
 <ele>464.93</ele>
 <time>2009-09-23T13:00:21Z</time>
 </trkpt>
 <trkpt lat="47.591354" lon="13.168319">
 <ele>465.42</ele>
 <time>2009-09-23T13:00:25Z</time>
 </trkpt>
 <trkpt lat="47.591209" lon="13.168291">
 <ele>464.93</ele>
 <time>2009-09-23T13:00:31Z</time>
 </trkpt>
 <trkpt lat="47.591022" lon="13.168274">
 <ele>464.93</ele>
 <time>2009-09-23T13:00:36Z</time>
 </trkpt>
 <trkpt lat="47.590752" lon="13.168257">
 <ele>465.42</ele>
 <time>2009-09-23T13:00:42Z</time>
 </trkpt>
 <trkpt lat="47.590450" lon="13.168289">
 <ele>465.90</ele>
 <time>2009-09-23T13:00:49Z</time>
 </trkpt>
 <trkpt lat="47.590275" lon="13.168342">
 <ele>465.90</ele>
 <time>2009-09-23T13:00:53Z</time>
 </trkpt>
 <trkpt lat="47.590054" lon="13.168288">
 <ele>465.90</ele>
 <time>2009-09-23T13:00:58Z</time>
 </trkpt>
 <trkpt lat="47.590012" lon="13.168260">
 <ele>465.90</ele>
 <time>2009-09-23T13:00:59Z</time>
 </trkpt>
 <trkpt lat="47.589592" lon="13.167927">
 <ele>466.38</ele>
 <time>2009-09-23T13:01:09Z</time>
 </trkpt>
 <trkpt lat="47.589333" lon="13.167719">
 <ele>466.38</ele>
 <time>2009-09-23T13:01:15Z</time>
 </trkpt>
 <trkpt lat="47.589146" lon="13.167485">
 <ele>466.38</ele>
 <time>2009-09-23T13:01:20Z</time>
 </trkpt>
 <trkpt lat="47.588913" lon="13.167188">
 <ele>466.86</ele>
 <time>2009-09-23T13:01:26Z</time>
 </trkpt>
 <trkpt lat="47.588718" lon="13.166894">
 <ele>466.38</ele>
 <time>2009-09-23T13:01:32Z</time>
 </trkpt>
 <trkpt lat="47.588684" lon="13.166845">
 <ele>466.38</ele>
 <time>2009-09-23T13:01:33Z</time>
 </trkpt>
 <trkpt lat="47.588512" lon="13.166798">
 <ele>466.38</ele>
 <time>2009-09-23T13:01:37Z</time>
 </trkpt>
 <trkpt lat="47.588291" lon="13.166890">
 <ele>469.26</ele>
 <time>2009-09-23T13:01:43Z</time>
 </trkpt>
 <trkpt lat="47.588112" lon="13.167027">
 <ele>470.70</ele>
 <time>2009-09-23T13:01:50Z</time>
 </trkpt>
 <trkpt lat="47.588001" lon="13.167132">
 <ele>471.18</ele>
 <time>2009-09-23T13:01:55Z</time>
 </trkpt>
 <trkpt lat="47.587818" lon="13.167228">
 <ele>471.18</ele>
 <time>2009-09-23T13:02:00Z</time>
 </trkpt>
 <trkpt lat="47.587776" lon="13.167249">
 <ele>471.18</ele>
 <time>2009-09-23T13:02:01Z</time>
 </trkpt>
 <trkpt lat="47.587536" lon="13.167423">
 <ele>470.70</ele>
 <time>2009-09-23T13:02:07Z</time>
 </trkpt>
 <trkpt lat="47.587330" lon="13.167593">
 <ele>470.22</ele>
 <time>2009-09-23T13:02:13Z</time>
 </trkpt>
 <trkpt lat="47.587284" lon="13.168037">
 <ele>469.26</ele>
 <time>2009-09-23T13:02:19Z</time>
 </trkpt>
 <trkpt lat="47.587265" lon="13.168340">
 <ele>469.74</ele>
 <time>2009-09-23T13:02:23Z</time>
 </trkpt>
 <trkpt lat="47.587238" lon="13.168562">
 <ele>469.74</ele>
 <time>2009-09-23T13:02:26Z</time>
 </trkpt>
 <trkpt lat="47.587112" lon="13.168983">
 <ele>470.22</ele>
 <time>2009-09-23T13:02:32Z</time>
 </trkpt>
 <trkpt lat="47.586735" lon="13.169753">
 <ele>469.74</ele>
 <time>2009-09-23T13:02:44Z</time>
 </trkpt>
 <trkpt lat="47.586540" lon="13.170116">
 <ele>469.74</ele>
 <time>2009-09-23T13:02:50Z</time>
 </trkpt>
 <trkpt lat="47.586250" lon="13.170549">
 <ele>470.22</ele>
 <time>2009-09-23T13:02:58Z</time>
 </trkpt>
 <trkpt lat="47.586029" lon="13.170864">
 <ele>469.74</ele>
 <time>2009-09-23T13:03:04Z</time>
 </trkpt>
 <trkpt lat="47.585968" lon="13.171221">
 <ele>470.70</ele>
 <time>2009-09-23T13:03:09Z</time>
 </trkpt>
 <trkpt lat="47.586044" lon="13.171844">
 <ele>470.70</ele>
 <time>2009-09-23T13:03:17Z</time>
 </trkpt>
 <trkpt lat="47.586102" lon="13.172613">
 <ele>470.70</ele>
 <time>2009-09-23T13:03:27Z</time>
 </trkpt>
 <trkpt lat="47.586159" lon="13.173203">
 <ele>471.18</ele>
 <time>2009-09-23T13:03:35Z</time>
 </trkpt>
 <trkpt lat="47.586189" lon="13.173411">
 <ele>470.70</ele>
 <time>2009-09-23T13:03:38Z</time>
 </trkpt>
 <trkpt lat="47.586193" lon="13.173536">
 <ele>471.18</ele>
 <time>2009-09-23T13:03:40Z</time>
 </trkpt>
 <trkpt lat="47.586269" lon="13.174051">
 <ele>470.22</ele>
 <time>2009-09-23T13:03:48Z</time>
 </trkpt>
 <trkpt lat="47.586277" lon="13.174725">
 <ele>471.66</ele>
 <time>2009-09-23T13:03:58Z</time>
 </trkpt>
 <trkpt lat="47.586262" lon="13.175363">
 <ele>471.66</ele>
 <time>2009-09-23T13:04:07Z</time>
 </trkpt>
 <trkpt lat="47.586239" lon="13.175933">
 <ele>471.66</ele>
 <time>2009-09-23T13:04:15Z</time>
 </trkpt>
 <trkpt lat="47.586246" lon="13.176069">
 <ele>472.14</ele>
 <time>2009-09-23T13:04:17Z</time>
 </trkpt>
 <trkpt lat="47.586323" lon="13.176346">
 <ele>471.66</ele>
 <time>2009-09-23T13:04:22Z</time>
 </trkpt>
 <trkpt lat="47.586479" lon="13.176785">
 <ele>470.22</ele>
 <time>2009-09-23T13:04:29Z</time>
 </trkpt>
 <trkpt lat="47.586666" lon="13.177175">
 <ele>470.22</ele>
 <time>2009-09-23T13:04:35Z</time>
 </trkpt>
 <trkpt lat="47.586704" lon="13.177301">
 <ele>470.22</ele>
 <time>2009-09-23T13:04:37Z</time>
 </trkpt>
 <trkpt lat="47.586704" lon="13.177600">
 <ele>471.18</ele>
 <time>2009-09-23T13:04:42Z</time>
 </trkpt>
 <trkpt lat="47.586689" lon="13.177655">
 <ele>471.66</ele>
 <time>2009-09-23T13:04:43Z</time>
 </trkpt>
 <trkpt lat="47.586586" lon="13.178092">
 <ele>472.63</ele>
 <time>2009-09-23T13:04:51Z</time>
 </trkpt>
 <trkpt lat="47.586670" lon="13.178355">
 <ele>472.63</ele>
 <time>2009-09-23T13:04:56Z</time>
 </trkpt>
 <trkpt lat="47.586887" lon="13.178761">
 <ele>473.59</ele>
 <time>2009-09-23T13:05:05Z</time>
 </trkpt>
 <trkpt lat="47.587040" lon="13.179072">
 <ele>474.55</ele>
 <time>2009-09-23T13:05:12Z</time>
 </trkpt>
 <trkpt lat="47.586971" lon="13.179214">
 <ele>474.55</ele>
 <time>2009-09-23T13:05:16Z</time>
 </trkpt>
 <trkpt lat="47.586906" lon="13.179276">
 <ele>474.55</ele>
 <time>2009-09-23T13:05:18Z</time>
 </trkpt>
 <trkpt lat="47.586605" lon="13.179545">
 <ele>474.55</ele>
 <time>2009-09-23T13:05:26Z</time>
 </trkpt>
 <trkpt lat="47.586201" lon="13.179910">
 <ele>475.51</ele>
 <time>2009-09-23T13:05:37Z</time>
 </trkpt>
 <trkpt lat="47.585857" lon="13.180298">
 <ele>475.51</ele>
 <time>2009-09-23T13:05:47Z</time>
 </trkpt>
 <trkpt lat="47.585594" lon="13.180693">
 <ele>475.99</ele>
 <time>2009-09-23T13:05:55Z</time>
 </trkpt>
 <trkpt lat="47.585293" lon="13.181182">
 <ele>475.99</ele>
 <time>2009-09-23T13:06:05Z</time>
 </trkpt>
 <trkpt lat="47.585083" lon="13.181452">
 <ele>475.99</ele>
 <time>2009-09-23T13:06:12Z</time>
 </trkpt>
 <trkpt lat="47.584747" lon="13.181811">
 <ele>476.47</ele>
 <time>2009-09-23T13:06:22Z</time>
 </trkpt>
 <trkpt lat="47.584446" lon="13.182055">
 <ele>475.99</ele>
 <time>2009-09-23T13:06:30Z</time>
 </trkpt>
 <trkpt lat="47.584003" lon="13.182290">
 <ele>476.47</ele>
 <time>2009-09-23T13:06:41Z</time>
 </trkpt>
 <trkpt lat="47.583584" lon="13.182417">
 <ele>477.43</ele>
 <time>2009-09-23T13:06:51Z</time>
 </trkpt>
 <trkpt lat="47.583122" lon="13.182468">
 <ele>477.91</ele>
 <time>2009-09-23T13:07:02Z</time>
 </trkpt>
 <trkpt lat="47.582809" lon="13.182471">
 <ele>478.87</ele>
 <time>2009-09-23T13:07:10Z</time>
 </trkpt>
 <trkpt lat="47.582588" lon="13.182504">
 <ele>480.32</ele>
 <time>2009-09-23T13:07:18Z</time>
 </trkpt>
 <trkpt lat="47.582375" lon="13.182536">
 <ele>481.28</ele>
 <time>2009-09-23T13:07:26Z</time>
 </trkpt>
 <trkpt lat="47.582146" lon="13.182619">
 <ele>482.24</ele>
 <time>2009-09-23T13:07:35Z</time>
 </trkpt>
 <trkpt lat="47.582058" lon="13.182657">
 <ele>482.72</ele>
 <time>2009-09-23T13:07:39Z</time>
 </trkpt>
 <trkpt lat="47.581871" lon="13.182780">
 <ele>483.68</ele>
 <time>2009-09-23T13:07:48Z</time>
 </trkpt>
 <trkpt lat="47.581696" lon="13.182954">
 <ele>484.64</ele>
 <time>2009-09-23T13:07:58Z</time>
 </trkpt>
 <trkpt lat="47.581551" lon="13.183124">
 <ele>485.60</ele>
 <time>2009-09-23T13:08:07Z</time>
 </trkpt>
 <trkpt lat="47.581432" lon="13.183289">
 <ele>486.56</ele>
 <time>2009-09-23T13:08:15Z</time>
 </trkpt>
 <trkpt lat="47.581379" lon="13.183377">
 <ele>487.53</ele>
 <time>2009-09-23T13:08:19Z</time>
 </trkpt>
 <trkpt lat="47.581352" lon="13.183512">
 <ele>488.01</ele>
 <time>2009-09-23T13:08:24Z</time>
 </trkpt>
 <trkpt lat="47.581326" lon="13.183591">
 <ele>488.49</ele>
 <time>2009-09-23T13:08:27Z</time>
 </trkpt>
 <trkpt lat="47.581268" lon="13.183748">
 <ele>489.45</ele>
 <time>2009-09-23T13:08:33Z</time>
 </trkpt>
 <trkpt lat="47.581219" lon="13.183894">
 <ele>489.93</ele>
 <time>2009-09-23T13:08:38Z</time>
 </trkpt>
 <trkpt lat="47.581192" lon="13.184114">
 <ele>491.37</ele>
 <time>2009-09-23T13:08:45Z</time>
 </trkpt>
 <trkpt lat="47.581139" lon="13.184315">
 <ele>492.81</ele>
 <time>2009-09-23T13:08:52Z</time>
 </trkpt>
 <trkpt lat="47.581081" lon="13.184489">
 <ele>493.77</ele>
 <time>2009-09-23T13:08:58Z</time>
 </trkpt>
 <trkpt lat="47.581017" lon="13.184679">
 <ele>493.77</ele>
 <time>2009-09-23T13:09:05Z</time>
 </trkpt>
 <trkpt lat="47.580978" lon="13.184959">
 <ele>495.22</ele>
 <time>2009-09-23T13:09:14Z</time>
 </trkpt>
 <trkpt lat="47.580986" lon="13.184993">
 <ele>496.18</ele>
 <time>2009-09-23T13:09:15Z</time>
 </trkpt>
 <trkpt lat="47.580925" lon="13.185168">
 <ele>496.18</ele>
 <time>2009-09-23T13:09:22Z</time>
 </trkpt>
 <trkpt lat="47.580875" lon="13.185426">
 <ele>497.62</ele>
 <time>2009-09-23T13:09:31Z</time>
 </trkpt>
 <trkpt lat="47.580818" lon="13.185648">
 <ele>499.54</ele>
 <time>2009-09-23T13:09:39Z</time>
 </trkpt>
 <trkpt lat="47.580761" lon="13.185848">
 <ele>500.02</ele>
 <time>2009-09-23T13:09:47Z</time>
 </trkpt>
 <trkpt lat="47.580734" lon="13.186058">
 <ele>500.50</ele>
 <time>2009-09-23T13:09:55Z</time>
 </trkpt>
 <trkpt lat="47.580746" lon="13.186233">
 <ele>501.95</ele>
 <time>2009-09-23T13:10:01Z</time>
 </trkpt>
 <trkpt lat="47.580776" lon="13.186416">
 <ele>503.39</ele>
 <time>2009-09-23T13:10:07Z</time>
 </trkpt>
 <trkpt lat="47.580864" lon="13.186636">
 <ele>504.83</ele>
 <time>2009-09-23T13:10:13Z</time>
 </trkpt>
 <trkpt lat="47.580875" lon="13.186798">
 <ele>505.31</ele>
 <time>2009-09-23T13:10:19Z</time>
 </trkpt>
 <trkpt lat="47.580826" lon="13.186881">
 <ele>505.79</ele>
 <time>2009-09-23T13:10:23Z</time>
 </trkpt>
 <trkpt lat="47.580723" lon="13.187060">
 <ele>505.79</ele>
 <time>2009-09-23T13:10:31Z</time>
 </trkpt>
 <trkpt lat="47.580704" lon="13.187133">
 <ele>506.27</ele>
 <time>2009-09-23T13:10:34Z</time>
 </trkpt>
 <trkpt lat="47.580593" lon="13.187258">
 <ele>507.23</ele>
 <time>2009-09-23T13:10:41Z</time>
 </trkpt>
 <trkpt lat="47.580574" lon="13.187277">
 <ele>507.71</ele>
 <time>2009-09-23T13:10:42Z</time>
 </trkpt>
 <trkpt lat="47.580563" lon="13.187323">
 <ele>508.67</ele>
 <time>2009-09-23T13:10:44Z</time>
 </trkpt>
 <trkpt lat="47.580494" lon="13.187449">
 <ele>510.12</ele>
 <time>2009-09-23T13:10:50Z</time>
 </trkpt>
 <trkpt lat="47.580368" lon="13.187627">
 <ele>510.60</ele>
 <time>2009-09-23T13:10:59Z</time>
 </trkpt>
 <trkpt lat="47.580265" lon="13.187754">
 <ele>511.08</ele>
 <time>2009-09-23T13:11:06Z</time>
 </trkpt>
 <trkpt lat="47.580162" lon="13.187942">
 <ele>512.52</ele>
 <time>2009-09-23T13:11:15Z</time>
 </trkpt>
 <trkpt lat="47.580124" lon="13.188071">
 <ele>513.48</ele>
 <time>2009-09-23T13:11:21Z</time>
 </trkpt>
 <trkpt lat="47.580006" lon="13.188233">
 <ele>514.44</ele>
 <time>2009-09-23T13:11:29Z</time>
 </trkpt>
 <trkpt lat="47.579922" lon="13.188389">
 <ele>514.92</ele>
 <time>2009-09-23T13:11:36Z</time>
 </trkpt>
 <trkpt lat="47.579807" lon="13.188519">
 <ele>516.37</ele>
 <time>2009-09-23T13:11:43Z</time>
 </trkpt>
 <trkpt lat="47.579735" lon="13.188670">
 <ele>517.81</ele>
 <time>2009-09-23T13:11:50Z</time>
 </trkpt>
 <trkpt lat="47.579762" lon="13.188836">
 <ele>518.29</ele>
 <time>2009-09-23T13:11:56Z</time>
 </trkpt>
 <trkpt lat="47.579765" lon="13.189134">
 <ele>519.25</ele>
 <time>2009-09-23T13:12:06Z</time>
 </trkpt>
 <trkpt lat="47.579754" lon="13.189210">
 <ele>520.69</ele>
 <time>2009-09-23T13:12:09Z</time>
 </trkpt>
 <trkpt lat="47.579685" lon="13.189369">
 <ele>522.13</ele>
 <time>2009-09-23T13:12:16Z</time>
 </trkpt>
 <trkpt lat="47.579559" lon="13.189529">
 <ele>523.09</ele>
 <time>2009-09-23T13:12:24Z</time>
 </trkpt>
 <trkpt lat="47.579456" lon="13.189669">
 <ele>524.06</ele>
 <time>2009-09-23T13:12:31Z</time>
 </trkpt>
 <trkpt lat="47.579403" lon="13.189816">
 <ele>525.02</ele>
 <time>2009-09-23T13:12:37Z</time>
 </trkpt>
 <trkpt lat="47.579346" lon="13.189919">
 <ele>525.98</ele>
 <time>2009-09-23T13:12:42Z</time>
 </trkpt>
 <trkpt lat="47.579353" lon="13.189950">
 <ele>525.98</ele>
 <time>2009-09-23T13:12:43Z</time>
 </trkpt>
 <trkpt lat="47.579220" lon="13.190136">
 <ele>527.42</ele>
 <time>2009-09-23T13:12:52Z</time>
 </trkpt>
 <trkpt lat="47.579163" lon="13.190307">
 <ele>528.38</ele>
 <time>2009-09-23T13:12:59Z</time>
 </trkpt>
 <trkpt lat="47.579117" lon="13.190446">
 <ele>529.34</ele>
 <time>2009-09-23T13:13:05Z</time>
 </trkpt>
 <trkpt lat="47.579052" lon="13.190521">
 <ele>530.30</ele>
 <time>2009-09-23T13:13:09Z</time>
 </trkpt>
 <trkpt lat="47.579079" lon="13.190647">
 <ele>529.82</ele>
 <time>2009-09-23T13:13:13Z</time>
 </trkpt>
 <trkpt lat="47.578968" lon="13.190785">
 <ele>531.27</ele>
 <time>2009-09-23T13:13:20Z</time>
 </trkpt>
 <trkpt lat="47.578819" lon="13.190909">
 <ele>531.75</ele>
 <time>2009-09-23T13:13:27Z</time>
 </trkpt>
 <trkpt lat="47.578720" lon="13.191064">
 <ele>532.71</ele>
 <time>2009-09-23T13:13:34Z</time>
 </trkpt>
 <trkpt lat="47.578701" lon="13.191107">
 <ele>533.67</ele>
 <time>2009-09-23T13:13:36Z</time>
 </trkpt>
 <trkpt lat="47.578625" lon="13.191243">
 <ele>534.15</ele>
 <time>2009-09-23T13:13:42Z</time>
 </trkpt>
 <trkpt lat="47.578590" lon="13.191359">
 <ele>534.63</ele>
 <time>2009-09-23T13:13:47Z</time>
 </trkpt>
 <trkpt lat="47.578480" lon="13.191454">
 <ele>535.59</ele>
 <time>2009-09-23T13:13:53Z</time>
 </trkpt>
 <trkpt lat="47.578384" lon="13.191634">
 <ele>536.55</ele>
 <time>2009-09-23T13:14:01Z</time>
 </trkpt>
 <trkpt lat="47.578312" lon="13.191802">
 <ele>537.99</ele>
 <time>2009-09-23T13:14:08Z</time>
 </trkpt>
 <trkpt lat="47.578323" lon="13.191998">
 <ele>538.96</ele>
 <time>2009-09-23T13:14:14Z</time>
 </trkpt>
 <trkpt lat="47.578320" lon="13.192141">
 <ele>539.92</ele>
 <time>2009-09-23T13:14:19Z</time>
 </trkpt>
 <trkpt lat="47.578312" lon="13.192164">
 <ele>540.40</ele>
 <time>2009-09-23T13:14:20Z</time>
 </trkpt>
 <trkpt lat="47.578213" lon="13.192308">
 <ele>540.40</ele>
 <time>2009-09-23T13:14:27Z</time>
 </trkpt>
 <trkpt lat="47.578213" lon="13.192335">
 <ele>540.40</ele>
 <time>2009-09-23T13:14:28Z</time>
 </trkpt>
 <trkpt lat="47.578121" lon="13.192522">
 <ele>541.84</ele>
 <time>2009-09-23T13:14:36Z</time>
 </trkpt>
 <trkpt lat="47.578114" lon="13.192546">
 <ele>542.32</ele>
 <time>2009-09-23T13:14:37Z</time>
 </trkpt>
 <trkpt lat="47.578064" lon="13.192771">
 <ele>542.80</ele>
 <time>2009-09-23T13:14:45Z</time>
 </trkpt>
 <trkpt lat="47.578064" lon="13.192945">
 <ele>543.76</ele>
 <time>2009-09-23T13:14:51Z</time>
 </trkpt>
 <trkpt lat="47.578049" lon="13.193173">
 <ele>545.20</ele>
 <time>2009-09-23T13:14:58Z</time>
 </trkpt>
 <trkpt lat="47.578075" lon="13.193429">
 <ele>546.17</ele>
 <time>2009-09-23T13:15:05Z</time>
 </trkpt>
 <trkpt lat="47.577942" lon="13.193601">
 <ele>546.65</ele>
 <time>2009-09-23T13:15:12Z</time>
 </trkpt>
 <trkpt lat="47.577709" lon="13.193766">
 <ele>547.61</ele>
 <time>2009-09-23T13:15:20Z</time>
 </trkpt>
 <trkpt lat="47.577538" lon="13.193914">
 <ele>547.61</ele>
 <time>2009-09-23T13:15:27Z</time>
 </trkpt>
 <trkpt lat="47.577335" lon="13.194043">
 <ele>548.57</ele>
 <time>2009-09-23T13:15:34Z</time>
 </trkpt>
 <trkpt lat="47.577240" lon="13.194205">
 <ele>549.53</ele>
 <time>2009-09-23T13:15:40Z</time>
 </trkpt>
 <trkpt lat="47.577141" lon="13.194411">
 <ele>549.53</ele>
 <time>2009-09-23T13:15:46Z</time>
 </trkpt>
 <trkpt lat="47.577034" lon="13.194598">
 <ele>549.53</ele>
 <time>2009-09-23T13:15:51Z</time>
 </trkpt>
 <trkpt lat="47.577011" lon="13.194634">
 <ele>549.05</ele>
 <time>2009-09-23T13:15:53Z</time>
 </trkpt>
 <trkpt lat="47.577019" lon="13.194640">
 <ele>550.01</ele>
 <time>2009-09-23T13:15:55Z</time>
 </trkpt>
 <trkpt lat="47.577126" lon="13.194644">
 <ele>549.53</ele>
 <time>2009-09-23T13:16:00Z</time>
 </trkpt>
 <trkpt lat="47.577152" lon="13.194649">
 <ele>550.49</ele>
 <time>2009-09-23T13:16:05Z</time>
 </trkpt>
 <trkpt lat="47.577244" lon="13.194581">
 <ele>550.49</ele>
 <time>2009-09-23T13:16:16Z</time>
 </trkpt>
 <trkpt lat="47.577320" lon="13.194526">
 <ele>549.53</ele>
 <time>2009-09-23T13:16:25Z</time>
 </trkpt>
 <trkpt lat="47.575504" lon="13.194403">
 <ele>549.53</ele>
 <time>2009-09-23T13:16:31Z</time>
 </trkpt>
 <trkpt lat="47.575474" lon="13.194524">
 <ele>549.53</ele>
 <time>2009-09-23T13:16:36Z</time>
 </trkpt>
 <trkpt lat="47.575424" lon="13.194571">
 <ele>549.05</ele>
 <time>2009-09-23T13:16:41Z</time>
 </trkpt>
 <trkpt lat="47.575424" lon="13.194571">
 <ele>549.53</ele>
 <time>2009-09-23T13:16:44Z</time>
 </trkpt>
 <trkpt lat="47.575062" lon="13.194724">
 <ele>550.49</ele>
 <time>2009-09-23T13:22:04Z</time>
 </trkpt>
 <trkpt lat="47.575012" lon="13.194774">
 <ele>550.01</ele>
 <time>2009-09-23T13:22:05Z</time>
 </trkpt>
 <trkpt lat="47.574940" lon="13.194807">
 <ele>549.05</ele>
 <time>2009-09-23T13:22:07Z</time>
 </trkpt>
 <trkpt lat="47.574696" lon="13.194862">
 <ele>548.09</ele>
 <time>2009-09-23T13:22:12Z</time>
 </trkpt>
 <trkpt lat="47.574432" lon="13.194896">
 <ele>546.65</ele>
 <time>2009-09-23T13:22:16Z</time>
 </trkpt>
 <trkpt lat="47.574116" lon="13.194873">
 <ele>545.20</ele>
 <time>2009-09-23T13:22:20Z</time>
 </trkpt>
 <trkpt lat="47.573673" lon="13.194710">
 <ele>540.88</ele>
 <time>2009-09-23T13:22:25Z</time>
 </trkpt>
 <trkpt lat="47.573338" lon="13.194426">
 <ele>538.48</ele>
 <time>2009-09-23T13:22:29Z</time>
 </trkpt>
 <trkpt lat="47.573090" lon="13.194097">
 <ele>535.59</ele>
 <time>2009-09-23T13:22:32Z</time>
 </trkpt>
 <trkpt lat="47.572945" lon="13.193826">
 <ele>534.15</ele>
 <time>2009-09-23T13:22:34Z</time>
 </trkpt>
 <trkpt lat="47.572815" lon="13.193517">
 <ele>532.23</ele>
 <time>2009-09-23T13:22:36Z</time>
 </trkpt>
 <trkpt lat="47.572704" lon="13.193177">
 <ele>529.82</ele>
 <time>2009-09-23T13:22:38Z</time>
 </trkpt>
 <trkpt lat="47.572662" lon="13.192674">
 <ele>528.38</ele>
 <time>2009-09-23T13:22:41Z</time>
 </trkpt>
 <trkpt lat="47.572617" lon="13.192313">
 <ele>525.02</ele>
 <time>2009-09-23T13:22:43Z</time>
 </trkpt>
 <trkpt lat="47.572544" lon="13.191767">
 <ele>521.65</ele>
 <time>2009-09-23T13:22:46Z</time>
 </trkpt>
 <trkpt lat="47.572502" lon="13.191585">
 <ele>520.69</ele>
 <time>2009-09-23T13:22:47Z</time>
 </trkpt>
 <trkpt lat="47.572456" lon="13.191403">
 <ele>520.21</ele>
 <time>2009-09-23T13:22:48Z</time>
 </trkpt>
 <trkpt lat="47.572258" lon="13.190719">
 <ele>515.88</ele>
 <time>2009-09-23T13:22:52Z</time>
 </trkpt>
 <trkpt lat="47.572147" lon="13.190411">
 <ele>514.44</ele>
 <time>2009-09-23T13:22:54Z</time>
 </trkpt>
 <trkpt lat="47.572086" lon="13.190268">
 <ele>513.48</ele>
 <time>2009-09-23T13:22:55Z</time>
 </trkpt>
 <trkpt lat="47.571735" lon="13.189883">
 <ele>509.64</ele>
 <time>2009-09-23T13:22:58Z</time>
 </trkpt>
 <trkpt lat="47.571632" lon="13.189773">
 <ele>509.16</ele>
 <time>2009-09-23T13:22:59Z</time>
 </trkpt>
 <trkpt lat="47.571308" lon="13.189471">
 <ele>504.83</ele>
 <time>2009-09-23T13:23:02Z</time>
 </trkpt>
 <trkpt lat="47.571198" lon="13.189370">
 <ele>504.83</ele>
 <time>2009-09-23T13:23:03Z</time>
 </trkpt>
 <trkpt lat="47.571075" lon="13.189264">
 <ele>503.87</ele>
 <time>2009-09-23T13:23:04Z</time>
 </trkpt>
 <trkpt lat="47.570698" lon="13.188928">
 <ele>501.95</ele>
 <time>2009-09-23T13:23:07Z</time>
 </trkpt>
 <trkpt lat="47.570305" lon="13.188361">
 <ele>500.02</ele>
 <time>2009-09-23T13:23:12Z</time>
 </trkpt>
 <trkpt lat="47.570107" lon="13.188027">
 <ele>499.06</ele>
 <time>2009-09-23T13:23:15Z</time>
 </trkpt>
 <trkpt lat="47.569767" lon="13.187424">
 <ele>498.10</ele>
 <time>2009-09-23T13:23:21Z</time>
 </trkpt>
 <trkpt lat="47.569614" lon="13.187054">
 <ele>498.10</ele>
 <time>2009-09-23T13:23:25Z</time>
 </trkpt>
 <trkpt lat="47.569283" lon="13.186412">
 <ele>497.62</ele>
 <time>2009-09-23T13:23:33Z</time>
 </trkpt>
 <trkpt lat="47.569153" lon="13.186110">
 <ele>497.62</ele>
 <time>2009-09-23T13:23:37Z</time>
 </trkpt>
 <trkpt lat="47.568846" lon="13.185942">
 <ele>498.10</ele>
 <time>2009-09-23T13:23:40Z</time>
 </trkpt>
 <trkpt lat="47.568457" lon="13.185556">
 <ele>498.58</ele>
 <time>2009-09-23T13:23:45Z</time>
 </trkpt>
 <trkpt lat="47.568248" lon="13.185098">
 <ele>499.06</ele>
 <time>2009-09-23T13:23:50Z</time>
 </trkpt>
 <trkpt lat="47.567992" lon="13.184575">
 <ele>498.58</ele>
 <time>2009-09-23T13:23:57Z</time>
 </trkpt>
 <trkpt lat="47.567715" lon="13.184119">
 <ele>498.10</ele>
 <time>2009-09-23T13:24:04Z</time>
 </trkpt>
 <trkpt lat="47.567685" lon="13.183655">
 <ele>498.58</ele>
 <time>2009-09-23T13:24:11Z</time>
 </trkpt>
 <trkpt lat="47.567587" lon="13.183193">
 <ele>498.10</ele>
 <time>2009-09-23T13:24:18Z</time>
 </trkpt>
 <trkpt lat="47.567536" lon="13.182763">
 <ele>498.58</ele>
 <time>2009-09-23T13:24:24Z</time>
 </trkpt>
 <trkpt lat="47.567462" lon="13.182400">
 <ele>498.10</ele>
 <time>2009-09-23T13:24:32Z</time>
 </trkpt>
 <trkpt lat="47.567415" lon="13.182268">
 <ele>498.10</ele>
 <time>2009-09-23T13:24:33Z</time>
 </trkpt>
 <trkpt lat="47.567162" lon="13.181911">
 <ele>498.58</ele>
 <time>2009-09-23T13:24:37Z</time>
 </trkpt>
 <trkpt lat="47.566905" lon="13.181289">
 <ele>498.58</ele>
 <time>2009-09-23T13:24:45Z</time>
 </trkpt>
 <trkpt lat="47.566374" lon="13.180443">
 <ele>500.02</ele>
 <time>2009-09-23T13:24:54Z</time>
 </trkpt>
 <trkpt lat="47.566077" lon="13.180121">
 <ele>500.02</ele>
 <time>2009-09-23T13:24:59Z</time>
 </trkpt>
 <trkpt lat="47.566029" lon="13.179692">
 <ele>499.54</ele>
 <time>2009-09-23T13:25:02Z</time>
 </trkpt>
 <trkpt lat="47.566048" lon="13.179465">
 <ele>499.54</ele>
 <time>2009-09-23T13:25:06Z</time>
 </trkpt>
 <trkpt lat="47.565994" lon="13.178965">
 <ele>500.02</ele>
 <time>2009-09-23T13:25:14Z</time>
 </trkpt>
 <trkpt lat="47.565857" lon="13.178506">
 <ele>500.02</ele>
 <time>2009-09-23T13:25:20Z</time>
 </trkpt>
 <trkpt lat="47.565628" lon="13.177750">
 <ele>499.54</ele>
 <time>2009-09-23T13:25:29Z</time>
 </trkpt>
 <trkpt lat="47.565594" lon="13.177660">
 <ele>499.06</ele>
 <time>2009-09-23T13:25:30Z</time>
 </trkpt>
 <trkpt lat="47.565300" lon="13.176804">
 <ele>499.06</ele>
 <time>2009-09-23T13:25:40Z</time>
 </trkpt>
 <trkpt lat="47.565170" lon="13.176078">
 <ele>499.06</ele>
 <time>2009-09-23T13:25:49Z</time>
 </trkpt>
 <trkpt lat="47.565109" lon="13.175529">
 <ele>499.54</ele>
 <time>2009-09-23T13:25:56Z</time>
 </trkpt>
 <trkpt lat="47.565094" lon="13.175373">
 <ele>499.06</ele>
 <time>2009-09-23T13:25:58Z</time>
 </trkpt>
 <trkpt lat="47.565079" lon="13.174985">
 <ele>499.54</ele>
 <time>2009-09-23T13:26:03Z</time>
 </trkpt>
 <trkpt lat="47.565048" lon="13.174683">
 <ele>499.54</ele>
 <time>2009-09-23T13:26:07Z</time>
 </trkpt>
 <trkpt lat="47.564964" lon="13.174227">
 <ele>500.02</ele>
 <time>2009-09-23T13:26:13Z</time>
 </trkpt>
 <trkpt lat="47.564919" lon="13.174000">
 <ele>500.02</ele>
 <time>2009-09-23T13:26:16Z</time>
 </trkpt>
 <trkpt lat="47.564827" lon="13.173624">
 <ele>500.02</ele>
 <time>2009-09-23T13:26:21Z</time>
 </trkpt>
 <trkpt lat="47.564709" lon="13.173100">
 <ele>500.50</ele>
 <time>2009-09-23T13:26:28Z</time>
 </trkpt>
 <trkpt lat="47.564625" lon="13.172648">
 <ele>500.50</ele>
 <time>2009-09-23T13:26:34Z</time>
 </trkpt>
 <trkpt lat="47.564610" lon="13.172362">
 <ele>500.98</ele>
 <time>2009-09-23T13:26:38Z</time>
 </trkpt>
 <trkpt lat="47.564495" lon="13.171928">
 <ele>500.98</ele>
 <time>2009-09-23T13:26:42Z</time>
 </trkpt>
 <trkpt lat="47.564480" lon="13.171771">
 <ele>500.98</ele>
 <time>2009-09-23T13:26:44Z</time>
 </trkpt>
 <trkpt lat="47.564442" lon="13.171185">
 <ele>500.50</ele>
 <time>2009-09-23T13:26:52Z</time>
 </trkpt>
 <trkpt lat="47.564442" lon="13.171141">
 <ele>500.50</ele>
 <time>2009-09-23T13:26:53Z</time>
 </trkpt>
 <trkpt lat="47.564411" lon="13.170835">
 <ele>500.98</ele>
 <time>2009-09-23T13:26:57Z</time>
 </trkpt>
 <trkpt lat="47.564400" lon="13.170757">
 <ele>500.98</ele>
 <time>2009-09-23T13:26:58Z</time>
 </trkpt>
 <trkpt lat="47.564373" lon="13.170609">
 <ele>500.98</ele>
 <time>2009-09-23T13:27:00Z</time>
 </trkpt>
 <trkpt lat="47.564217" lon="13.170042">
 <ele>501.95</ele>
 <time>2009-09-23T13:27:08Z</time>
 </trkpt>
 <trkpt lat="47.564056" lon="13.169497">
 <ele>502.91</ele>
 <time>2009-09-23T13:27:16Z</time>
 </trkpt>
 <trkpt lat="47.563965" lon="13.169149">
 <ele>502.91</ele>
 <time>2009-09-23T13:27:21Z</time>
 </trkpt>
 <trkpt lat="47.563801" lon="13.168682">
 <ele>503.87</ele>
 <time>2009-09-23T13:27:28Z</time>
 </trkpt>
 <trkpt lat="47.563606" lon="13.168250">
 <ele>505.31</ele>
 <time>2009-09-23T13:27:35Z</time>
 </trkpt>
 <trkpt lat="47.563412" lon="13.167883">
 <ele>504.35</ele>
 <time>2009-09-23T13:27:41Z</time>
 </trkpt>
 <trkpt lat="47.563129" lon="13.167510">
 <ele>505.79</ele>
 <time>2009-09-23T13:27:47Z</time>
 </trkpt>
 <trkpt lat="47.563240" lon="13.167443">
 <ele>505.31</ele>
 <time>2009-09-23T13:27:53Z</time>
 </trkpt>
 <trkpt lat="47.562748" lon="13.167169">
 <ele>504.83</ele>
 <time>2009-09-23T13:28:00Z</time>
 </trkpt>
 <trkpt lat="47.562481" lon="13.166898">
 <ele>504.35</ele>
 <time>2009-09-23T13:28:05Z</time>
 </trkpt>
 <trkpt lat="47.562328" lon="13.166758">
 <ele>504.35</ele>
 <time>2009-09-23T13:28:08Z</time>
 </trkpt>
 <trkpt lat="47.562260" lon="13.166714">
 <ele>503.87</ele>
 <time>2009-09-23T13:28:09Z</time>
 </trkpt>
 <trkpt lat="47.562008" lon="13.166566">
 <ele>504.35</ele>
 <time>2009-09-23T13:28:13Z</time>
 </trkpt>
 <trkpt lat="47.561752" lon="13.166448">
 <ele>503.87</ele>
 <time>2009-09-23T13:28:17Z</time>
 </trkpt>
 <trkpt lat="47.561550" lon="13.166386">
 <ele>503.87</ele>
 <time>2009-09-23T13:28:20Z</time>
 </trkpt>
 <trkpt lat="47.561382" lon="13.166333">
 <ele>503.87</ele>
 <time>2009-09-23T13:28:23Z</time>
 </trkpt>
 <trkpt lat="47.560776" lon="13.166219">
 <ele>504.83</ele>
 <time>2009-09-23T13:28:33Z</time>
 </trkpt>
 <trkpt lat="47.560505" lon="13.166164">
 <ele>504.83</ele>
 <time>2009-09-23T13:28:38Z</time>
 </trkpt>
 <trkpt lat="47.560226" lon="13.166118">
 <ele>504.35</ele>
 <time>2009-09-23T13:28:43Z</time>
 </trkpt>
 <trkpt lat="47.559826" lon="13.166088">
 <ele>504.83</ele>
 <time>2009-09-23T13:28:50Z</time>
 </trkpt>
 <trkpt lat="47.559490" lon="13.166103">
 <ele>505.79</ele>
 <time>2009-09-23T13:28:56Z</time>
 </trkpt>
 <trkpt lat="47.559151" lon="13.166084">
 <ele>506.27</ele>
 <time>2009-09-23T13:29:02Z</time>
 </trkpt>
 <trkpt lat="47.558777" lon="13.166164">
 <ele>507.23</ele>
 <time>2009-09-23T13:29:10Z</time>
 </trkpt>
 <trkpt lat="47.558281" lon="13.166217">
 <ele>508.19</ele>
 <time>2009-09-23T13:29:19Z</time>
 </trkpt>
 <trkpt lat="47.557865" lon="13.166279">
 <ele>509.64</ele>
 <time>2009-09-23T13:29:28Z</time>
 </trkpt>
 <trkpt lat="47.557457" lon="13.166373">
 <ele>511.56</ele>
 <time>2009-09-23T13:29:38Z</time>
 </trkpt>
 <trkpt lat="47.557228" lon="13.166427">
 <ele>512.52</ele>
 <time>2009-09-23T13:29:44Z</time>
 </trkpt>
 <trkpt lat="47.557098" lon="13.166493">
 <ele>512.52</ele>
 <time>2009-09-23T13:29:48Z</time>
 </trkpt>
 <trkpt lat="47.556797" lon="13.166571">
 <ele>513.48</ele>
 <time>2009-09-23T13:29:55Z</time>
 </trkpt>
 <trkpt lat="47.556458" lon="13.166667">
 <ele>513.48</ele>
 <time>2009-09-23T13:30:02Z</time>
 </trkpt>
 <trkpt lat="47.555931" lon="13.166839">
 <ele>513.00</ele>
 <time>2009-09-23T13:30:12Z</time>
 </trkpt>
 <trkpt lat="47.555756" lon="13.166901">
 <ele>513.00</ele>
 <time>2009-09-23T13:30:15Z</time>
 </trkpt>
 <trkpt lat="47.555382" lon="13.167066">
 <ele>511.56</ele>
 <time>2009-09-23T13:30:21Z</time>
 </trkpt>
 <trkpt lat="47.554863" lon="13.167316">
 <ele>510.12</ele>
 <time>2009-09-23T13:30:29Z</time>
 </trkpt>
 <trkpt lat="47.554417" lon="13.167641">
 <ele>508.67</ele>
 <time>2009-09-23T13:30:36Z</time>
 </trkpt>
 <trkpt lat="47.553978" lon="13.168149">
 <ele>508.19</ele>
 <time>2009-09-23T13:30:44Z</time>
 </trkpt>
 <trkpt lat="47.553539" lon="13.168705">
 <ele>508.67</ele>
 <time>2009-09-23T13:30:53Z</time>
 </trkpt>
 <trkpt lat="47.553051" lon="13.169203">
 <ele>509.64</ele>
 <time>2009-09-23T13:31:03Z</time>
 </trkpt>
 <trkpt lat="47.552750" lon="13.169475">
 <ele>510.60</ele>
 <time>2009-09-23T13:31:10Z</time>
 </trkpt>
 <trkpt lat="47.552387" lon="13.169751">
 <ele>511.08</ele>
 <time>2009-09-23T13:31:18Z</time>
 </trkpt>
 <trkpt lat="47.552025" lon="13.169966">
 <ele>510.60</ele>
 <time>2009-09-23T13:31:25Z</time>
 </trkpt>
 <trkpt lat="47.551971" lon="13.169993">
 <ele>510.60</ele>
 <time>2009-09-23T13:31:26Z</time>
 </trkpt>
 <trkpt lat="47.551529" lon="13.170148">
 <ele>510.12</ele>
 <time>2009-09-23T13:31:33Z</time>
 </trkpt>
 <trkpt lat="47.551079" lon="13.170215">
 <ele>509.64</ele>
 <time>2009-09-23T13:31:39Z</time>
 </trkpt>
 <trkpt lat="47.550560" lon="13.170174">
 <ele>509.16</ele>
 <time>2009-09-23T13:31:46Z</time>
 </trkpt>
 <trkpt lat="47.550110" lon="13.170108">
 <ele>509.64</ele>
 <time>2009-09-23T13:31:53Z</time>
 </trkpt>
 <trkpt lat="47.549538" lon="13.170010">
 <ele>511.56</ele>
 <time>2009-09-23T13:32:03Z</time>
 </trkpt>
 <trkpt lat="47.548969" lon="13.169932">
 <ele>513.48</ele>
 <time>2009-09-23T13:32:14Z</time>
 </trkpt>
 <trkpt lat="47.548317" lon="13.169881">
 <ele>513.96</ele>
 <time>2009-09-23T13:32:27Z</time>
 </trkpt>
 <trkpt lat="47.547779" lon="13.169893">
 <ele>515.40</ele>
 <time>2009-09-23T13:32:38Z</time>
 </trkpt>
 <trkpt lat="47.547367" lon="13.169971">
 <ele>516.85</ele>
 <time>2009-09-23T13:32:47Z</time>
 </trkpt>
 <trkpt lat="47.547009" lon="13.170079">
 <ele>519.25</ele>
 <time>2009-09-23T13:32:55Z</time>
 </trkpt>
 <trkpt lat="47.546619" lon="13.170179">
 <ele>520.21</ele>
 <time>2009-09-23T13:33:04Z</time>
 </trkpt>
 <trkpt lat="47.546280" lon="13.170213">
 <ele>520.21</ele>
 <time>2009-09-23T13:33:12Z</time>
 </trkpt>
 <trkpt lat="47.545780" lon="13.170237">
 <ele>521.17</ele>
 <time>2009-09-23T13:33:23Z</time>
 </trkpt>
 <trkpt lat="47.545326" lon="13.170329">
 <ele>521.17</ele>
 <time>2009-09-23T13:33:32Z</time>
 </trkpt>
 <trkpt lat="47.544865" lon="13.170531">
 <ele>520.21</ele>
 <time>2009-09-23T13:33:40Z</time>
 </trkpt>
 <trkpt lat="47.544353" lon="13.170701">
 <ele>520.21</ele>
 <time>2009-09-23T13:33:48Z</time>
 </trkpt>
 <trkpt lat="47.543617" lon="13.170846">
 <ele>519.73</ele>
 <time>2009-09-23T13:33:59Z</time>
 </trkpt>
 <trkpt lat="47.543095" lon="13.171022">
 <ele>520.69</ele>
 <time>2009-09-23T13:34:07Z</time>
 </trkpt>
 <trkpt lat="47.542240" lon="13.171310">
 <ele>519.73</ele>
 <time>2009-09-23T13:34:20Z</time>
 </trkpt>
 <trkpt lat="47.541702" lon="13.171372">
 <ele>519.25</ele>
 <time>2009-09-23T13:34:28Z</time>
 </trkpt>
 <trkpt lat="47.541115" lon="13.171336">
 <ele>519.73</ele>
 <time>2009-09-23T13:34:37Z</time>
 </trkpt>
 <trkpt lat="47.540668" lon="13.171213">
 <ele>521.17</ele>
 <time>2009-09-23T13:34:45Z</time>
 </trkpt>
 <trkpt lat="47.540321" lon="13.171078">
 <ele>522.13</ele>
 <time>2009-09-23T13:34:53Z</time>
 </trkpt>
 <trkpt lat="47.539928" lon="13.170871">
 <ele>524.06</ele>
 <time>2009-09-23T13:35:03Z</time>
 </trkpt>
 <trkpt lat="47.539616" lon="13.170698">
 <ele>526.46</ele>
 <time>2009-09-23T13:35:11Z</time>
 </trkpt>
 <trkpt lat="47.539253" lon="13.170456">
 <ele>526.94</ele>
 <time>2009-09-23T13:35:20Z</time>
 </trkpt>
 <trkpt lat="47.538860" lon="13.170193">
 <ele>527.90</ele>
 <time>2009-09-23T13:35:30Z</time>
 </trkpt>
 <trkpt lat="47.538452" lon="13.169896">
 <ele>527.90</ele>
 <time>2009-09-23T13:35:41Z</time>
 </trkpt>
 <trkpt lat="47.538074" lon="13.169607">
 <ele>528.86</ele>
 <time>2009-09-23T13:35:51Z</time>
 </trkpt>
 <trkpt lat="47.537457" lon="13.169113">
 <ele>529.82</ele>
 <time>2009-09-23T13:36:07Z</time>
 </trkpt>
 <trkpt lat="47.537262" lon="13.168950">
 <ele>530.79</ele>
 <time>2009-09-23T13:36:12Z</time>
 </trkpt>
 <trkpt lat="47.536770" lon="13.168555">
 <ele>530.30</ele>
 <time>2009-09-23T13:36:24Z</time>
 </trkpt>
 <trkpt lat="47.536362" lon="13.168281">
 <ele>530.30</ele>
 <time>2009-09-23T13:36:33Z</time>
 </trkpt>
 <trkpt lat="47.535786" lon="13.167979">
 <ele>531.27</ele>
 <time>2009-09-23T13:36:44Z</time>
 </trkpt>
 <trkpt lat="47.535187" lon="13.167769">
 <ele>531.27</ele>
 <time>2009-09-23T13:36:54Z</time>
 </trkpt>
 <trkpt lat="47.534500" lon="13.167548">
 <ele>531.27</ele>
 <time>2009-09-23T13:37:05Z</time>
 </trkpt>
 <trkpt lat="47.534012" lon="13.167391">
 <ele>529.34</ele>
 <time>2009-09-23T13:37:13Z</time>
 </trkpt>
 <trkpt lat="47.533337" lon="13.167110">
 <ele>529.34</ele>
 <time>2009-09-23T13:37:24Z</time>
 </trkpt>
 <trkpt lat="47.532795" lon="13.166796">
 <ele>529.34</ele>
 <time>2009-09-23T13:37:33Z</time>
 </trkpt>
 <trkpt lat="47.532154" lon="13.166401">
 <ele>528.38</ele>
 <time>2009-09-23T13:37:44Z</time>
 </trkpt>
 <trkpt lat="47.531666" lon="13.166189">
 <ele>528.86</ele>
 <time>2009-09-23T13:37:52Z</time>
 </trkpt>
 <trkpt lat="47.531086" lon="13.166085">
 <ele>528.38</ele>
 <time>2009-09-23T13:38:01Z</time>
 </trkpt>
 <trkpt lat="47.530499" lon="13.166116">
 <ele>528.38</ele>
 <time>2009-09-23T13:38:10Z</time>
 </trkpt>
 <trkpt lat="47.530067" lon="13.166241">
 <ele>528.86</ele>
 <time>2009-09-23T13:38:17Z</time>
 </trkpt>
 <trkpt lat="47.529617" lon="13.166458">
 <ele>528.38</ele>
 <time>2009-09-23T13:38:25Z</time>
 </trkpt>
 <trkpt lat="47.529114" lon="13.166724">
 <ele>529.82</ele>
 <time>2009-09-23T13:38:34Z</time>
 </trkpt>
 <trkpt lat="47.528633" lon="13.166960">
 <ele>531.27</ele>
 <time>2009-09-23T13:38:43Z</time>
 </trkpt>
 <trkpt lat="47.528179" lon="13.167111">
 <ele>531.75</ele>
 <time>2009-09-23T13:38:52Z</time>
 </trkpt>
 <trkpt lat="47.527756" lon="13.167197">
 <ele>533.19</ele>
 <time>2009-09-23T13:39:01Z</time>
 </trkpt>
 <trkpt lat="47.527252" lon="13.167247">
 <ele>535.11</ele>
 <time>2009-09-23T13:39:12Z</time>
 </trkpt>
 <trkpt lat="47.526707" lon="13.167273">
 <ele>537.03</ele>
 <time>2009-09-23T13:39:24Z</time>
 </trkpt>
 <trkpt lat="47.526169" lon="13.167356">
 <ele>537.51</ele>
 <time>2009-09-23T13:39:36Z</time>
 </trkpt>
 <trkpt lat="47.525661" lon="13.167508">
 <ele>538.48</ele>
 <time>2009-09-23T13:39:47Z</time>
 </trkpt>
 <trkpt lat="47.525127" lon="13.167690">
 <ele>537.99</ele>
 <time>2009-09-23T13:39:58Z</time>
 </trkpt>
 <trkpt lat="47.524715" lon="13.167777">
 <ele>538.96</ele>
 <time>2009-09-23T13:40:06Z</time>
 </trkpt>
 <trkpt lat="47.524178" lon="13.167779">
 <ele>538.48</ele>
 <time>2009-09-23T13:40:16Z</time>
 </trkpt>
 <trkpt lat="47.523712" lon="13.167691">
 <ele>537.99</ele>
 <time>2009-09-23T13:40:24Z</time>
 </trkpt>
 <trkpt lat="47.523266" lon="13.167523">
 <ele>537.51</ele>
 <time>2009-09-23T13:40:32Z</time>
 </trkpt>
 <trkpt lat="47.522770" lon="13.167224">
 <ele>537.51</ele>
 <time>2009-09-23T13:40:41Z</time>
 </trkpt>
 <trkpt lat="47.522263" lon="13.166894">
 <ele>536.55</ele>
 <time>2009-09-23T13:40:50Z</time>
 </trkpt>
 <trkpt lat="47.521790" lon="13.166580">
 <ele>536.55</ele>
 <time>2009-09-23T13:40:59Z</time>
 </trkpt>
 <trkpt lat="47.521278" lon="13.166253">
 <ele>536.07</ele>
 <time>2009-09-23T13:41:08Z</time>
 </trkpt>
 <trkpt lat="47.520725" lon="13.165901">
 <ele>535.59</ele>
 <time>2009-09-23T13:41:17Z</time>
 </trkpt>
 <trkpt lat="47.520164" lon="13.165541">
 <ele>535.59</ele>
 <time>2009-09-23T13:41:26Z</time>
 </trkpt>
 <trkpt lat="47.519547" lon="13.165133">
 <ele>535.59</ele>
 <time>2009-09-23T13:41:37Z</time>
 </trkpt>
 <trkpt lat="47.519085" lon="13.164828">
 <ele>537.03</ele>
 <time>2009-09-23T13:41:46Z</time>
 </trkpt>
 <trkpt lat="47.518719" lon="13.164597">
 <ele>537.99</ele>
 <time>2009-09-23T13:41:54Z</time>
 </trkpt>
 <trkpt lat="47.518471" lon="13.164440">
 <ele>538.96</ele>
 <time>2009-09-23T13:42:00Z</time>
 </trkpt>
 <trkpt lat="47.518192" lon="13.164278">
 <ele>539.92</ele>
 <time>2009-09-23T13:42:07Z</time>
 </trkpt>
 <trkpt lat="47.517776" lon="13.164099">
 <ele>540.88</ele>
 <time>2009-09-23T13:42:17Z</time>
 </trkpt>
 <trkpt lat="47.517391" lon="13.163999">
 <ele>542.80</ele>
 <time>2009-09-23T13:42:26Z</time>
 </trkpt>
 <trkpt lat="47.516891" lon="13.163935">
 <ele>545.20</ele>
 <time>2009-09-23T13:42:38Z</time>
 </trkpt>
 <trkpt lat="47.516544" lon="13.163943">
 <ele>547.13</ele>
 <time>2009-09-23T13:42:47Z</time>
 </trkpt>
 <trkpt lat="47.516319" lon="13.163979">
 <ele>549.53</ele>
 <time>2009-09-23T13:42:54Z</time>
 </trkpt>
 <trkpt lat="47.516155" lon="13.164012">
 <ele>549.53</ele>
 <time>2009-09-23T13:43:00Z</time>
 </trkpt>
 <trkpt lat="47.515881" lon="13.164106">
 <ele>550.49</ele>
 <time>2009-09-23T13:43:11Z</time>
 </trkpt>
 <trkpt lat="47.515663" lon="13.164207">
 <ele>551.45</ele>
 <time>2009-09-23T13:43:20Z</time>
 </trkpt>
 <trkpt lat="47.515415" lon="13.164334">
 <ele>552.41</ele>
 <time>2009-09-23T13:43:29Z</time>
 </trkpt>
 <trkpt lat="47.515152" lon="13.164499">
 <ele>553.38</ele>
 <time>2009-09-23T13:43:39Z</time>
 </trkpt>
 <trkpt lat="47.514935" lon="13.164659">
 <ele>554.82</ele>
 <time>2009-09-23T13:43:47Z</time>
 </trkpt>
 <trkpt lat="47.514656" lon="13.164900">
 <ele>555.30</ele>
 <time>2009-09-23T13:43:57Z</time>
 </trkpt>
 <trkpt lat="47.514282" lon="13.165238">
 <ele>555.30</ele>
 <time>2009-09-23T13:44:09Z</time>
 </trkpt>
 <trkpt lat="47.514038" lon="13.165462">
 <ele>555.78</ele>
 <time>2009-09-23T13:44:16Z</time>
 </trkpt>
 <trkpt lat="47.513634" lon="13.165777">
 <ele>556.26</ele>
 <time>2009-09-23T13:44:26Z</time>
 </trkpt>
 <trkpt lat="47.513496" lon="13.165874">
 <ele>556.74</ele>
 <time>2009-09-23T13:44:29Z</time>
 </trkpt>
 <trkpt lat="47.513084" lon="13.166130">
 <ele>556.26</ele>
 <time>2009-09-23T13:44:37Z</time>
 </trkpt>
 <trkpt lat="47.512596" lon="13.166363">
 <ele>554.34</ele>
 <time>2009-09-23T13:44:45Z</time>
 </trkpt>
 <trkpt lat="47.512096" lon="13.166563">
 <ele>553.38</ele>
 <time>2009-09-23T13:44:52Z</time>
 </trkpt>
 <trkpt lat="47.511757" lon="13.166688">
 <ele>551.93</ele>
 <time>2009-09-23T13:44:56Z</time>
 </trkpt>
 <trkpt lat="47.511288" lon="13.166855">
 <ele>549.53</ele>
 <time>2009-09-23T13:45:01Z</time>
 </trkpt>
 <trkpt lat="47.510754" lon="13.166985">
 <ele>547.13</ele>
 <time>2009-09-23T13:45:06Z</time>
 </trkpt>
 <trkpt lat="47.510201" lon="13.167045">
 <ele>544.72</ele>
 <time>2009-09-23T13:45:11Z</time>
 </trkpt>
 <trkpt lat="47.509758" lon="13.167033">
 <ele>542.80</ele>
 <time>2009-09-23T13:45:15Z</time>
 </trkpt>
 <trkpt lat="47.509022" lon="13.166903">
 <ele>541.84</ele>
 <time>2009-09-23T13:45:22Z</time>
 </trkpt>
 <trkpt lat="47.508389" lon="13.166683">
 <ele>538.96</ele>
 <time>2009-09-23T13:45:28Z</time>
 </trkpt>
 <trkpt lat="47.507542" lon="13.166331">
 <ele>534.63</ele>
 <time>2009-09-23T13:45:36Z</time>
 </trkpt>
 <trkpt lat="47.507439" lon="13.166304">
 <ele>534.63</ele>
 <time>2009-09-23T13:45:37Z</time>
 </trkpt>
 <trkpt lat="47.506939" lon="13.166281">
 <ele>534.63</ele>
 <time>2009-09-23T13:45:42Z</time>
 </trkpt>
 <trkpt lat="47.506660" lon="13.166342">
 <ele>532.71</ele>
 <time>2009-09-23T13:45:45Z</time>
 </trkpt>
 <trkpt lat="47.506252" lon="13.166533">
 <ele>532.71</ele>
 <time>2009-09-23T13:45:50Z</time>
 </trkpt>
 <trkpt lat="47.505695" lon="13.166974">
 <ele>532.23</ele>
 <time>2009-09-23T13:45:58Z</time>
 </trkpt>
 <trkpt lat="47.505554" lon="13.167084">
 <ele>532.23</ele>
 <time>2009-09-23T13:46:00Z</time>
 </trkpt>
 <trkpt lat="47.505085" lon="13.167502">
 <ele>531.75</ele>
 <time>2009-09-23T13:46:07Z</time>
 </trkpt>
 <trkpt lat="47.504467" lon="13.168014">
 <ele>531.75</ele>
 <time>2009-09-23T13:46:16Z</time>
 </trkpt>
 <trkpt lat="47.503799" lon="13.168544">
 <ele>533.19</ele>
 <time>2009-09-23T13:46:26Z</time>
 </trkpt>
 <trkpt lat="47.503384" lon="13.168872">
 <ele>534.63</ele>
 <time>2009-09-23T13:46:33Z</time>
 </trkpt>
 <trkpt lat="47.503078" lon="13.169110">
 <ele>535.59</ele>
 <time>2009-09-23T13:46:39Z</time>
 </trkpt>
 <trkpt lat="47.502728" lon="13.169397">
 <ele>537.03</ele>
 <time>2009-09-23T13:46:47Z</time>
 </trkpt>
 <trkpt lat="47.502300" lon="13.169724">
 <ele>537.99</ele>
 <time>2009-09-23T13:46:57Z</time>
 </trkpt>
 <trkpt lat="47.501823" lon="13.170072">
 <ele>539.44</ele>
 <time>2009-09-23T13:47:08Z</time>
 </trkpt>
 <trkpt lat="47.501255" lon="13.170459">
 <ele>538.96</ele>
 <time>2009-09-23T13:47:20Z</time>
 </trkpt>
 <trkpt lat="47.500603" lon="13.170897">
 <ele>539.44</ele>
 <time>2009-09-23T13:47:33Z</time>
 </trkpt>
 <trkpt lat="47.499947" lon="13.171335">
 <ele>540.40</ele>
 <time>2009-09-23T13:47:46Z</time>
 </trkpt>
 <trkpt lat="47.499363" lon="13.171742">
 <ele>539.44</ele>
 <time>2009-09-23T13:47:58Z</time>
 </trkpt>
 <trkpt lat="47.498798" lon="13.172271">
 <ele>539.44</ele>
 <time>2009-09-23T13:48:10Z</time>
 </trkpt>
 <trkpt lat="47.498325" lon="13.172865">
 <ele>539.92</ele>
 <time>2009-09-23T13:48:21Z</time>
 </trkpt>
 <trkpt lat="47.497986" lon="13.173429">
 <ele>540.40</ele>
 <time>2009-09-23T13:48:30Z</time>
 </trkpt>
 <trkpt lat="47.497868" lon="13.173634">
 <ele>540.40</ele>
 <time>2009-09-23T13:48:33Z</time>
 </trkpt>
 <trkpt lat="47.497612" lon="13.174201">
 <ele>540.40</ele>
 <time>2009-09-23T13:48:41Z</time>
 </trkpt>
 <trkpt lat="47.497250" lon="13.174941">
 <ele>540.88</ele>
 <time>2009-09-23T13:48:51Z</time>
 </trkpt>
 <trkpt lat="47.497021" lon="13.175275">
 <ele>540.88</ele>
 <time>2009-09-23T13:48:56Z</time>
 </trkpt>
 <trkpt lat="47.496563" lon="13.175686">
 <ele>538.96</ele>
 <time>2009-09-23T13:49:04Z</time>
 </trkpt>
 <trkpt lat="47.496143" lon="13.175852">
 <ele>537.99</ele>
 <time>2009-09-23T13:49:10Z</time>
 </trkpt>
 <trkpt lat="47.495651" lon="13.175873">
 <ele>537.51</ele>
 <time>2009-09-23T13:49:17Z</time>
 </trkpt>
 <trkpt lat="47.494923" lon="13.175751">
 <ele>537.03</ele>
 <time>2009-09-23T13:49:28Z</time>
 </trkpt>
 <trkpt lat="47.494728" lon="13.175718">
 <ele>537.03</ele>
 <time>2009-09-23T13:49:31Z</time>
 </trkpt>
 <trkpt lat="47.494011" lon="13.175592">
 <ele>538.48</ele>
 <time>2009-09-23T13:49:42Z</time>
 </trkpt>
 <trkpt lat="47.493328" lon="13.175456">
 <ele>537.99</ele>
 <time>2009-09-23T13:49:53Z</time>
 </trkpt>
 <trkpt lat="47.492729" lon="13.175337">
 <ele>536.07</ele>
 <time>2009-09-23T13:50:03Z</time>
 </trkpt>
 <trkpt lat="47.492607" lon="13.175337">
 <ele>535.59</ele>
 <time>2009-09-23T13:50:05Z</time>
 </trkpt>
 <trkpt lat="47.492123" lon="13.175498">
 <ele>534.15</ele>
 <time>2009-09-23T13:50:13Z</time>
 </trkpt>
 <trkpt lat="47.491802" lon="13.175737">
 <ele>534.63</ele>
 <time>2009-09-23T13:50:19Z</time>
 </trkpt>
 <trkpt lat="47.491550" lon="13.176032">
 <ele>535.11</ele>
 <time>2009-09-23T13:50:25Z</time>
 </trkpt>
 <trkpt lat="47.491352" lon="13.176383">
 <ele>535.59</ele>
 <time>2009-09-23T13:50:32Z</time>
 </trkpt>
 <trkpt lat="47.491325" lon="13.176431">
 <ele>535.59</ele>
 <time>2009-09-23T13:50:33Z</time>
 </trkpt>
 <trkpt lat="47.491196" lon="13.176697">
 <ele>536.07</ele>
 <time>2009-09-23T13:50:38Z</time>
 </trkpt>
 <trkpt lat="47.491089" lon="13.176886">
 <ele>536.55</ele>
 <time>2009-09-23T13:50:43Z</time>
 </trkpt>
 <trkpt lat="47.490955" lon="13.177063">
 <ele>537.51</ele>
 <time>2009-09-23T13:50:49Z</time>
 </trkpt>
 <trkpt lat="47.490681" lon="13.177278">
 <ele>539.92</ele>
 <time>2009-09-23T13:50:59Z</time>
 </trkpt>
 <trkpt lat="47.490437" lon="13.177443">
 <ele>541.84</ele>
 <time>2009-09-23T13:51:09Z</time>
 </trkpt>
 <trkpt lat="47.490326" lon="13.177530">
 <ele>542.32</ele>
 <time>2009-09-23T13:51:15Z</time>
 </trkpt>
 <trkpt lat="47.490250" lon="13.177629">
 <ele>543.28</ele>
 <time>2009-09-23T13:51:20Z</time>
 </trkpt>
 <trkpt lat="47.490154" lon="13.177778">
 <ele>543.76</ele>
 <time>2009-09-23T13:51:27Z</time>
 </trkpt>
 <trkpt lat="47.490005" lon="13.177961">
 <ele>544.24</ele>
 <time>2009-09-23T13:51:34Z</time>
 </trkpt>
 <trkpt lat="47.489922" lon="13.178115">
 <ele>545.20</ele>
 <time>2009-09-23T13:51:40Z</time>
 </trkpt>
 <trkpt lat="47.489849" lon="13.178230">
 <ele>545.69</ele>
 <time>2009-09-23T13:51:45Z</time>
 </trkpt>
 <trkpt lat="47.489792" lon="13.178361">
 <ele>546.65</ele>
 <time>2009-09-23T13:51:50Z</time>
 </trkpt>
 <trkpt lat="47.489796" lon="13.178564">
 <ele>547.13</ele>
 <time>2009-09-23T13:51:55Z</time>
 </trkpt>
 <trkpt lat="47.489838" lon="13.178814">
 <ele>547.61</ele>
 <time>2009-09-23T13:52:00Z</time>
 </trkpt>
 <trkpt lat="47.489815" lon="13.179101">
 <ele>548.09</ele>
 <time>2009-09-23T13:52:06Z</time>
 </trkpt>
 <trkpt lat="47.489819" lon="13.179387">
 <ele>549.53</ele>
 <time>2009-09-23T13:52:12Z</time>
 </trkpt>
 <trkpt lat="47.489777" lon="13.179719">
 <ele>550.49</ele>
 <time>2009-09-23T13:52:20Z</time>
 </trkpt>
 <trkpt lat="47.489704" lon="13.180022">
 <ele>551.45</ele>
 <time>2009-09-23T13:52:28Z</time>
 </trkpt>
 <trkpt lat="47.489601" lon="13.180123">
 <ele>551.45</ele>
 <time>2009-09-23T13:52:33Z</time>
 </trkpt>
 <trkpt lat="47.489433" lon="13.180463">
 <ele>553.86</ele>
 <time>2009-09-23T13:52:44Z</time>
 </trkpt>
 <trkpt lat="47.489357" lon="13.180698">
 <ele>554.34</ele>
 <time>2009-09-23T13:52:51Z</time>
 </trkpt>
 <trkpt lat="47.489307" lon="13.180962">
 <ele>555.30</ele>
 <time>2009-09-23T13:52:58Z</time>
 </trkpt>
 <trkpt lat="47.489235" lon="13.181178">
 <ele>555.78</ele>
 <time>2009-09-23T13:53:05Z</time>
 </trkpt>
 <trkpt lat="47.489227" lon="13.181245">
 <ele>556.26</ele>
 <time>2009-09-23T13:53:07Z</time>
 </trkpt>
 <trkpt lat="47.489151" lon="13.181410">
 <ele>557.22</ele>
 <time>2009-09-23T13:53:12Z</time>
 </trkpt>
 <trkpt lat="47.489037" lon="13.181643">
 <ele>557.22</ele>
 <time>2009-09-23T13:53:19Z</time>
 </trkpt>
 <trkpt lat="47.488934" lon="13.181906">
 <ele>558.18</ele>
 <time>2009-09-23T13:53:26Z</time>
 </trkpt>
 <trkpt lat="47.488861" lon="13.182140">
 <ele>559.14</ele>
 <time>2009-09-23T13:53:32Z</time>
 </trkpt>
 <trkpt lat="47.488766" lon="13.182416">
 <ele>559.62</ele>
 <time>2009-09-23T13:53:40Z</time>
 </trkpt>
 <trkpt lat="47.488674" lon="13.182618">
 <ele>559.62</ele>
 <time>2009-09-23T13:53:46Z</time>
 </trkpt>
 <trkpt lat="47.488560" lon="13.182797">
 <ele>560.59</ele>
 <time>2009-09-23T13:53:52Z</time>
 </trkpt>
 <trkpt lat="47.488430" lon="13.182958">
 <ele>560.59</ele>
 <time>2009-09-23T13:53:58Z</time>
 </trkpt>
 <trkpt lat="47.488319" lon="13.183096">
 <ele>561.07</ele>
 <time>2009-09-23T13:54:03Z</time>
 </trkpt>
 <trkpt lat="47.488144" lon="13.183302">
 <ele>562.03</ele>
 <time>2009-09-23T13:54:11Z</time>
 </trkpt>
 <trkpt lat="47.488129" lon="13.183371">
 <ele>562.03</ele>
 <time>2009-09-23T13:54:13Z</time>
 </trkpt>
 <trkpt lat="47.488071" lon="13.183648">
 <ele>562.99</ele>
 <time>2009-09-23T13:54:20Z</time>
 </trkpt>
 <trkpt lat="47.487980" lon="13.183861">
 <ele>562.99</ele>
 <time>2009-09-23T13:54:26Z</time>
 </trkpt>
 <trkpt lat="47.487885" lon="13.184001">
 <ele>562.99</ele>
 <time>2009-09-23T13:54:31Z</time>
 </trkpt>
 <trkpt lat="47.487782" lon="13.184173">
 <ele>563.95</ele>
 <time>2009-09-23T13:54:37Z</time>
 </trkpt>
 <trkpt lat="47.487675" lon="13.184281">
 <ele>564.43</ele>
 <time>2009-09-23T13:54:41Z</time>
 </trkpt>
 <trkpt lat="47.487492" lon="13.184521">
 <ele>565.39</ele>
 <time>2009-09-23T13:54:49Z</time>
 </trkpt>
 <trkpt lat="47.487373" lon="13.184757">
 <ele>565.87</ele>
 <time>2009-09-23T13:54:56Z</time>
 </trkpt>
 <trkpt lat="47.487251" lon="13.184910">
 <ele>565.87</ele>
 <time>2009-09-23T13:55:01Z</time>
 </trkpt>
 <trkpt lat="47.487076" lon="13.185016">
 <ele>567.80</ele>
 <time>2009-09-23T13:55:07Z</time>
 </trkpt>
 <trkpt lat="47.487019" lon="13.185056">
 <ele>568.76</ele>
 <time>2009-09-23T13:55:09Z</time>
 </trkpt>
 <trkpt lat="47.486935" lon="13.185219">
 <ele>569.24</ele>
 <time>2009-09-23T13:55:15Z</time>
 </trkpt>
 <trkpt lat="47.486866" lon="13.185433">
 <ele>569.72</ele>
 <time>2009-09-23T13:55:21Z</time>
 </trkpt>
 <trkpt lat="47.486752" lon="13.185616">
 <ele>569.72</ele>
 <time>2009-09-23T13:55:27Z</time>
 </trkpt>
 <trkpt lat="47.486591" lon="13.185655">
 <ele>570.68</ele>
 <time>2009-09-23T13:55:33Z</time>
 </trkpt>
 <trkpt lat="47.486378" lon="13.185629">
 <ele>572.12</ele>
 <time>2009-09-23T13:55:39Z</time>
 </trkpt>
 <trkpt lat="47.486149" lon="13.185646">
 <ele>572.60</ele>
 <time>2009-09-23T13:55:46Z</time>
 </trkpt>
 <trkpt lat="47.485863" lon="13.185619">
 <ele>574.04</ele>
 <time>2009-09-23T13:55:54Z</time>
 </trkpt>
 <trkpt lat="47.485615" lon="13.185693">
 <ele>575.97</ele>
 <time>2009-09-23T13:56:02Z</time>
 </trkpt>
 <trkpt lat="47.485466" lon="13.185687">
 <ele>577.41</ele>
 <time>2009-09-23T13:56:08Z</time>
 </trkpt>
 <trkpt lat="47.485271" lon="13.185667">
 <ele>578.85</ele>
 <time>2009-09-23T13:56:16Z</time>
 </trkpt>
 <trkpt lat="47.485039" lon="13.185654">
 <ele>580.29</ele>
 <time>2009-09-23T13:56:25Z</time>
 </trkpt>
 <trkpt lat="47.484917" lon="13.185618">
 <ele>581.73</ele>
 <time>2009-09-23T13:56:31Z</time>
 </trkpt>
 <trkpt lat="47.484787" lon="13.185525">
 <ele>582.22</ele>
 <time>2009-09-23T13:56:39Z</time>
 </trkpt>
 <trkpt lat="47.484543" lon="13.185494">
 <ele>584.14</ele>
 <time>2009-09-23T13:56:51Z</time>
 </trkpt>
 <trkpt lat="47.484314" lon="13.185491">
 <ele>585.58</ele>
 <time>2009-09-23T13:57:01Z</time>
 </trkpt>
 <trkpt lat="47.484245" lon="13.185499">
 <ele>585.58</ele>
 <time>2009-09-23T13:57:04Z</time>
 </trkpt>
 <trkpt lat="47.484005" lon="13.185528">
 <ele>587.02</ele>
 <time>2009-09-23T13:57:14Z</time>
 </trkpt>
 <trkpt lat="47.483822" lon="13.185540">
 <ele>588.46</ele>
 <time>2009-09-23T13:57:21Z</time>
 </trkpt>
 <trkpt lat="47.483749" lon="13.185546">
 <ele>588.46</ele>
 <time>2009-09-23T13:57:24Z</time>
 </trkpt>
 <trkpt lat="47.483654" lon="13.185553">
 <ele>588.95</ele>
 <time>2009-09-23T13:57:28Z</time>
 </trkpt>
 <trkpt lat="47.483597" lon="13.185507">
 <ele>589.91</ele>
 <time>2009-09-23T13:57:31Z</time>
 </trkpt>
 <trkpt lat="47.483360" lon="13.185423">
 <ele>591.83</ele>
 <time>2009-09-23T13:57:40Z</time>
 </trkpt>
 <trkpt lat="47.483139" lon="13.185325">
 <ele>591.83</ele>
 <time>2009-09-23T13:57:48Z</time>
 </trkpt>
 <trkpt lat="47.483021" lon="13.185232">
 <ele>592.79</ele>
 <time>2009-09-23T13:57:54Z</time>
 </trkpt>
 <trkpt lat="47.482838" lon="13.185156">
 <ele>592.79</ele>
 <time>2009-09-23T13:58:01Z</time>
 </trkpt>
 <trkpt lat="47.482624" lon="13.185094">
 <ele>593.27</ele>
 <time>2009-09-23T13:58:08Z</time>
 </trkpt>
 <trkpt lat="47.482353" lon="13.185050">
 <ele>591.35</ele>
 <time>2009-09-23T13:58:15Z</time>
 </trkpt>
 <trkpt lat="47.482109" lon="13.185007">
 <ele>590.87</ele>
 <time>2009-09-23T13:58:21Z</time>
 </trkpt>
 <trkpt lat="47.481834" lon="13.184965">
 <ele>591.35</ele>
 <time>2009-09-23T13:58:26Z</time>
 </trkpt>
 <trkpt lat="47.481716" lon="13.184958">
 <ele>590.87</ele>
 <time>2009-09-23T13:58:28Z</time>
 </trkpt>
 <trkpt lat="47.481598" lon="13.184957">
 <ele>590.39</ele>
 <time>2009-09-23T13:58:30Z</time>
 </trkpt>
 <trkpt lat="47.481483" lon="13.184954">
 <ele>589.43</ele>
 <time>2009-09-23T13:58:32Z</time>
 </trkpt>
 <trkpt lat="47.480988" lon="13.185075">
 <ele>588.46</ele>
 <time>2009-09-23T13:58:39Z</time>
 </trkpt>
 <trkpt lat="47.480633" lon="13.185294">
 <ele>586.54</ele>
 <time>2009-09-23T13:58:44Z</time>
 </trkpt>
 <trkpt lat="47.480419" lon="13.185492">
 <ele>584.14</ele>
 <time>2009-09-23T13:58:47Z</time>
 </trkpt>
 <trkpt lat="47.480103" lon="13.185925">
 <ele>580.29</ele>
 <time>2009-09-23T13:58:52Z</time>
 </trkpt>
 <trkpt lat="47.479843" lon="13.186363">
 <ele>577.89</ele>
 <time>2009-09-23T13:58:56Z</time>
 </trkpt>
 <trkpt lat="47.479557" lon="13.186861">
 <ele>572.60</ele>
 <time>2009-09-23T13:59:00Z</time>
 </trkpt>
 <trkpt lat="47.479324" lon="13.187256">
 <ele>569.72</ele>
 <time>2009-09-23T13:59:03Z</time>
 </trkpt>
 <trkpt lat="47.478897" lon="13.187902">
 <ele>565.87</ele>
 <time>2009-09-23T13:59:08Z</time>
 </trkpt>
 <trkpt lat="47.478607" lon="13.188252">
 <ele>562.51</ele>
 <time>2009-09-23T13:59:11Z</time>
 </trkpt>
 <trkpt lat="47.478088" lon="13.188742">
 <ele>559.62</ele>
 <time>2009-09-23T13:59:16Z</time>
 </trkpt>
 <trkpt lat="47.477768" lon="13.189002">
 <ele>556.26</ele>
 <time>2009-09-23T13:59:19Z</time>
 </trkpt>
 <trkpt lat="47.477379" lon="13.189359">
 <ele>554.82</ele>
 <time>2009-09-23T13:59:23Z</time>
 </trkpt>
 <trkpt lat="47.476967" lon="13.189862">
 <ele>551.45</ele>
 <time>2009-09-23T13:59:28Z</time>
 </trkpt>
 <trkpt lat="47.476406" lon="13.190716">
 <ele>550.49</ele>
 <time>2009-09-23T13:59:36Z</time>
 </trkpt>
 <trkpt lat="47.475925" lon="13.191372">
 <ele>549.53</ele>
 <time>2009-09-23T13:59:43Z</time>
 </trkpt>
 <trkpt lat="47.475513" lon="13.191807">
 <ele>548.57</ele>
 <time>2009-09-23T13:59:49Z</time>
 </trkpt>
 <trkpt lat="47.475094" lon="13.192157">
 <ele>547.61</ele>
 <time>2009-09-23T13:59:55Z</time>
 </trkpt>
 <trkpt lat="47.474678" lon="13.192372">
 <ele>547.61</ele>
 <time>2009-09-23T14:00:01Z</time>
 </trkpt>
 <trkpt lat="47.474209" lon="13.192483">
 <ele>547.13</ele>
 <time>2009-09-23T14:00:08Z</time>
 </trkpt>
 <trkpt lat="47.473827" lon="13.192483">
 <ele>547.61</ele>
 <time>2009-09-23T14:00:14Z</time>
 </trkpt>
 <trkpt lat="47.473549" lon="13.192440">
 <ele>548.57</ele>
 <time>2009-09-23T14:00:19Z</time>
 </trkpt>
 <trkpt lat="47.473373" lon="13.192506">
 <ele>548.57</ele>
 <time>2009-09-23T14:00:23Z</time>
 </trkpt>
 <trkpt lat="47.473305" lon="13.192694">
 <ele>548.09</ele>
 <time>2009-09-23T14:00:26Z</time>
 </trkpt>
 <trkpt lat="47.473198" lon="13.193191">
 <ele>545.69</ele>
 <time>2009-09-23T14:00:31Z</time>
 </trkpt>
 <trkpt lat="47.473038" lon="13.194054">
 <ele>543.28</ele>
 <time>2009-09-23T14:00:38Z</time>
 </trkpt>
 <trkpt lat="47.472950" lon="13.194590">
 <ele>542.32</ele>
 <time>2009-09-23T14:00:43Z</time>
 </trkpt>
 <trkpt lat="47.472839" lon="13.194780">
 <ele>541.36</ele>
 <time>2009-09-23T14:00:47Z</time>
 </trkpt>
 <trkpt lat="47.472633" lon="13.194700">
 <ele>541.36</ele>
 <time>2009-09-23T14:00:51Z</time>
 </trkpt>
 <trkpt lat="47.472378" lon="13.194517">
 <ele>541.84</ele>
 <time>2009-09-23T14:00:56Z</time>
 </trkpt>
 <trkpt lat="47.472267" lon="13.194508">
 <ele>541.84</ele>
 <time>2009-09-23T14:00:58Z</time>
 </trkpt>
 <trkpt lat="47.471729" lon="13.194589">
 <ele>541.84</ele>
 <time>2009-09-23T14:01:08Z</time>
 </trkpt>
 <trkpt lat="47.471294" lon="13.194678">
 <ele>541.84</ele>
 <time>2009-09-23T14:01:16Z</time>
 </trkpt>
 <trkpt lat="47.470985" lon="13.194811">
 <ele>544.24</ele>
 <time>2009-09-23T14:01:23Z</time>
 </trkpt>
 <trkpt lat="47.470577" lon="13.194876">
 <ele>544.72</ele>
 <time>2009-09-23T14:01:32Z</time>
 </trkpt>
 <trkpt lat="47.470478" lon="13.194906">
 <ele>543.76</ele>
 <time>2009-09-23T14:01:34Z</time>
 </trkpt>
 <trkpt lat="47.470089" lon="13.195086">
 <ele>543.28</ele>
 <time>2009-09-23T14:01:41Z</time>
 </trkpt>
 <trkpt lat="47.469669" lon="13.195393">
 <ele>542.80</ele>
 <time>2009-09-23T14:01:49Z</time>
 </trkpt>
 <trkpt lat="47.469414" lon="13.195707">
 <ele>542.80</ele>
 <time>2009-09-23T14:01:55Z</time>
 </trkpt>
 <trkpt lat="47.469147" lon="13.196153">
 <ele>543.28</ele>
 <time>2009-09-23T14:02:02Z</time>
 </trkpt>
 <trkpt lat="47.469021" lon="13.196439">
 <ele>543.28</ele>
 <time>2009-09-23T14:02:06Z</time>
 </trkpt>
 <trkpt lat="47.468864" lon="13.196651">
 <ele>542.80</ele>
 <time>2009-09-23T14:02:10Z</time>
 </trkpt>
 <trkpt lat="47.468494" lon="13.197185">
 <ele>543.28</ele>
 <time>2009-09-23T14:02:20Z</time>
 </trkpt>
 <trkpt lat="47.468121" lon="13.197707">
 <ele>543.76</ele>
 <time>2009-09-23T14:02:30Z</time>
 </trkpt>
 <trkpt lat="47.468018" lon="13.197886">
 <ele>544.72</ele>
 <time>2009-09-23T14:02:33Z</time>
 </trkpt>
 <trkpt lat="47.467911" lon="13.198248">
 <ele>544.24</ele>
 <time>2009-09-23T14:02:38Z</time>
 </trkpt>
 <trkpt lat="47.467716" lon="13.198622">
 <ele>544.24</ele>
 <time>2009-09-23T14:02:44Z</time>
 </trkpt>
 <trkpt lat="47.467411" lon="13.199109">
 <ele>544.24</ele>
 <time>2009-09-23T14:02:52Z</time>
 </trkpt>
 <trkpt lat="47.467194" lon="13.199484">
 <ele>543.76</ele>
 <time>2009-09-23T14:02:58Z</time>
 </trkpt>
 <trkpt lat="47.466976" lon="13.199656">
 <ele>542.80</ele>
 <time>2009-09-23T14:03:03Z</time>
 </trkpt>
 <trkpt lat="47.466766" lon="13.199800">
 <ele>542.80</ele>
 <time>2009-09-23T14:03:07Z</time>
 </trkpt>
 <trkpt lat="47.466366" lon="13.200015">
 <ele>543.28</ele>
 <time>2009-09-23T14:03:15Z</time>
 </trkpt>
 <trkpt lat="47.465950" lon="13.200130">
 <ele>543.76</ele>
 <time>2009-09-23T14:03:23Z</time>
 </trkpt>
 <trkpt lat="47.465454" lon="13.200178">
 <ele>543.28</ele>
 <time>2009-09-23T14:03:32Z</time>
 </trkpt>
 <trkpt lat="47.465115" lon="13.200150">
 <ele>543.28</ele>
 <time>2009-09-23T14:03:39Z</time>
 </trkpt>
 <trkpt lat="47.464687" lon="13.200039">
 <ele>542.80</ele>
 <time>2009-09-23T14:03:48Z</time>
 </trkpt>
 <trkpt lat="47.464371" lon="13.199922">
 <ele>542.80</ele>
 <time>2009-09-23T14:03:55Z</time>
 </trkpt>
 <trkpt lat="47.463963" lon="13.199741">
 <ele>542.80</ele>
 <time>2009-09-23T14:04:04Z</time>
 </trkpt>
 <trkpt lat="47.463722" lon="13.199628">
 <ele>542.32</ele>
 <time>2009-09-23T14:04:10Z</time>
 </trkpt>
 <trkpt lat="47.463223" lon="13.199441">
 <ele>542.80</ele>
 <time>2009-09-23T14:04:21Z</time>
 </trkpt>
 <trkpt lat="47.462818" lon="13.199354">
 <ele>543.76</ele>
 <time>2009-09-23T14:04:30Z</time>
 </trkpt>
 <trkpt lat="47.462345" lon="13.199316">
 <ele>544.24</ele>
 <time>2009-09-23T14:04:40Z</time>
 </trkpt>
 <trkpt lat="47.462299" lon="13.199317">
 <ele>544.24</ele>
 <time>2009-09-23T14:04:41Z</time>
 </trkpt>
 <trkpt lat="47.461933" lon="13.199374">
 <ele>544.24</ele>
 <time>2009-09-23T14:04:49Z</time>
 </trkpt>
 <trkpt lat="47.461811" lon="13.199396">
 <ele>545.20</ele>
 <time>2009-09-23T14:04:53Z</time>
 </trkpt>
 <trkpt lat="47.461792" lon="13.199393">
 <ele>544.72</ele>
 <time>2009-09-23T14:04:57Z</time>
 </trkpt>
 <trkpt lat="47.461769" lon="13.199413">
 <ele>543.76</ele>
 <time>2009-09-23T14:05:03Z</time>
 </trkpt>
 <trkpt lat="47.461754" lon="13.199444">
 <ele>544.24</ele>
 <time>2009-09-23T14:05:09Z</time>
 </trkpt>
 <trkpt lat="47.461681" lon="13.199449">
 <ele>544.72</ele>
 <time>2009-09-23T14:05:15Z</time>
 </trkpt>
 <trkpt lat="47.461670" lon="13.199470">
 <ele>545.20</ele>
 <time>2009-09-23T14:05:21Z</time>
 </trkpt>
 <trkpt lat="47.461681" lon="13.199477">
 <ele>545.69</ele>
 <time>2009-09-23T14:05:29Z</time>
 </trkpt>
 <trkpt lat="47.461636" lon="13.199513">
 <ele>545.20</ele>
 <time>2009-09-23T14:05:34Z</time>
 </trkpt>
 <trkpt lat="47.461533" lon="13.199553">
 <ele>544.72</ele>
 <time>2009-09-23T14:05:39Z</time>
 </trkpt>
 <trkpt lat="47.461479" lon="13.199595">
 <ele>544.72</ele>
 <time>2009-09-23T14:05:43Z</time>
 </trkpt>
 <trkpt lat="47.461468" lon="13.199596">
 <ele>545.20</ele>
 <time>2009-09-23T14:05:47Z</time>
 </trkpt>
 <trkpt lat="47.461407" lon="13.199617">
 <ele>544.72</ele>
 <time>2009-09-23T14:05:51Z</time>
 </trkpt>
 <trkpt lat="47.461212" lon="13.199678">
 <ele>544.24</ele>
 <time>2009-09-23T14:05:57Z</time>
 </trkpt>
 <trkpt lat="47.460945" lon="13.199782">
 <ele>543.76</ele>
 <time>2009-09-23T14:06:03Z</time>
 </trkpt>
 <trkpt lat="47.460590" lon="13.199945">
 <ele>543.76</ele>
 <time>2009-09-23T14:06:11Z</time>
 </trkpt>
 <trkpt lat="47.460213" lon="13.200155">
 <ele>543.76</ele>
 <time>2009-09-23T14:06:20Z</time>
 </trkpt>
 <trkpt lat="47.459976" lon="13.200295">
 <ele>543.76</ele>
 <time>2009-09-23T14:06:26Z</time>
 </trkpt>
 <trkpt lat="47.459778" lon="13.200269">
 <ele>543.76</ele>
 <time>2009-09-23T14:06:31Z</time>
 </trkpt>
 <trkpt lat="47.459663" lon="13.200180">
 <ele>543.76</ele>
 <time>2009-09-23T14:06:34Z</time>
 </trkpt>
 <trkpt lat="47.459370" lon="13.200109">
 <ele>544.24</ele>
 <time>2009-09-23T14:06:41Z</time>
 </trkpt>
 <trkpt lat="47.459061" lon="13.200172">
 <ele>543.76</ele>
 <time>2009-09-23T14:06:48Z</time>
 </trkpt>
 <trkpt lat="47.458729" lon="13.200284">
 <ele>545.20</ele>
 <time>2009-09-23T14:06:56Z</time>
 </trkpt>
 <trkpt lat="47.458359" lon="13.200448">
 <ele>544.72</ele>
 <time>2009-09-23T14:07:05Z</time>
 </trkpt>
 <trkpt lat="47.457977" lon="13.200661">
 <ele>544.72</ele>
 <time>2009-09-23T14:07:14Z</time>
 </trkpt>
 <trkpt lat="47.457542" lon="13.200904">
 <ele>543.76</ele>
 <time>2009-09-23T14:07:24Z</time>
 </trkpt>
 <trkpt lat="47.457466" lon="13.200972">
 <ele>543.76</ele>
 <time>2009-09-23T14:07:26Z</time>
 </trkpt>
 <trkpt lat="47.457150" lon="13.201340">
 <ele>544.24</ele>
 <time>2009-09-23T14:07:35Z</time>
 </trkpt>
 <trkpt lat="47.456730" lon="13.201697">
 <ele>544.24</ele>
 <time>2009-09-23T14:07:45Z</time>
 </trkpt>
 <trkpt lat="47.456371" lon="13.201960">
 <ele>544.72</ele>
 <time>2009-09-23T14:07:54Z</time>
 </trkpt>
 <trkpt lat="47.456333" lon="13.201983">
 <ele>544.24</ele>
 <time>2009-09-23T14:07:55Z</time>
 </trkpt>
 <trkpt lat="47.456036" lon="13.202077">
 <ele>543.28</ele>
 <time>2009-09-23T14:08:01Z</time>
 </trkpt>
 <trkpt lat="47.455761" lon="13.202269">
 <ele>543.76</ele>
 <time>2009-09-23T14:08:07Z</time>
 </trkpt>
 <trkpt lat="47.455441" lon="13.202652">
 <ele>543.28</ele>
 <time>2009-09-23T14:08:15Z</time>
 </trkpt>
 <trkpt lat="47.455128" lon="13.202995">
 <ele>543.28</ele>
 <time>2009-09-23T14:08:23Z</time>
 </trkpt>
 <trkpt lat="47.454853" lon="13.203401">
 <ele>543.76</ele>
 <time>2009-09-23T14:08:31Z</time>
 </trkpt>
 <trkpt lat="47.454693" lon="13.203840">
 <ele>544.24</ele>
 <time>2009-09-23T14:08:38Z</time>
 </trkpt>
 <trkpt lat="47.454628" lon="13.204317">
 <ele>543.28</ele>
 <time>2009-09-23T14:08:44Z</time>
 </trkpt>
 <trkpt lat="47.454636" lon="13.205104">
 <ele>543.76</ele>
 <time>2009-09-23T14:08:54Z</time>
 </trkpt>
 <trkpt lat="47.454582" lon="13.205724">
 <ele>544.24</ele>
 <time>2009-09-23T14:09:02Z</time>
 </trkpt>
 <trkpt lat="47.454609" lon="13.206280">
 <ele>544.24</ele>
 <time>2009-09-23T14:09:09Z</time>
 </trkpt>
 <trkpt lat="47.454590" lon="13.206835">
 <ele>543.76</ele>
 <time>2009-09-23T14:09:16Z</time>
 </trkpt>
 <trkpt lat="47.454582" lon="13.207065">
 <ele>543.76</ele>
 <time>2009-09-23T14:09:19Z</time>
 </trkpt>
 <trkpt lat="47.454464" lon="13.207888">
 <ele>544.24</ele>
 <time>2009-09-23T14:09:30Z</time>
 </trkpt>
 <trkpt lat="47.454353" lon="13.208428">
 <ele>544.24</ele>
 <time>2009-09-23T14:09:37Z</time>
 </trkpt>
 <trkpt lat="47.454193" lon="13.209003">
 <ele>544.24</ele>
 <time>2009-09-23T14:09:45Z</time>
 </trkpt>
 <trkpt lat="47.453922" lon="13.209756">
 <ele>544.72</ele>
 <time>2009-09-23T14:09:56Z</time>
 </trkpt>
 <trkpt lat="47.453632" lon="13.210368">
 <ele>544.72</ele>
 <time>2009-09-23T14:10:06Z</time>
 </trkpt>
 <trkpt lat="47.453278" lon="13.210996">
 <ele>544.72</ele>
 <time>2009-09-23T14:10:17Z</time>
 </trkpt>
 <trkpt lat="47.452927" lon="13.211513">
 <ele>544.24</ele>
 <time>2009-09-23T14:10:27Z</time>
 </trkpt>
 <trkpt lat="47.452492" lon="13.212009">
 <ele>544.72</ele>
 <time>2009-09-23T14:10:38Z</time>
 </trkpt>
 <trkpt lat="47.451962" lon="13.212479">
 <ele>544.72</ele>
 <time>2009-09-23T14:10:50Z</time>
 </trkpt>
 <trkpt lat="47.451427" lon="13.212843">
 <ele>544.72</ele>
 <time>2009-09-23T14:11:01Z</time>
 </trkpt>
 <trkpt lat="47.450836" lon="13.213142">
 <ele>544.72</ele>
 <time>2009-09-23T14:11:13Z</time>
 </trkpt>
 <trkpt lat="47.450333" lon="13.213309">
 <ele>545.20</ele>
 <time>2009-09-23T14:11:23Z</time>
 </trkpt>
 <trkpt lat="47.449783" lon="13.213411">
 <ele>544.24</ele>
 <time>2009-09-23T14:11:34Z</time>
 </trkpt>
 <trkpt lat="47.449116" lon="13.213438">
 <ele>544.24</ele>
 <time>2009-09-23T14:11:47Z</time>
 </trkpt>
 <trkpt lat="47.448616" lon="13.213424">
 <ele>545.20</ele>
 <time>2009-09-23T14:11:57Z</time>
 </trkpt>
 <trkpt lat="47.448120" lon="13.213405">
 <ele>545.69</ele>
 <time>2009-09-23T14:12:07Z</time>
 </trkpt>
 <trkpt lat="47.447456" lon="13.213375">
 <ele>545.69</ele>
 <time>2009-09-23T14:12:20Z</time>
 </trkpt>
 <trkpt lat="47.446842" lon="13.213348">
 <ele>545.69</ele>
 <time>2009-09-23T14:12:32Z</time>
 </trkpt>
 <trkpt lat="47.446232" lon="13.213327">
 <ele>546.17</ele>
 <time>2009-09-23T14:12:44Z</time>
 </trkpt>
 <trkpt lat="47.445740" lon="13.213305">
 <ele>546.17</ele>
 <time>2009-09-23T14:12:54Z</time>
 </trkpt>
 <trkpt lat="47.445606" lon="13.213303">
 <ele>546.17</ele>
 <time>2009-09-23T14:12:58Z</time>
 </trkpt>
 <trkpt lat="47.445412" lon="13.213285">
 <ele>546.65</ele>
 <time>2009-09-23T14:13:03Z</time>
 </trkpt>
 <trkpt lat="47.445103" lon="13.213239">
 <ele>546.65</ele>
 <time>2009-09-23T14:13:09Z</time>
 </trkpt>
 <trkpt lat="47.444828" lon="13.213236">
 <ele>546.65</ele>
 <time>2009-09-23T14:13:15Z</time>
 </trkpt>
 <trkpt lat="47.444469" lon="13.213220">
 <ele>547.13</ele>
 <time>2009-09-23T14:13:22Z</time>
 </trkpt>
 <trkpt lat="47.443985" lon="13.213207">
 <ele>547.13</ele>
 <time>2009-09-23T14:13:32Z</time>
 </trkpt>
 <trkpt lat="47.443432" lon="13.213188">
 <ele>547.61</ele>
 <time>2009-09-23T14:13:43Z</time>
 </trkpt>
 <trkpt lat="47.443230" lon="13.213120">
 <ele>547.13</ele>
 <time>2009-09-23T14:13:47Z</time>
 </trkpt>
 <trkpt lat="47.442940" lon="13.213102">
 <ele>547.13</ele>
 <time>2009-09-23T14:13:52Z</time>
 </trkpt>
 <trkpt lat="47.442581" lon="13.213166">
 <ele>548.57</ele>
 <time>2009-09-23T14:13:59Z</time>
 </trkpt>
 <trkpt lat="47.442272" lon="13.213132">
 <ele>550.01</ele>
 <time>2009-09-23T14:14:06Z</time>
 </trkpt>
 <trkpt lat="47.442055" lon="13.213099">
 <ele>550.97</ele>
 <time>2009-09-23T14:14:11Z</time>
 </trkpt>
 <trkpt lat="47.441589" lon="13.213017">
 <ele>550.01</ele>
 <time>2009-09-23T14:14:21Z</time>
 </trkpt>
 <trkpt lat="47.441154" lon="13.212917">
 <ele>550.01</ele>
 <time>2009-09-23T14:14:29Z</time>
 </trkpt>
 <trkpt lat="47.440685" lon="13.212766">
 <ele>550.49</ele>
 <time>2009-09-23T14:14:38Z</time>
 </trkpt>
 <trkpt lat="47.440266" lon="13.212573">
 <ele>549.53</ele>
 <time>2009-09-23T14:14:46Z</time>
 </trkpt>
 <trkpt lat="47.439915" lon="13.212394">
 <ele>550.49</ele>
 <time>2009-09-23T14:14:53Z</time>
 </trkpt>
 <trkpt lat="47.439724" lon="13.212262">
 <ele>550.49</ele>
 <time>2009-09-23T14:14:57Z</time>
 </trkpt>
 <trkpt lat="47.439316" lon="13.212018">
 <ele>550.49</ele>
 <time>2009-09-23T14:15:06Z</time>
 </trkpt>
 <trkpt lat="47.439003" lon="13.211839">
 <ele>550.49</ele>
 <time>2009-09-23T14:15:13Z</time>
 </trkpt>
 <trkpt lat="47.438797" lon="13.211620">
 <ele>550.97</ele>
 <time>2009-09-23T14:15:18Z</time>
 </trkpt>
 <trkpt lat="47.438610" lon="13.211513">
 <ele>550.49</ele>
 <time>2009-09-23T14:15:22Z</time>
 </trkpt>
 <trkpt lat="47.438339" lon="13.211597">
 <ele>551.93</ele>
 <time>2009-09-23T14:15:28Z</time>
 </trkpt>
 <trkpt lat="47.438305" lon="13.211602">
 <ele>551.93</ele>
 <time>2009-09-23T14:15:29Z</time>
 </trkpt>
 <trkpt lat="47.438232" lon="13.211589">
 <ele>552.41</ele>
 <time>2009-09-23T14:15:31Z</time>
 </trkpt>
 <trkpt lat="47.437916" lon="13.211528">
 <ele>552.41</ele>
 <time>2009-09-23T14:15:39Z</time>
 </trkpt>
 <trkpt lat="47.437622" lon="13.211468">
 <ele>553.38</ele>
 <time>2009-09-23T14:15:46Z</time>
 </trkpt>
 <trkpt lat="47.437508" lon="13.211405">
 <ele>553.38</ele>
 <time>2009-09-23T14:15:49Z</time>
 </trkpt>
 <trkpt lat="47.437271" lon="13.211371">
 <ele>554.34</ele>
 <time>2009-09-23T14:15:55Z</time>
 </trkpt>
 <trkpt lat="47.436977" lon="13.211249">
 <ele>554.34</ele>
 <time>2009-09-23T14:16:03Z</time>
 </trkpt>
 <trkpt lat="47.436920" lon="13.211222">
 <ele>554.34</ele>
 <time>2009-09-23T14:16:05Z</time>
 </trkpt>
 <trkpt lat="47.436882" lon="13.211100">
 <ele>554.82</ele>
 <time>2009-09-23T14:16:09Z</time>
 </trkpt>
 <trkpt lat="47.436844" lon="13.210930">
 <ele>554.34</ele>
 <time>2009-09-23T14:16:13Z</time>
 </trkpt>
 <trkpt lat="47.436817" lon="13.210896">
 <ele>553.86</ele>
 <time>2009-09-23T14:16:14Z</time>
 </trkpt>
 <trkpt lat="47.436634" lon="13.210716">
 <ele>552.41</ele>
 <time>2009-09-23T14:16:19Z</time>
 </trkpt>
 <trkpt lat="47.436565" lon="13.210431">
 <ele>552.41</ele>
 <time>2009-09-23T14:16:24Z</time>
 </trkpt>
 <trkpt lat="47.436447" lon="13.210398">
 <ele>552.41</ele>
 <time>2009-09-23T14:16:27Z</time>
 </trkpt>
 <trkpt lat="47.436234" lon="13.210482">
 <ele>552.41</ele>
 <time>2009-09-23T14:16:32Z</time>
 </trkpt>
 <trkpt lat="47.435833" lon="13.210625">
 <ele>552.41</ele>
 <time>2009-09-23T14:16:41Z</time>
 </trkpt>
 <trkpt lat="47.435299" lon="13.210773">
 <ele>552.90</ele>
 <time>2009-09-23T14:16:52Z</time>
 </trkpt>
 <trkpt lat="47.434849" lon="13.210855">
 <ele>551.93</ele>
 <time>2009-09-23T14:17:01Z</time>
 </trkpt>
 <trkpt lat="47.434505" lon="13.211017">
 <ele>552.41</ele>
 <time>2009-09-23T14:17:08Z</time>
 </trkpt>
 <trkpt lat="47.434460" lon="13.211047">
 <ele>552.41</ele>
 <time>2009-09-23T14:17:09Z</time>
 </trkpt>
 <trkpt lat="47.434258" lon="13.211272">
 <ele>552.41</ele>
 <time>2009-09-23T14:17:14Z</time>
 </trkpt>
 <trkpt lat="47.434185" lon="13.211389">
 <ele>552.90</ele>
 <time>2009-09-23T14:17:16Z</time>
 </trkpt>
 <trkpt lat="47.433914" lon="13.212055">
 <ele>553.38</ele>
 <time>2009-09-23T14:17:26Z</time>
 </trkpt>
 <trkpt lat="47.433662" lon="13.212662">
 <ele>553.38</ele>
 <time>2009-09-23T14:17:35Z</time>
 </trkpt>
 <trkpt lat="47.433342" lon="13.213284">
 <ele>552.90</ele>
 <time>2009-09-23T14:17:45Z</time>
 </trkpt>
 <trkpt lat="47.432987" lon="13.213820">
 <ele>553.38</ele>
 <time>2009-09-23T14:17:55Z</time>
 </trkpt>
 <trkpt lat="47.432583" lon="13.214400">
 <ele>552.41</ele>
 <time>2009-09-23T14:18:06Z</time>
 </trkpt>
 <trkpt lat="47.432178" lon="13.214880">
 <ele>552.90</ele>
 <time>2009-09-23T14:18:16Z</time>
 </trkpt>
 <trkpt lat="47.431816" lon="13.215190">
 <ele>552.90</ele>
 <time>2009-09-23T14:18:24Z</time>
 </trkpt>
 <trkpt lat="47.431343" lon="13.215492">
 <ele>553.86</ele>
 <time>2009-09-23T14:18:34Z</time>
 </trkpt>
 <trkpt lat="47.430973" lon="13.215729">
 <ele>554.34</ele>
 <time>2009-09-23T14:18:42Z</time>
 </trkpt>
 <trkpt lat="47.430565" lon="13.215888">
 <ele>553.86</ele>
 <time>2009-09-23T14:18:50Z</time>
 </trkpt>
 <trkpt lat="47.430363" lon="13.215996">
 <ele>553.38</ele>
 <time>2009-09-23T14:18:54Z</time>
 </trkpt>
 <trkpt lat="47.430004" lon="13.216087">
 <ele>553.38</ele>
 <time>2009-09-23T14:19:01Z</time>
 </trkpt>
 <trkpt lat="47.429688" lon="13.216288">
 <ele>553.38</ele>
 <time>2009-09-23T14:19:08Z</time>
 </trkpt>
 <trkpt lat="47.429569" lon="13.216511">
 <ele>552.90</ele>
 <time>2009-09-23T14:19:12Z</time>
 </trkpt>
 <trkpt lat="47.429569" lon="13.216659">
 <ele>552.90</ele>
 <time>2009-09-23T14:19:14Z</time>
 </trkpt>
 <trkpt lat="47.429569" lon="13.216802">
 <ele>553.38</ele>
 <time>2009-09-23T14:19:16Z</time>
 </trkpt>
 <trkpt lat="47.429558" lon="13.216958">
 <ele>552.41</ele>
 <time>2009-09-23T14:19:18Z</time>
 </trkpt>
 <trkpt lat="47.429466" lon="13.217457">
 <ele>552.41</ele>
 <time>2009-09-23T14:19:24Z</time>
 </trkpt>
 <trkpt lat="47.429455" lon="13.217625">
 <ele>552.41</ele>
 <time>2009-09-23T14:19:26Z</time>
 </trkpt>
 <trkpt lat="47.429352" lon="13.217970">
 <ele>552.41</ele>
 <time>2009-09-23T14:19:31Z</time>
 </trkpt>
 <trkpt lat="47.429268" lon="13.218063">
 <ele>552.41</ele>
 <time>2009-09-23T14:19:33Z</time>
 </trkpt>
 <trkpt lat="47.429039" lon="13.218266">
 <ele>552.41</ele>
 <time>2009-09-23T14:19:38Z</time>
 </trkpt>
 <trkpt lat="47.428898" lon="13.218513">
 <ele>552.41</ele>
 <time>2009-09-23T14:19:42Z</time>
 </trkpt>
 <trkpt lat="47.428825" lon="13.218729">
 <ele>551.93</ele>
 <time>2009-09-23T14:19:45Z</time>
 </trkpt>
 <trkpt lat="47.428669" lon="13.218936">
 <ele>551.45</ele>
 <time>2009-09-23T14:19:49Z</time>
 </trkpt>
 <trkpt lat="47.428574" lon="13.218998">
 <ele>551.45</ele>
 <time>2009-09-23T14:19:51Z</time>
 </trkpt>
 <trkpt lat="47.428371" lon="13.219234">
 <ele>553.38</ele>
 <time>2009-09-23T14:19:56Z</time>
 </trkpt>
 <trkpt lat="47.428272" lon="13.219417">
 <ele>551.93</ele>
 <time>2009-09-23T14:19:59Z</time>
 </trkpt>
 <trkpt lat="47.428173" lon="13.219833">
 <ele>552.41</ele>
 <time>2009-09-23T14:20:05Z</time>
 </trkpt>
 <trkpt lat="47.428158" lon="13.220048">
 <ele>551.93</ele>
 <time>2009-09-23T14:20:08Z</time>
 </trkpt>
 <trkpt lat="47.428032" lon="13.220356">
 <ele>552.90</ele>
 <time>2009-09-23T14:20:13Z</time>
 </trkpt>
 <trkpt lat="47.427795" lon="13.220524">
 <ele>552.41</ele>
 <time>2009-09-23T14:20:18Z</time>
 </trkpt>
 <trkpt lat="47.427746" lon="13.220535">
 <ele>552.90</ele>
 <time>2009-09-23T14:20:19Z</time>
 </trkpt>
 <trkpt lat="47.427547" lon="13.220545">
 <ele>551.45</ele>
 <time>2009-09-23T14:20:23Z</time>
 </trkpt>
 <trkpt lat="47.427444" lon="13.220562">
 <ele>550.97</ele>
 <time>2009-09-23T14:20:25Z</time>
 </trkpt>
 <trkpt lat="47.427242" lon="13.220754">
 <ele>549.53</ele>
 <time>2009-09-23T14:20:30Z</time>
 </trkpt>
 <trkpt lat="47.427197" lon="13.220938">
 <ele>550.49</ele>
 <time>2009-09-23T14:20:33Z</time>
 </trkpt>
 <trkpt lat="47.427193" lon="13.221142">
 <ele>550.49</ele>
 <time>2009-09-23T14:20:36Z</time>
 </trkpt>
 <trkpt lat="47.427166" lon="13.221350">
 <ele>551.45</ele>
 <time>2009-09-23T14:20:40Z</time>
 </trkpt>
 <trkpt lat="47.427029" lon="13.221330">
 <ele>552.41</ele>
 <time>2009-09-23T14:20:45Z</time>
 </trkpt>
 <trkpt lat="47.426716" lon="13.221159">
 <ele>553.38</ele>
 <time>2009-09-23T14:20:55Z</time>
 </trkpt>
 <trkpt lat="47.426525" lon="13.221052">
 <ele>553.86</ele>
 <time>2009-09-23T14:21:02Z</time>
 </trkpt>
 <trkpt lat="47.426422" lon="13.221026">
 <ele>554.82</ele>
 <time>2009-09-23T14:21:07Z</time>
 </trkpt>
 <trkpt lat="47.426304" lon="13.220985">
 <ele>555.30</ele>
 <time>2009-09-23T14:21:14Z</time>
 </trkpt>
 <trkpt lat="47.426167" lon="13.220948">
 <ele>555.78</ele>
 <time>2009-09-23T14:21:19Z</time>
 </trkpt>
 <trkpt lat="47.425972" lon="13.220881">
 <ele>555.78</ele>
 <time>2009-09-23T14:21:25Z</time>
 </trkpt>
 <trkpt lat="47.425716" lon="13.220792">
 <ele>555.30</ele>
 <time>2009-09-23T14:21:32Z</time>
 </trkpt>
 <trkpt lat="47.425610" lon="13.220760">
 <ele>555.30</ele>
 <time>2009-09-23T14:21:35Z</time>
 </trkpt>
 <trkpt lat="47.425488" lon="13.220775">
 <ele>554.34</ele>
 <time>2009-09-23T14:21:38Z</time>
 </trkpt>
 <trkpt lat="47.425411" lon="13.220812">
 <ele>553.38</ele>
 <time>2009-09-23T14:21:40Z</time>
 </trkpt>
 <trkpt lat="47.425289" lon="13.220953">
 <ele>553.38</ele>
 <time>2009-09-23T14:21:44Z</time>
 </trkpt>
 <trkpt lat="47.425270" lon="13.221193">
 <ele>554.34</ele>
 <time>2009-09-23T14:21:49Z</time>
 </trkpt>
 <trkpt lat="47.425209" lon="13.221310">
 <ele>554.34</ele>
 <time>2009-09-23T14:21:52Z</time>
 </trkpt>
 <trkpt lat="47.424885" lon="13.221695">
 <ele>554.34</ele>
 <time>2009-09-23T14:22:02Z</time>
 </trkpt>
 <trkpt lat="47.424656" lon="13.221936">
 <ele>553.38</ele>
 <time>2009-09-23T14:22:09Z</time>
 </trkpt>
 <trkpt lat="47.424503" lon="13.222215">
 <ele>550.97</ele>
 <time>2009-09-23T14:22:15Z</time>
 </trkpt>
 <trkpt lat="47.424332" lon="13.222383">
 <ele>553.38</ele>
 <time>2009-09-23T14:22:22Z</time>
 </trkpt>
 <trkpt lat="47.424164" lon="13.222480">
 <ele>554.34</ele>
 <time>2009-09-23T14:22:28Z</time>
 </trkpt>
 <trkpt lat="47.423958" lon="13.222634">
 <ele>554.34</ele>
 <time>2009-09-23T14:22:35Z</time>
 </trkpt>
 <trkpt lat="47.423729" lon="13.222940">
 <ele>554.34</ele>
 <time>2009-09-23T14:22:43Z</time>
 </trkpt>
 <trkpt lat="47.423672" lon="13.223028">
 <ele>554.34</ele>
 <time>2009-09-23T14:22:45Z</time>
 </trkpt>
 <trkpt lat="47.423340" lon="13.223421">
 <ele>554.82</ele>
 <time>2009-09-23T14:22:55Z</time>
 </trkpt>
 <trkpt lat="47.422985" lon="13.223834">
 <ele>554.34</ele>
 <time>2009-09-23T14:23:05Z</time>
 </trkpt>
 <trkpt lat="47.422901" lon="13.223922">
 <ele>554.34</ele>
 <time>2009-09-23T14:23:07Z</time>
 </trkpt>
 <trkpt lat="47.422577" lon="13.224095">
 <ele>553.86</ele>
 <time>2009-09-23T14:23:14Z</time>
 </trkpt>
 <trkpt lat="47.422272" lon="13.224155">
 <ele>554.34</ele>
 <time>2009-09-23T14:23:20Z</time>
 </trkpt>
 <trkpt lat="47.422047" lon="13.224044">
 <ele>554.34</ele>
 <time>2009-09-23T14:23:25Z</time>
 </trkpt>
 <trkpt lat="47.421974" lon="13.223963">
 <ele>554.82</ele>
 <time>2009-09-23T14:23:27Z</time>
 </trkpt>
 <trkpt lat="47.421772" lon="13.223734">
 <ele>554.82</ele>
 <time>2009-09-23T14:23:33Z</time>
 </trkpt>
 <trkpt lat="47.421753" lon="13.223618">
 <ele>555.30</ele>
 <time>2009-09-23T14:23:35Z</time>
 </trkpt>
 <trkpt lat="47.421761" lon="13.223130">
 <ele>554.82</ele>
 <time>2009-09-23T14:23:42Z</time>
 </trkpt>
 <trkpt lat="47.421795" lon="13.222591">
 <ele>554.82</ele>
 <time>2009-09-23T14:23:50Z</time>
 </trkpt>
 <trkpt lat="47.421803" lon="13.222036">
 <ele>554.82</ele>
 <time>2009-09-23T14:23:58Z</time>
 </trkpt>
 <trkpt lat="47.421783" lon="13.221472">
 <ele>555.30</ele>
 <time>2009-09-23T14:24:06Z</time>
 </trkpt>
 <trkpt lat="47.421635" lon="13.221064">
 <ele>554.82</ele>
 <time>2009-09-23T14:24:13Z</time>
 </trkpt>
 <trkpt lat="47.421463" lon="13.220865">
 <ele>555.30</ele>
 <time>2009-09-23T14:24:18Z</time>
 </trkpt>
 <trkpt lat="47.421379" lon="13.220649">
 <ele>555.78</ele>
 <time>2009-09-23T14:24:22Z</time>
 </trkpt>
 <trkpt lat="47.421349" lon="13.220104">
 <ele>552.41</ele>
 <time>2009-09-23T14:24:29Z</time>
 </trkpt>
 <trkpt lat="47.421352" lon="13.219894">
 <ele>551.93</ele>
 <time>2009-09-23T14:24:31Z</time>
 </trkpt>
 <trkpt lat="47.421360" lon="13.219790">
 <ele>552.41</ele>
 <time>2009-09-23T14:24:32Z</time>
 </trkpt>
 <trkpt lat="47.421429" lon="13.219431">
 <ele>550.49</ele>
 <time>2009-09-23T14:24:35Z</time>
 </trkpt>
 <trkpt lat="47.421448" lon="13.219409">
 <ele>551.45</ele>
 <time>2009-09-23T14:24:36Z</time>
 </trkpt>
 <trkpt lat="47.421516" lon="13.219412">
 <ele>552.41</ele>
 <time>2009-09-23T14:24:40Z</time>
 </trkpt>
 <trkpt lat="47.421558" lon="13.219411">
 <ele>553.38</ele>
 <time>2009-09-23T14:24:42Z</time>
 </trkpt>
 <trkpt lat="47.421749" lon="13.219392">
 <ele>554.34</ele>
 <time>2009-09-23T14:24:50Z</time>
 </trkpt>
 <trkpt lat="47.421886" lon="13.219296">
 <ele>553.86</ele>
 <time>2009-09-23T14:24:56Z</time>
 </trkpt>
 <trkpt lat="47.421902" lon="13.219280">
 <ele>553.86</ele>
 <time>2009-09-23T14:24:57Z</time>
 </trkpt>
 <trkpt lat="47.421917" lon="13.219217">
 <ele>553.86</ele>
 <time>2009-09-23T14:25:03Z</time>
 </trkpt>
 <trkpt lat="47.421917" lon="13.219248">
 <ele>553.86</ele>
 <time>2009-09-23T14:25:07Z</time>
 </trkpt>
 </trkseg>
 </trk>
</gpx>
